Provisional Data: Long Run near Gaines, PA


Please select a monitoring station.
Please select start date.
Please select start date.

Toggle Unit: C/F Toggle Unit: C/F
Sample Time Temperature (C) Temperature (F) Specific Conductivity (mS/cm) pH   Turbidity (NTU+) DO (mg/L)
10/20/2020 12:00:00 AM 11.21 52.178 0.11 7.4 2.02 9.91
10/20/2020 12:15:00 AM 11.21 52.178 0.11 7.41 2.05 9.91
10/20/2020 12:30:00 AM 11.22 52.196 0.11 7.43 2 9.92
10/20/2020 12:45:00 AM 11.23 52.214 0.11 7.27 2.2 9.91
10/20/2020 1:00:00 AM 11.24 52.232 0.11 7.39 2.02 9.9
10/20/2020 1:15:00 AM 11.26 52.268 0.11 7.42 2 9.91
10/20/2020 1:30:00 AM 11.28 52.304 0.11 7.43 2.08 9.91
10/20/2020 1:45:00 AM 11.3 52.34 0.11 7.44 1.95 9.9
10/20/2020 2:00:00 AM 11.32 52.376 0.11 7.38 1.99 9.9
10/20/2020 2:15:00 AM 11.34 52.412 0.11 7.42 2.02 9.9
10/20/2020 2:30:00 AM 11.35 52.43 0.11 7.42 1.99 9.89
10/20/2020 2:45:00 AM 11.37 52.466 0.11 7.4 2.18 9.9
10/20/2020 3:00:00 AM 11.37 52.466 0.11 7.41 2.01 9.88
10/20/2020 3:15:00 AM 11.38 52.484 0.11 7.43 2.05 9.89
10/20/2020 3:30:00 AM 11.4 52.52 0.11 7.43 2.14 9.9
10/20/2020 3:45:00 AM 11.41 52.538 0.11 7.39 2.01 9.86
10/20/2020 4:00:00 AM 11.42 52.556 0.11 7.43 2.07 9.89
10/20/2020 4:15:00 AM 11.42 52.556 0.11 7.39 2.02 9.8
10/20/2020 4:30:00 AM 11.43 52.574 0.111 7.44 1.96 9.88
10/20/2020 4:45:00 AM 11.44 52.592 0.111 7.4 2.07 9.87
10/20/2020 5:00:00 AM 11.45 52.61 0.11 7.42 1.99 9.84
10/20/2020 5:15:00 AM 11.45 52.61 0.11 7.41 2.04 9.87
10/20/2020 5:30:00 AM 11.46 52.628 0.11 7.41 2.02 9.88
10/20/2020 5:45:00 AM 11.47 52.646 0.111 7.17 1.98 9.85
10/20/2020 6:00:00 AM 11.5 52.7 0.11 7.44 2.14 9.87
10/20/2020 6:15:00 AM 11.51 52.718 0.11 7.43 2.17 9.87
10/20/2020 6:30:00 AM 11.53 52.754 0.109 7.45 2.15 9.91
10/20/2020 6:45:00 AM 11.54 52.772 0.109 7.44 2.24 9.88
10/20/2020 7:00:00 AM 11.55 52.79 0.108 7.31 2.88 9.87
10/20/2020 7:15:00 AM 11.54 52.772 0.109 7.43 2.67 9.88
10/20/2020 7:30:00 AM 11.55 52.79 0.109 7.43 2.53 9.88
10/20/2020 7:45:00 AM 11.55 52.79 0.109 7.42 2.11 9.86
10/20/2020 8:00:00 AM 11.55 52.79 0.109 7.4 2.08 9.86
10/20/2020 8:15:00 AM 11.56 52.808 0.109 7.4 2.08 9.85
10/20/2020 8:30:00 AM 11.56 52.808 0.11 7.39 2.25 9.88
10/20/2020 8:45:00 AM 11.57 52.826 0.11 7.43 2.05 9.92
10/20/2020 9:00:00 AM 11.58 52.844 0.109 7.43 2.07 9.92
10/20/2020 9:15:00 AM 11.59 52.862 0.11 7.41 2.06 9.93
10/20/2020 9:30:00 AM 11.6 52.88 0.11 7.42 2.06 9.97
10/20/2020 9:45:00 AM 11.61 52.898 0.11 7.41 2.04 9.99
10/20/2020 10:00:00 AM 11.64 52.952 0.11 7.45 2.12 10.03
10/20/2020 10:15:00 AM 11.69 53.042 0.11 7.44 2.18 10.1
10/20/2020 10:30:00 AM 11.73 53.114 0.11 7.42 2.14 10.14
10/20/2020 10:45:00 AM 11.76 53.168 0.11 7.43 2.11 10.16
10/20/2020 11:00:00 AM 11.79 53.222 0.11 7.44 2.11 10.18
10/20/2020 11:15:00 AM 11.8 53.24 0.111 7.42 2.04 10.19
10/20/2020 11:30:00 AM 11.83 53.294 0.11 7.44 2 10.25
10/20/2020 11:45:00 AM 11.84 53.312 0.111 7.4 3.05 10.24
10/20/2020 12:00:00 PM 11.85 53.33 0.11 7.44 2.06 10.23
10/20/2020 12:15:00 PM 11.86 53.348 0.111 7.44 2.09 10.2
10/20/2020 12:30:00 PM 11.89 53.402 0.11 7.48 2.05 10.25
10/20/2020 12:45:00 PM 11.95 53.51 0.11 7.24 2.03 10.29
10/20/2020 1:00:00 PM 11.99 53.582 0.11 7.47 2.13 10.32
10/20/2020 1:15:00 PM 12.02 53.636 0.11 7.47 2.07 10.28
10/20/2020 1:30:00 PM 12.05 53.69 0.11 7.51 2.03 10.33
10/20/2020 1:45:00 PM 12.08 53.744 0.111 7.21 2.06 10.35
10/20/2020 2:00:00 PM 12.1 53.78 0.11 7.48 2.05 10.34
10/20/2020 2:15:00 PM 12.12 53.816 0.11 7.48 1.97 10.35
10/20/2020 2:30:00 PM 12.14 53.852 0.11 7.47 2.04 10.36
10/20/2020 2:45:00 PM 12.16 53.888 0.111 7.49 2.03 10.3
10/20/2020 3:00:00 PM 12.16 53.888 0.11 7.52 2.07 10.28
10/20/2020 3:15:00 PM 12.14 53.852 0.11 7.47 2.06 10.25
10/20/2020 3:30:00 PM 12.14 53.852 0.11 7.48 2.11 10.21
10/20/2020 3:45:00 PM 12.13 53.834 0.11 7.47 2.1 10.22
10/20/2020 4:00:00 PM 12.12 53.816 0.11 7.48 2.08 10.2
10/20/2020 4:15:00 PM 12.1 53.78 0.11 7.48 2.02 10.19
10/20/2020 4:30:00 PM 12.09 53.762 0.11 7.49 2.14 10.14
10/20/2020 4:45:00 PM 12.08 53.744 0.11 7.51 2.1 10.09
10/20/2020 5:00:00 PM 12.05 53.69 0.11 7.52 2.14 10.08
10/20/2020 5:15:00 PM 12.02 53.636 0.11 7.49 2.02 10.15
10/20/2020 5:30:00 PM 12 53.6 0.11 7.48 2.03 10.14
10/20/2020 5:45:00 PM 11.97 53.546 0.11 7.48 2.17 10.13
10/20/2020 6:00:00 PM 11.95 53.51 0.11 7.48 2.12 10.13
10/20/2020 6:15:00 PM 11.92 53.456 0.11 7.47 2.1 10.12
10/20/2020 6:30:00 PM 11.89 53.402 0.11 7.51 2.07 10.1
10/20/2020 6:45:00 PM 11.86 53.348 0.11 7.49 2 10.1
10/20/2020 7:00:00 PM 11.83 53.294 0.11 7.47 2.04 10.1
10/20/2020 7:15:00 PM 11.79 53.222 0.111 7.48 2.21 10.07
10/20/2020 7:30:00 PM 11.76 53.168 0.111 7.46 2.23 10.08
10/20/2020 7:45:00 PM 11.73 53.114 0.111 7.46 2.17 10.08
10/20/2020 8:00:00 PM 11.71 53.078 0.111 7.44 2.22 10.08
10/20/2020 8:15:00 PM 11.68 53.024 0.111 7.48 2.12 10.03
10/20/2020 8:30:00 PM 11.65 52.97 0.111 7.47 2.17 10.06
10/20/2020 8:45:00 PM 11.62 52.916 0.111 7.43 2.4 10.1
10/20/2020 9:00:00 PM 11.6 52.88 0.111 7.45 2.27 10.08
10/20/2020 9:15:00 PM 11.57 52.826 0.111 7.49 2.07 10.1
10/20/2020 9:30:00 PM 11.54 52.772 0.111 7.5 2.14 10.1
10/20/2020 9:45:00 PM 11.52 52.736 0.111 7.46 2.19 10.12
10/20/2020 10:00:00 PM 11.49 52.682 0.111 7.5 2.12 10.14
10/20/2020 10:15:00 PM 11.47 52.646 0.111 7.46 2.09 10.15
10/20/2020 10:30:00 PM 11.44 52.592 0.112 7.5 2.11 10.15
10/20/2020 10:45:00 PM 11.42 52.556 0.112 7.47 2.12 10.15
10/20/2020 11:00:00 PM 11.4 52.52 0.112 7.49 2.25 10.16
10/20/2020 11:15:00 PM 11.38 52.484 0.112 7.49 2.4 10.16
10/20/2020 11:30:00 PM 11.36 52.448 0.112 7.47 2.16 10.17
10/20/2020 11:45:00 PM 11.35 52.43 0.112 7.49 2.08 10.17
10/21/2020 12:00:00 AM 11.33 52.394 0.112 7.47 2.14 10.17
10/21/2020 12:15:00 AM 11.32 52.376 0.112 7.46 2.06 10.17
10/21/2020 12:30:00 AM 11.31 52.358 0.112 7.45 2.21 10.17
10/21/2020 12:45:00 AM 11.29 52.322 0.112 7.47 2.33 10.17
10/21/2020 1:00:00 AM 11.28 52.304 0.112 7.5 2.15 10.19
10/21/2020 1:15:00 AM 11.27 52.286 0.112 7.49 2.09 10.19
10/21/2020 1:30:00 AM 11.26 52.268 0.112 7.47 2.05 10.19
10/21/2020 1:45:00 AM 11.25 52.25 0.112 7.46 2.24 10.18
10/21/2020 2:00:00 AM 11.24 52.232 0.112 7.46 2.01 10.2
10/21/2020 2:15:00 AM 11.23 52.214 0.112 7.47 2.18 10.2
10/21/2020 2:30:00 AM 11.22 52.196 0.112 7.46 2.06 10.19
10/21/2020 2:45:00 AM 11.21 52.178 0.112 7.46 2.36 10.21
10/21/2020 3:00:00 AM 11.2 52.16 0.112 7.5 2.1 10.2
10/21/2020 3:15:00 AM 11.19 52.142 0.112 7.47 2.14 10.21
10/21/2020 3:30:00 AM 11.18 52.124 0.112 7.5 2.47 10.21
10/21/2020 3:45:00 AM 11.17 52.106 0.113 7.51 2.22 10.2
10/21/2020 4:00:00 AM 11.16 52.088 0.112 7.5 2.06 10.2
10/21/2020 4:15:00 AM 11.16 52.088 0.112 7.46 2.17 10.2
10/21/2020 4:30:00 AM 11.15 52.07 0.112 7.42 2.03 10.19
10/21/2020 4:45:00 AM 11.15 52.07 0.112 7.25 2.06 10.21
10/21/2020 5:00:00 AM 11.14 52.052 0.113 7.46 2.09 10.2
10/21/2020 5:15:00 AM 11.13 52.034 0.112 7.45 2.23 10.22
10/21/2020 5:30:00 AM 11.13 52.034 0.112 7.49 2.43 10.22
10/21/2020 5:45:00 AM 11.13 52.034 0.112 7.47 2 10.2
10/21/2020 6:00:00 AM 11.12 52.016 0.113 7.49 1.91 10.2
10/21/2020 6:15:00 AM 11.12 52.016 0.112 7.49 1.98 10.21
10/21/2020 6:30:00 AM 11.11 51.998 0.113 7.46 2.14 10.21
10/21/2020 6:45:00 AM 11.1 51.98 0.113 7.5 2.1 10.22
10/21/2020 7:00:00 AM 11.1 51.98 0.113 7.43 2.05 10.21
10/21/2020 7:15:00 AM 11.09 51.962 0.113 7.46 2.04 10.18
10/21/2020 7:30:00 AM 11.09 51.962 0.112 7.47 2.03 10.23
10/21/2020 7:45:00 AM 11.09 51.962 0.113 7.17 2.01 10.22
10/21/2020 8:00:00 AM 11.1 51.98 0.113 7.5 2.03 10.24
10/21/2020 8:15:00 AM 11.11 51.998 0.113 7.5 2.07 10.25
10/21/2020 8:30:00 AM 11.12 52.016 0.113 7.47 2.06 10.26
10/21/2020 8:45:00 AM 11.14 52.052 0.112 7.47 2.09 10.31
10/21/2020 9:00:00 AM 11.17 52.106 0.113 7.51 2.02 10.36
10/21/2020 9:15:00 AM 11.21 52.178 0.113 7.52 1.92 10.4
10/21/2020 9:30:00 AM 11.26 52.268 0.113 7.49 2.03 10.45
10/21/2020 9:45:00 AM 11.3 52.34 0.112 7.51 1.98 10.49
10/21/2020 10:00:00 AM 11.39 52.502 0.112 7.52 2.01 10.55
10/21/2020 10:15:00 AM 11.51 52.718 0.112 7.53 1.91 10.61
10/21/2020 10:30:00 AM 11.61 52.898 0.112 7.56 1.99 10.64
10/21/2020 10:45:00 AM 11.74 53.132 0.112 7.54 1.93 10.65
10/21/2020 11:00:00 AM 11.95 53.51 0.112 7.53 1.89 10.67
10/21/2020 11:15:00 AM 12.17 53.906 0.112 7.55 1.94 10.68
10/21/2020 11:30:00 AM 12.4 54.32 0.112 7.56 1.92 10.65
10/21/2020 11:45:00 AM 12.62 54.716 0.112 7.37 1.94 10.63
10/21/2020 12:00:00 PM 12.83 55.094 0.112 7.6 1.98 10.61
10/21/2020 12:15:00 PM 13.07 55.526 0.112 7.56 2.01 10.6
10/21/2020 12:30:00 PM 13.26 55.868 0.112 7.57 1.98 10.57
10/21/2020 12:45:00 PM 13.42 56.156 0.112 7.24 1.96 10.51
10/21/2020 1:00:00 PM 13.61 56.498 0.112 7.57 2.04 10.51
10/21/2020 1:15:00 PM 13.74 56.732 0.112 7.58 1.98 10.47
10/21/2020 1:30:00 PM 13.84 56.912 0.112 7.57 2.2 10.43
10/21/2020 1:45:00 PM 13.97 57.146 0.112 7.43 1.95 10.4
10/21/2020 2:00:00 PM 14.1 57.38 0.112 7.44 1.93 10.37
10/21/2020 2:15:00 PM 14.21 57.578 0.112 7.29 1.94 10.31
10/21/2020 2:30:00 PM 14.27 57.686 0.112 7.56 1.96 10.27
10/21/2020 2:45:00 PM 14.37 57.866 0.112 7.57 1.91 10.23
10/21/2020 3:00:00 PM 14.47 58.046 0.112 7.54 2.14 10.2
10/21/2020 3:15:00 PM 14.59 58.262 0.112 7.57 1.92 10.17
10/21/2020 3:30:00 PM 14.61 58.298 0.112 7.57 2.06 10.06
10/21/2020 3:45:00 PM 14.63 58.334 0.112 7.57 2.03 10.03
10/21/2020 4:00:00 PM 14.62 58.316 0.112 7.59 2.07 9.97
10/21/2020 4:15:00 PM 14.63 58.334 0.112 7.56 1.95 9.93
10/21/2020 4:30:00 PM 14.63 58.334 0.112 7.55 2.01 9.91
10/21/2020 4:45:00 PM 14.62 58.316 0.112 7.55 1.96 9.88
10/21/2020 5:00:00 PM 14.6 58.28 0.112 7.36 2 9.85
10/21/2020 5:15:00 PM 14.58 58.244 0.112 7.52 1.98 9.82
10/21/2020 5:30:00 PM 14.55 58.19 0.112 7.51 2.04 9.78
10/21/2020 5:45:00 PM 14.52 58.136 0.112 7.49 1.95 9.73
10/21/2020 6:00:00 PM 14.48 58.064 0.112 7.5 2.12 9.7
10/21/2020 6:15:00 PM 14.44 57.992 0.112 7.5 2.04 9.68
10/21/2020 6:30:00 PM 14.39 57.902 0.112 7.5 1.99 9.63
10/21/2020 6:45:00 PM 14.34 57.812 0.112 7.48 2 9.61
10/21/2020 7:00:00 PM 14.29 57.722 0.112 7.47 2.13 9.58
10/21/2020 7:15:00 PM 14.23 57.614 0.112 7.51 2.08 9.54
10/21/2020 7:30:00 PM 14.18 57.524 0.112 7.47 2.34 9.54
10/21/2020 7:45:00 PM 14.12 57.416 0.112 7.46 2.02 9.52
10/21/2020 8:00:00 PM 14.06 57.308 0.112 7.49 1.96 9.52
10/21/2020 8:15:00 PM 14.01 57.218 0.112 7.46 2.04 9.52
10/21/2020 8:30:00 PM 13.96 57.128 0.112 7.45 2.07 9.52
10/21/2020 8:45:00 PM 13.91 57.038 0.113 7.43 2.05 9.5
10/21/2020 9:00:00 PM 13.87 56.966 0.113 7.43 3.12 9.53
10/21/2020 9:15:00 PM 13.82 56.876 0.113 7.44 2.2 9.53
10/21/2020 9:30:00 PM 13.78 56.804 0.113 7.43 2.12 9.52
10/21/2020 9:45:00 PM 13.71 56.678 0.113 7.46 2.14 9.54
10/21/2020 10:00:00 PM 13.66 56.588 0.113 7.43 2.21 9.54
10/21/2020 10:15:00 PM 13.6 56.48 0.112 7.41 2.13 9.55
10/21/2020 10:30:00 PM 13.52 56.336 0.113 7.43 2.25 9.56
10/21/2020 10:45:00 PM 13.46 56.228 0.113 7.45 2.32 9.58
10/21/2020 11:00:00 PM 13.37 56.066 0.113 7.41 2.17 9.58
10/21/2020 11:15:00 PM 13.31 55.958 0.113 7.45 2.17 9.61
10/21/2020 11:30:00 PM 13.23 55.814 0.113 7.42 2.36 9.61
10/21/2020 11:45:00 PM 13.17 55.706 0.113 7.42 2.09 9.64
10/22/2020 12:00:00 AM 13.12 55.616 0.113 7.42 1.98 9.65
10/22/2020 12:15:00 AM 13.08 55.544 0.113 7.42 2.08 9.64
10/22/2020 12:30:00 AM 13.02 55.436 0.113 7.46 2.05 9.68
10/22/2020 12:45:00 AM 12.96 55.328 0.113 7.44 2.24 9.69
10/22/2020 1:00:00 AM 12.9 55.22 0.113 7.42 2.05 9.68
10/22/2020 1:15:00 AM 12.86 55.148 0.113 7.44 2.03 9.7
10/22/2020 1:30:00 AM 12.83 55.094 0.113 7.42 2.15 9.71
10/22/2020 1:45:00 AM 12.8 55.04 0.113 7.42 2.17 9.72
10/22/2020 2:00:00 AM 12.77 54.986 0.113 7.45 2.15 9.73
10/22/2020 2:15:00 AM 12.74 54.932 0.113 7.42 2.24 9.74
10/22/2020 2:30:00 AM 12.72 54.896 0.113 7.43 2.1 9.74
10/22/2020 2:45:00 AM 12.7 54.86 0.113 7.45 2.34 9.75
10/22/2020 3:00:00 AM 12.68 54.824 0.113 7.42 2.31 9.74
10/22/2020 3:15:00 AM 12.66 54.788 0.113 7.41 2.17 9.75
10/22/2020 3:30:00 AM 12.65 54.77 0.113 7.41 2.06 9.77
10/22/2020 3:45:00 AM 12.63 54.734 0.113 7.42 2.13 9.76
10/22/2020 4:00:00 AM 12.62 54.716 0.113 7.41 2.16 9.75
10/22/2020 4:15:00 AM 12.6 54.68 0.113 7.41 2.04 9.77
10/22/2020 4:30:00 AM 12.59 54.662 0.113 7.45 2.06 9.78
10/22/2020 4:45:00 AM 12.58 54.644 0.113 7.42 2.09 9.77
10/22/2020 5:00:00 AM 12.57 54.626 0.113 7.44 2.04 9.78
10/22/2020 5:15:00 AM 12.56 54.608 0.113 7.4 2.03 9.79
10/22/2020 5:30:00 AM 12.55 54.59 0.113 7.44 2.12 9.78
10/22/2020 5:45:00 AM 12.55 54.59 0.113 7.41 2.09 9.79
10/22/2020 6:00:00 AM 12.54 54.572 0.113 7.4 7.38 9.76
10/22/2020 6:15:00 AM 12.54 54.572 0.113 7.41 2.08 9.79
10/22/2020 6:30:00 AM 12.53 54.554 0.113 7.41 2.17 9.79
10/22/2020 6:45:00 AM 12.53 54.554 0.113 7.39 2.09 9.8
10/22/2020 7:00:00 AM 12.52 54.536 0.113 7.41 2.08 9.8
10/22/2020 7:15:00 AM 12.52 54.536 0.113 7.4 2.24 9.8
10/22/2020 7:30:00 AM 12.51 54.518 0.113 7.41 2.03 9.79
10/22/2020 7:45:00 AM 12.51 54.518 0.113 7.41 2.03 9.8
10/22/2020 8:00:00 AM 12.5 54.5 0.113 7.41 2.05 9.8
10/22/2020 8:15:00 AM 12.5 54.5 0.113 7.4 2.41 9.82
10/22/2020 8:30:00 AM 12.5 54.5 0.113 7.41 1.97 9.85
10/22/2020 8:45:00 AM 12.51 54.518 0.113 7.41 2 9.88
10/22/2020 9:00:00 AM 12.53 54.554 0.113 7.4 1.93 9.9
10/22/2020 9:15:00 AM 12.55 54.59 0.113 7.42 1.95 9.96
10/22/2020 9:30:00 AM 12.59 54.662 0.113 7.43 1.97 10.01
10/22/2020 9:45:00 AM 12.63 54.734 0.113 7.46 2 10.07
10/22/2020 10:00:00 AM 12.68 54.824 0.113 7.44 2.14 10.13
10/22/2020 10:15:00 AM 12.76 54.968 0.113 7.49 2.03 10.2
10/22/2020 10:30:00 AM 12.86 55.148 0.113 7.48 2.01 10.28
10/22/2020 10:45:00 AM 12.98 55.364 0.113 7.51 1.95 10.3
10/22/2020 11:00:00 AM 13.14 55.652 0.113 7.5 2 10.32
10/22/2020 11:15:00 AM 13.35 56.03 0.112 7.51 1.95 10.35
10/22/2020 11:30:00 AM 13.55 56.39 0.112 7.52 1.86 10.33
10/22/2020 11:45:00 AM 13.75 56.75 0.112 7.51 2.03 10.33
10/22/2020 12:00:00 PM 13.93 57.074 0.112 7.53 2 10.32
10/22/2020 12:15:00 PM 14.09 57.362 0.112 7.54 1.97 10.33
10/22/2020 12:30:00 PM 14.3 57.74 0.112 7.55 1.84 10.32
10/22/2020 12:45:00 PM 14.46 58.028 0.112 7.55 1.94 10.3
10/22/2020 1:00:00 PM 14.63 58.334 0.113 7.57 1.92 10.28
10/22/2020 1:15:00 PM 14.76 58.568 0.112 7.56 1.96 10.22
10/22/2020 1:30:00 PM 14.84 58.712 0.112 7.56 1.93 10.2
10/22/2020 1:45:00 PM 14.87 58.766 0.112 7.33 1.91 10.16
10/22/2020 2:00:00 PM 14.91 58.838 0.112 7.56 2.14 10.1
10/22/2020 2:15:00 PM 14.99 58.982 0.112 7.54 1.88 10.07
10/22/2020 2:30:00 PM 15.06 59.108 0.112 7.55 1.88 10.03
10/22/2020 2:45:00 PM 15.12 59.216 0.112 7.58 1.92 9.97
10/22/2020 3:00:00 PM 15.19 59.342 0.112 7.55 1.9 9.91
10/22/2020 3:15:00 PM 15.23 59.414 0.112 7.52 1.89 9.87
10/22/2020 3:30:00 PM 15.31 59.558 0.112 7.55 1.87 9.85
10/22/2020 3:45:00 PM 15.35 59.63 0.112 7.53 1.95 9.79
10/22/2020 4:00:00 PM 15.38 59.684 0.112 7.57 1.91 9.74
10/22/2020 4:15:00 PM 15.4 59.72 0.112 7.54 1.91 9.69
10/22/2020 4:30:00 PM 15.39 59.702 0.112 7.51 1.95 9.64
10/22/2020 4:45:00 PM 15.39 59.702 0.112 7.53 1.91 9.6
10/22/2020 5:00:00 PM 15.38 59.684 0.112 7.5 2.03 9.55
10/22/2020 5:15:00 PM 15.38 59.684 0.112 7.51 1.97 9.54
10/22/2020 5:30:00 PM 15.38 59.684 0.112 7.49 2 9.51
10/22/2020 5:45:00 PM 15.36 59.648 0.112 7.5 1.99 9.48
10/22/2020 6:00:00 PM 15.33 59.594 0.112 7.48 1.96 9.44
10/22/2020 6:15:00 PM 15.31 59.558 0.112 7.47 1.91 9.4
10/22/2020 6:30:00 PM 15.26 59.468 0.112 7.48 1.99 9.35
10/22/2020 6:45:00 PM 15.21 59.378 0.112 7.5 1.95 9.33
10/22/2020 7:00:00 PM 15.15 59.27 0.112 7.47 1.94 9.3
10/22/2020 7:15:00 PM 15.08 59.144 0.112 7.45 2.14 9.27
10/22/2020 7:30:00 PM 15.01 59.018 0.113 7.43 2.04 9.25
10/22/2020 7:45:00 PM 14.93 58.874 0.113 7.44 2.07 9.23
10/22/2020 8:00:00 PM 14.86 58.748 0.113 7.43 2.17 9.23
10/22/2020 8:15:00 PM 14.79 58.622 0.113 7.43 2.06 9.23
10/22/2020 8:30:00 PM 14.71 58.478 0.113 7.46 2.04 9.23
10/22/2020 8:45:00 PM 14.64 58.352 0.113 7.44 1.99 9.23
10/22/2020 9:00:00 PM 14.55 58.19 0.113 7.43 2.23 9.23
10/22/2020 9:15:00 PM 14.46 58.028 0.113 7.42 1.96 9.25
10/22/2020 9:30:00 PM 14.37 57.866 0.113 7.43 2.2 9.25
10/22/2020 9:45:00 PM 14.28 57.704 0.113 7.42 2.07 9.26
10/22/2020 10:00:00 PM 14.19 57.542 0.113 7.43 2.54 9.29
10/22/2020 10:15:00 PM 14.1 57.38 0.113 7.42 1.97 9.3
10/22/2020 10:30:00 PM 14.01 57.218 0.113 7.42 1.99 9.33
10/22/2020 10:45:00 PM 13.92 57.056 0.113 7.42 1.97 9.33
10/22/2020 11:00:00 PM 13.84 56.912 0.113 7.43 2.04 9.35
10/22/2020 11:15:00 PM 13.75 56.75 0.113 7.41 2.19 9.37
10/22/2020 11:30:00 PM 13.67 56.606 0.113 7.4 1.93 9.38
10/22/2020 11:45:00 PM 13.58 56.444 0.113 7.44 1.99 9.4
10/23/2020 12:00:00 AM 13.5 56.3 0.113 7.41 1.97 9.42
10/23/2020 12:15:00 AM 13.42 56.156 0.113 7.41 2.04 9.42
10/23/2020 12:30:00 AM 13.34 56.012 0.113 7.42 1.98 9.45
10/23/2020 12:45:00 AM 13.26 55.868 0.113 7.41 1.97 9.47
10/23/2020 1:00:00 AM 13.19 55.742 0.113 7.45 1.92 9.5
10/23/2020 1:15:00 AM 13.1 55.58 0.113 7.42 2.1 9.51
10/23/2020 1:30:00 AM 13.03 55.454 0.113 7.44 2.09 9.54
10/23/2020 1:45:00 AM 12.96 55.328 0.113 7.44 1.99 9.54
10/23/2020 2:00:00 AM 12.88 55.184 0.113 7.41 1.97 9.57
10/23/2020 2:15:00 AM 12.82 55.076 0.113 7.41 2.01 9.59
10/23/2020 2:30:00 AM 12.75 54.95 0.113 7.44 2.06 9.6
10/23/2020 2:45:00 AM 12.67 54.806 0.113 7.4 2.21 9.62
10/23/2020 3:00:00 AM 12.62 54.716 0.113 7.41 1.96 9.63
10/23/2020 3:15:00 AM 12.55 54.59 0.113 7.4 2.03 9.65
10/23/2020 3:30:00 AM 12.48 54.464 0.113 7.44 2.06 9.66
10/23/2020 3:45:00 AM 12.42 54.356 0.113 7.42 1.96 9.69
10/23/2020 4:00:00 AM 12.36 54.248 0.113 7.41 2.12 9.7
10/23/2020 4:15:00 AM 12.3 54.14 0.113 7.41 1.93 9.72
10/23/2020 4:30:00 AM 12.25 54.05 0.113 7.41 2.23 9.72
10/23/2020 4:45:00 AM 12.21 53.978 0.113 7.42 1.93 9.73
10/23/2020 5:00:00 AM 12.18 53.924 0.113 7.42 2 9.75
10/23/2020 5:15:00 AM 12.14 53.852 0.113 7.42 1.96 9.74
10/23/2020 5:30:00 AM 12.12 53.816 0.113 7.41 1.91 9.76
10/23/2020 5:45:00 AM 12.1 53.78 0.113 7.42 1.92 9.77
10/23/2020 6:00:00 AM 12.08 53.744 0.114 7.41 2.01 9.78
10/23/2020 6:15:00 AM 12.06 53.708 0.113 7.41 2.12 9.79
10/23/2020 6:30:00 AM 12.03 53.654 0.113 7.44 2.55 9.78
10/23/2020 6:45:00 AM 12.01 53.618 0.113 7.41 2.03 9.8
10/23/2020 7:00:00 AM 11.99 53.582 0.113 7.43 1.9 9.79
10/23/2020 7:15:00 AM 11.98 53.564 0.113 7.44 2.06 9.81
10/23/2020 7:30:00 AM 11.97 53.546 0.113 7.4 2.06 9.82
10/23/2020 7:45:00 AM 11.95 53.51 0.113 7.41 1.9 9.82
10/23/2020 8:00:00 AM 11.94 53.492 0.113 7.42 1.98 9.83
10/23/2020 8:15:00 AM 11.94 53.492 0.113 7.43 1.95 9.85
10/23/2020 8:30:00 AM 11.95 53.51 0.113 7.42 1.98 9.89
10/23/2020 8:45:00 AM 11.98 53.564 0.113 7.42 1.87 9.94
10/23/2020 9:00:00 AM 11.99 53.582 0.113 7.46 1.96 9.97
10/23/2020 9:15:00 AM 12 53.6 0.113 7.42 2.36 10.02
10/23/2020 9:30:00 AM 12.02 53.636 0.113 7.48 1.95 10.08
10/23/2020 9:45:00 AM 12.05 53.69 0.113 7.45 2.05 10.13
10/23/2020 10:00:00 AM 12.09 53.762 0.113 7.46 1.97 10.19
10/23/2020 10:15:00 AM 12.14 53.852 0.113 7.5 1.93 10.23
10/23/2020 10:30:00 AM 12.21 53.978 0.113 7.47 1.98 10.27
10/23/2020 10:45:00 AM 12.3 54.14 0.113 7.5 1.94 10.29
10/23/2020 11:00:00 AM 12.43 54.374 0.113 7.5 2.01 10.33
10/23/2020 11:15:00 AM 12.59 54.662 0.113 7.48 1.96 10.36
10/23/2020 11:30:00 AM 12.73 54.914 0.113 7.53 1.86 10.37
10/23/2020 11:45:00 AM 12.9 55.22 0.113 7.5 1.87 10.36
10/23/2020 12:00:00 PM 13.06 55.508 0.113 7.49 1.91 10.33
10/23/2020 12:15:00 PM 13.24 55.832 0.112 7.5 1.91 10.33
10/23/2020 12:30:00 PM 13.44 56.192 0.112 7.5 1.88 10.32
10/23/2020 12:45:00 PM 13.63 56.534 0.112 7.53 1.91 10.3
10/23/2020 1:00:00 PM 13.79 56.822 0.112 7.52 1.88 10.3
10/23/2020 1:15:00 PM 13.95 57.11 0.112 7.54 1.88 10.29
10/23/2020 1:30:00 PM 14.11 57.398 0.112 7.57 1.85 10.27
10/23/2020 1:45:00 PM 14.24 57.632 0.112 7.57 1.86 10.25
10/23/2020 2:00:00 PM 14.36 57.848 0.112 7.58 1.9 10.22
10/23/2020 2:15:00 PM 14.45 58.01 0.112 7.42 1.92 10.17
10/23/2020 2:30:00 PM 14.55 58.19 0.112 7.57 1.96 10.14
10/23/2020 2:45:00 PM 14.64 58.352 0.112 7.53 1.94 10.1
10/23/2020 3:00:00 PM 14.67 58.406 0.112 7.57 1.94 10.01
10/23/2020 3:15:00 PM 14.76 58.568 0.112 7.56 1.89 9.98
10/23/2020 3:30:00 PM 14.84 58.712 0.112 7.52 1.91 9.93
10/23/2020 3:45:00 PM 14.9 58.82 0.112 7.52 1.9 9.88
10/23/2020 4:00:00 PM 14.98 58.964 0.112 7.57 1.84 9.84
10/23/2020 4:15:00 PM 15.05 59.09 0.112 7.52 1.95 9.79
10/23/2020 4:30:00 PM 15.11 59.198 0.112 7.53 1.9 9.74
10/23/2020 4:45:00 PM 15.14 59.252 0.112 7.5 1.93 9.67
10/23/2020 5:00:00 PM 15.16 59.288 0.112 7.51 1.99 9.62
10/23/2020 5:15:00 PM 15.19 59.342 0.113 7.53 2.05 9.58
10/23/2020 5:30:00 PM 15.19 59.342 0.112 7.54 1.91 9.53
10/23/2020 5:45:00 PM 15.17 59.306 0.112 7.49 1.89 9.47
10/23/2020 6:00:00 PM 15.15 59.27 0.112 7.49 1.91 9.4
10/23/2020 6:15:00 PM 15.13 59.234 0.112 7.49 1.97 9.36
10/23/2020 6:30:00 PM 15.09 59.162 0.112 7.5 2.04 9.33
10/23/2020 6:45:00 PM 15.05 59.09 0.113 7.46 1.95 9.28
10/23/2020 7:00:00 PM 14.99 58.982 0.113 7.46 2.02 9.22
10/23/2020 7:15:00 PM 14.95 58.91 0.113 7.47 2.1 9.2
10/23/2020 7:30:00 PM 14.89 58.802 0.113 7.48 1.99 9.17
10/23/2020 7:45:00 PM 14.84 58.712 0.113 7.44 2 9.15
10/23/2020 8:00:00 PM 14.77 58.586 0.113 7.47 1.94 9.14
10/23/2020 8:15:00 PM 14.72 58.496 0.113 7.47 2.42 9.12
10/23/2020 8:30:00 PM 14.66 58.388 0.113 7.44 1.93 9.12
10/23/2020 8:45:00 PM 14.6 58.28 0.113 7.46 1.96 9.11
10/23/2020 9:00:00 PM 14.55 58.19 0.114 7.43 1.99 9.11
10/23/2020 9:15:00 PM 14.49 58.082 0.113 7.43 1.99 9.1
10/23/2020 9:30:00 PM 14.42 57.956 0.113 7.46 1.95 9.1
10/23/2020 9:45:00 PM 14.35 57.83 0.113 7.44 1.87 9.13
10/23/2020 10:00:00 PM 14.29 57.722 0.113 7.43 1.96 9.12
10/23/2020 10:15:00 PM 14.22 57.596 0.113 7.42 1.87 9.13
10/23/2020 10:30:00 PM 14.16 57.488 0.113 7.41 2 9.14
10/23/2020 10:45:00 PM 14.09 57.362 0.113 7.44 1.88 9.15
10/23/2020 11:00:00 PM 14.02 57.236 0.113 7.42 2.11 9.17
10/23/2020 11:15:00 PM 13.96 57.128 0.113 7.43 1.94 9.17
10/23/2020 11:30:00 PM 13.9 57.02 0.113 7.44 1.96 9.18
10/23/2020 11:45:00 PM 13.86 56.948 0.113 7.41 1.94 9.19
10/24/2020 12:00:00 AM 13.81 56.858 0.113 7.42 1.91 9.2
10/24/2020 12:15:00 AM 13.76 56.768 0.113 7.42 1.95 9.21
10/24/2020 12:30:00 AM 13.72 56.696 0.113 7.42 1.92 9.22
10/24/2020 12:45:00 AM 13.69 56.642 0.113 7.42 1.92 9.23
10/24/2020 1:00:00 AM 13.66 56.588 0.113 7.42 1.95 9.24
10/24/2020 1:15:00 AM 13.63 56.534 0.113 7.44 2.15 9.25
10/24/2020 1:30:00 AM 13.6 56.48 0.113 7.41 1.97 9.24
10/24/2020 1:45:00 AM 13.57 56.426 0.113 7.41 1.9 9.26
10/24/2020 2:00:00 AM 13.55 56.39 0.113 7.41 2.07 9.25
10/24/2020 2:15:00 AM 13.53 56.354 0.114 7.4 1.92 9.27
10/24/2020 2:30:00 AM 13.51 56.318 0.113 7.41 1.99 9.26
10/24/2020 2:45:00 AM 13.49 56.282 0.113 7.41 2.01 9.27
10/24/2020 3:00:00 AM 13.46 56.228 0.114 7.41 2.04 9.27
10/24/2020 3:15:00 AM 13.43 56.174 0.113 7.4 1.97 9.28
10/24/2020 3:30:00 AM 13.41 56.138 0.113 7.39 2.05 9.29
10/24/2020 3:45:00 AM 13.39 56.102 0.113 7.4 1.94 9.28
10/24/2020 4:00:00 AM 13.37 56.066 0.113 7.4 1.93 9.29
10/24/2020 4:15:00 AM 13.35 56.03 0.113 7.39 1.91 9.3
10/24/2020 4:30:00 AM 13.34 56.012 0.114 7.41 1.97 9.31
10/24/2020 4:45:00 AM 13.33 55.994 0.114 7.4 1.96 9.31
10/24/2020 5:00:00 AM 13.31 55.958 0.114 7.4 1.91 9.31
10/24/2020 5:15:00 AM 13.31 55.958 0.114 7.4 2.63 9.31
10/24/2020 5:30:00 AM 13.3 55.94 0.114 7.4 2.23 9.31
10/24/2020 5:45:00 AM 13.29 55.922 0.113 7.41 2.03 9.32
10/24/2020 6:00:00 AM 13.29 55.922 0.114 7.41 1.95 9.3
10/24/2020 6:15:00 AM 13.28 55.904 0.113 7.4 2.04 9.31
10/24/2020 6:30:00 AM 13.23 55.814 0.113 7.4 2.24 9.3
10/24/2020 6:45:00 AM 13.19 55.742 0.113 7.41 2 9.31
10/24/2020 7:00:00 AM 13.16 55.688 0.113 7.41 1.92 9.33
10/24/2020 7:15:00 AM 13.11 55.598 0.113 7.29 1.73 9.34
10/24/2020 7:30:00 AM 13.08 55.544 0.113 7.36 1.94 9.34
10/24/2020 7:45:00 AM 13.04 55.472 0.114 7.36 1.98 9.36
10/24/2020 8:00:00 AM 12.99 55.382 0.113 7.37 2.08 9.37
10/24/2020 8:15:00 AM 12.94 55.292 0.113 7.4 1.97 9.41
10/24/2020 8:30:00 AM 12.9 55.22 0.113 7.41 1.98 9.44
10/24/2020 8:45:00 AM 12.85 55.13 0.113 7.38 1.98 9.46
10/24/2020 9:00:00 AM 12.82 55.076 0.113 7.39 2.2 9.51
10/24/2020 9:15:00 AM 12.78 55.004 0.113 7.42 2.03 9.57
10/24/2020 9:30:00 AM 12.72 54.896 0.113 7.43 1.97 9.66
10/24/2020 9:45:00 AM 12.67 54.806 0.113 7.44 1.91 9.74
10/24/2020 10:00:00 AM 12.66 54.788 0.113 7.44 1.9 9.84
10/24/2020 10:15:00 AM 12.66 54.788 0.113 7.46 2.02 9.93
10/24/2020 10:30:00 AM 12.66 54.788 0.113 7.47 2.22 10.01
10/24/2020 10:45:00 AM 12.67 54.806 0.113 7.45 1.94 10.07
10/24/2020 11:00:00 AM 12.66 54.788 0.113 7.49 2.07 10.11
10/24/2020 11:15:00 AM 12.64 54.752 0.112 7.19 1.96 10.17
10/24/2020 11:30:00 AM 12.6 54.68 0.113 7.5 1.86 10.19
10/24/2020 11:45:00 AM 12.61 54.698 0.113 7.5 1.99 10.25
10/24/2020 12:00:00 PM 12.61 54.698 0.112 7.51 1.93 10.29
10/24/2020 12:15:00 PM 12.57 54.626 0.112 7.51 1.95 10.31
10/24/2020 12:30:00 PM 12.55 54.59 0.113 7.53 1.93 10.32
10/24/2020 12:45:00 PM 12.53 54.554 0.112 7.24 1.91 10.32
10/24/2020 1:00:00 PM 12.49 54.482 0.112 7.52 1.92 10.32
10/24/2020 1:15:00 PM 12.44 54.392 0.112 7.52 1.94 10.34
10/24/2020 1:30:00 PM 12.41 54.338 0.112 7.53 1.99 10.37
10/24/2020 1:45:00 PM 12.39 54.302 0.112 7.22 1.93 10.41
10/24/2020 2:00:00 PM 12.37 54.266 0.112 7.54 1.95 10.43
10/24/2020 2:15:00 PM 12.35 54.23 0.112 7.55 1.94 10.46
10/24/2020 2:30:00 PM 12.34 54.212 0.112 7.54 1.86 10.48
10/24/2020 2:45:00 PM 12.35 54.23 0.112 7.25 1.96 10.5
10/24/2020 3:00:00 PM 12.37 54.266 0.112 7.55 1.91 10.51
10/24/2020 3:15:00 PM 12.35 54.23 0.112 7.55 1.9 10.47
10/24/2020 3:30:00 PM 12.33 54.194 0.112 7.54 1.92 10.49
10/24/2020 3:45:00 PM 12.31 54.158 0.112 7.54 1.91 10.49
10/24/2020 4:00:00 PM 12.3 54.14 0.112 7.55 1.92 10.51
10/24/2020 4:15:00 PM 12.27 54.086 0.112 7.38 1.96 10.51
10/24/2020 4:30:00 PM 12.25 54.05 0.112 7.57 2.01 10.5
10/24/2020 4:45:00 PM 12.23 54.014 0.112 7.55 2 10.49
10/24/2020 5:00:00 PM 12.19 53.942 0.112 7.54 1.92 10.46
10/24/2020 5:15:00 PM 12.17 53.906 0.112 7.58 1.97 10.43
10/24/2020 5:30:00 PM 12.13 53.834 0.112 7.54 2.04 10.39
10/24/2020 5:45:00 PM 12.09 53.762 0.112 7.53 2.05 10.35
10/24/2020 6:00:00 PM 12.07 53.726 0.112 7.52 1.97 10.29
10/24/2020 6:15:00 PM 12.01 53.618 0.112 7.51 1.95 10.23
10/24/2020 6:30:00 PM 11.96 53.528 0.112 7.5 1.96 10.18
10/24/2020 6:45:00 PM 11.9 53.42 0.112 7.49 2.03 10.12
10/24/2020 7:00:00 PM 11.86 53.348 0.112 7.49 1.99 10.08
10/24/2020 7:15:00 PM 11.83 53.294 0.112 7.48 2.47 10.05
10/24/2020 7:30:00 PM 11.8 53.24 0.112 7.48 1.96 10.01
10/24/2020 7:45:00 PM 11.77 53.186 0.112 7.47 1.98 9.98
10/24/2020 8:00:00 PM 11.73 53.114 0.113 7.47 2.01 9.97
10/24/2020 8:15:00 PM 11.69 53.042 0.113 7.26 1.93 9.95
10/24/2020 8:30:00 PM 11.66 52.988 0.113 7.45 1.94 9.94
10/24/2020 8:45:00 PM 11.62 52.916 0.113 7.45 2.07 9.93
10/24/2020 9:00:00 PM 11.56 52.808 0.113 7.43 1.96 9.94
10/24/2020 9:15:00 PM 11.52 52.736 0.113 7.34 2.04 9.92
10/24/2020 9:30:00 PM 11.46 52.628 0.113 7.44 2.02 9.93
10/24/2020 9:45:00 PM 11.4 52.52 0.113 7.45 1.94 9.92
10/24/2020 10:00:00 PM 11.35 52.43 0.113 7.43 2.26 9.94
10/24/2020 10:15:00 PM 11.3 52.34 0.113 7.44 2.16 9.96
10/24/2020 10:30:00 PM 11.26 52.268 0.113 7.45 2.06 9.96
10/24/2020 10:45:00 PM 11.22 52.196 0.113 7.47 2.11 9.97
10/24/2020 11:00:00 PM 11.17 52.106 0.113 7.45 2.02 9.98
10/24/2020 11:15:00 PM 11.11 51.998 0.113 7.44 1.93 9.98
10/24/2020 11:30:00 PM 11.07 51.926 0.113 7.45 1.99 9.98
10/24/2020 11:45:00 PM 11 51.8 0.113 7.45 2.01 10
10/25/2020 12:00:00 AM 10.96 51.728 0.113 7.45 2 10.01
10/25/2020 12:15:00 AM 10.92 51.656 0.113 7.43 2.12 10
10/25/2020 12:30:00 AM 10.87 51.566 0.113 7.2 1.95 10.03
10/25/2020 12:45:00 AM 10.83 51.494 0.113 7.43 1.96 10.03
10/25/2020 1:00:00 AM 10.77 51.386 0.113 7.45 1.93 10.06
10/25/2020 1:15:00 AM 10.74 51.332 0.113 7.43 2.05 10.06
10/25/2020 1:30:00 AM 10.7 51.26 0.113 7.45 1.97 10.06
10/25/2020 1:45:00 AM 10.65 51.17 0.113 7.43 2.01 10.08
10/25/2020 2:00:00 AM 10.59 51.062 0.113 7.42 1.94 10.1
10/25/2020 2:15:00 AM 10.55 50.99 0.113 7.46 1.9 10.12
10/25/2020 2:30:00 AM 10.49 50.882 0.113 7.41 2.11 10.11
10/25/2020 2:45:00 AM 10.44 50.792 0.113 7.44 1.95 10.13
10/25/2020 3:00:00 AM 10.36 50.648 0.113 7.43 1.94 10.16
10/25/2020 3:15:00 AM 10.28 50.504 0.113 7.42 1.94 10.18
10/25/2020 3:30:00 AM 10.2 50.36 0.113 7.43 1.91 10.18
10/25/2020 3:45:00 AM 10.13 50.234 0.113 7.43 1.99 10.2
10/25/2020 4:00:00 AM 10.05 50.09 0.113 7.43 2.04 10.23
10/25/2020 4:15:00 AM 9.98 49.964 0.113 7.42 2.02 10.25
10/25/2020 4:30:00 AM 9.91 49.838 0.113 7.43 1.91 10.28
10/25/2020 4:45:00 AM 9.83 49.694 0.113 7.43 1.91 10.3
10/25/2020 5:00:00 AM 9.74 49.532 0.113 7.42 2 10.32
10/25/2020 5:15:00 AM 9.67 49.406 0.113 7.45 2.07 10.35
10/25/2020 5:30:00 AM 9.59 49.262 0.113 7.44 2.05 10.37
10/25/2020 5:45:00 AM 9.53 49.154 0.113 7.44 1.97 10.4
10/25/2020 6:00:00 AM 9.46 49.028 0.113 7.42 1.97 10.41
10/25/2020 6:15:00 AM 9.39 48.902 0.113 7.45 2.02 10.44
10/25/2020 6:30:00 AM 9.33 48.794 0.113 7.41 1.97 10.46
10/25/2020 6:45:00 AM 9.26 48.668 0.113 7.44 1.87 10.49
10/25/2020 7:00:00 AM 9.2 48.56 0.113 7.44 1.97 10.49
10/25/2020 7:15:00 AM 9.14 48.452 0.113 7.45 1.98 10.51
10/25/2020 7:30:00 AM 9.07 48.326 0.113 7.44 1.93 10.53
10/25/2020 7:45:00 AM 9.01 48.218 0.113 7.44 2.02 10.56
10/25/2020 8:00:00 AM 8.95 48.11 0.113 7.43 1.92 10.58
10/25/2020 8:15:00 AM 8.9 48.02 0.113 7.45 1.91 10.62
10/25/2020 8:30:00 AM 8.85 47.93 0.113 7.44 1.96 10.65
10/25/2020 8:45:00 AM 8.82 47.876 0.113 7.45 1.87 10.69
10/25/2020 9:00:00 AM 8.82 47.876 0.113 7.44 1.87 10.75
10/25/2020 9:15:00 AM 8.83 47.894 0.113 7.47 1.93 10.8
10/25/2020 9:30:00 AM 8.85 47.93 0.113 7.46 1.89 10.84
10/25/2020 9:45:00 AM 8.87 47.966 0.113 7.47 1.89 10.92
10/25/2020 10:00:00 AM 8.9 48.02 0.113 7.46 1.87 10.98
10/25/2020 10:15:00 AM 8.93 48.074 0.113 7.46 1.85 11.01
10/25/2020 10:30:00 AM 8.99 48.182 0.113 7.47 1.87 11.03
10/25/2020 10:45:00 AM 9.08 48.344 0.112 7.5 1.91 11.12
10/25/2020 11:00:00 AM 9.16 48.488 0.113 7.48 1.95 11.16
10/25/2020 11:15:00 AM 9.22 48.596 0.113 7.49 2.01 11.18
10/25/2020 11:30:00 AM 9.3 48.74 0.112 7.48 2.01 11.21
10/25/2020 11:45:00 AM 9.37 48.866 0.112 7.5 1.89 11.25
10/25/2020 12:00:00 PM 9.46 49.028 0.112 7.51 1.91 11.26
10/25/2020 12:15:00 PM 9.55 49.19 0.112 7.57 1.91 11.28
10/25/2020 12:30:00 PM 9.61 49.298 0.112 7.51 1.93 11.29
10/25/2020 12:45:00 PM 9.65 49.37 0.112 7.54 1.94 11.25
10/25/2020 1:00:00 PM 9.71 49.478 0.112 7.5 1.89 11.21
10/25/2020 1:15:00 PM 9.78 49.604 0.112 7.55 1.82 11.23
10/25/2020 1:30:00 PM 9.88 49.784 0.112 7.52 1.83 11.2
10/25/2020 1:45:00 PM 10 50 0.112 7.57 1.87 11.17
10/25/2020 2:00:00 PM 10.08 50.144 0.112 7.55 1.94 11.15
10/25/2020 2:15:00 PM 10.21 50.378 0.112 7.59 1.98 11.13
10/25/2020 2:30:00 PM 10.31 50.558 0.112 7.55 1.84 11.11
10/25/2020 2:45:00 PM 10.38 50.684 0.112 7.58 1.83 11.09
10/25/2020 3:00:00 PM 10.47 50.846 0.112 7.53 1.82 11.08
10/25/2020 3:15:00 PM 10.57 51.026 0.112 7.54 1.85 11.06
10/25/2020 3:30:00 PM 10.67 51.206 0.111 7.56 1.88 11.03
10/25/2020 3:45:00 PM 10.74 51.332 0.112 7.6 1.95 11
10/25/2020 4:00:00 PM 10.83 51.494 0.111 7.54 1.84 10.98
10/25/2020 4:15:00 PM 10.87 51.566 0.112 7.53 1.81 10.93
10/25/2020 4:30:00 PM 10.92 51.656 0.111 7.55 1.9 10.89
10/25/2020 4:45:00 PM 10.99 51.782 0.112 7.59 1.89 10.82
10/25/2020 5:00:00 PM 11.01 51.818 0.112 7.55 1.85 10.79
10/25/2020 5:15:00 PM 11.04 51.872 0.112 7.55 1.84 10.73
10/25/2020 5:30:00 PM 11.08 51.944 0.112 7.52 1.93 10.66
10/25/2020 5:45:00 PM 11.09 51.962 0.112 7.52 1.89 10.62
10/25/2020 6:00:00 PM 11.08 51.944 0.112 7.56 1.86 10.56
10/25/2020 6:15:00 PM 11.07 51.926 0.112 7.3 1.95 10.5
10/25/2020 6:30:00 PM 11.04 51.872 0.112 7.51 1.96 10.43
10/25/2020 6:45:00 PM 11 51.8 0.112 7.49 1.99 10.38
10/25/2020 7:00:00 PM 10.96 51.728 0.112 7.49 1.93 10.34
10/25/2020 7:15:00 PM 10.91 51.638 0.112 7.17 1.95 10.31
10/25/2020 7:30:00 PM 10.87 51.566 0.112 7.48 2.26 10.28
10/25/2020 7:45:00 PM 10.85 51.53 0.112 7.45 1.95 10.25
10/25/2020 8:00:00 PM 10.83 51.494 0.112 7.47 2.02 10.23
10/25/2020 8:15:00 PM 10.81 51.458 0.112 7.45 1.92 10.21
10/25/2020 8:30:00 PM 10.78 51.404 0.112 7.47 1.84 10.18
10/25/2020 8:45:00 PM 10.77 51.386 0.112 7.47 2.01 10.17
10/25/2020 9:00:00 PM 10.75 51.35 0.112 7.45 2.19 10.15
10/25/2020 9:15:00 PM 10.73 51.314 0.112 7.42 2.36 10.15
10/25/2020 9:30:00 PM 10.72 51.296 0.113 7.45 2.1 10.12
10/25/2020 9:45:00 PM 10.7 51.26 0.113 7.47 1.95 10.11
10/25/2020 10:00:00 PM 10.67 51.206 0.113 7.45 1.91 10.12
10/25/2020 10:15:00 PM 10.65 51.17 0.113 7.18 1.88 10.12
10/25/2020 10:30:00 PM 10.63 51.134 0.113 7.43 2.01 10.12
10/25/2020 10:45:00 PM 10.59 51.062 0.113 7.42 1.91 10.12
10/25/2020 11:00:00 PM 10.54 50.972 0.112 7.44 1.94 10.15
10/25/2020 11:15:00 PM 10.51 50.918 0.112 7.41 1.88 10.13
10/25/2020 11:30:00 PM 10.48 50.864 0.112 7.39 1.91 10.12
10/25/2020 11:45:00 PM 10.46 50.828 0.112 7.35 2.2 10.13
10/26/2020 12:00:00 AM 10.44 50.792 0.112 7.43 1.99 10.12
10/26/2020 12:15:00 AM 10.41 50.738 0.112 7.4 1.97 10.11
10/26/2020 12:30:00 AM 10.38 50.684 0.113 7.44 1.93 10.11
10/26/2020 12:45:00 AM 10.35 50.63 0.113 7.41 1.95 10.11
10/26/2020 1:00:00 AM 10.32 50.576 0.112 7.42 1.97 10.13
10/26/2020 1:15:00 AM 10.29 50.522 0.113 7.41 1.85 10.13
10/26/2020 1:30:00 AM 10.27 50.486 0.113 7.44 1.92 10.14
10/26/2020 1:45:00 AM 10.24 50.432 0.113 7.4 1.92 10.11
10/26/2020 2:00:00 AM 10.22 50.396 0.113 7.42 1.97 10.15
10/26/2020 2:15:00 AM 10.21 50.378 0.113 7.41 1.93 10.15
10/26/2020 2:30:00 AM 10.19 50.342 0.113 7.46 2 10.15
10/26/2020 2:45:00 AM 10.18 50.324 0.113 7.4 1.88 10.16
10/26/2020 3:00:00 AM 10.17 50.306 0.113 7.43 1.85 10.14
10/26/2020 3:15:00 AM 10.16 50.288 0.113 7.41 1.9 10.15
10/26/2020 3:30:00 AM 10.15 50.27 0.113 7.43 1.91 10.18
10/26/2020 3:45:00 AM 10.15 50.27 0.113 7.11 1.92 10.16
10/26/2020 4:00:00 AM 10.14 50.252 0.113 7.42 1.94 10.16
10/26/2020 4:15:00 AM 10.13 50.234 0.113 7.42 1.99 10.18
10/26/2020 4:30:00 AM 10.13 50.234 0.113 7.42 1.98 10.15
10/26/2020 4:45:00 AM 10.13 50.234 0.113 7.4 2.17 10.17
10/26/2020 5:00:00 AM 10.13 50.234 0.113 7.47 3.42 10.13
10/26/2020 5:15:00 AM 10.12 50.216 0.113 7.46 2.93 10.12
10/26/2020 5:30:00 AM 10.11 50.198 0.112 7.26 3.07 10.17
10/26/2020 5:45:00 AM 10.11 50.198 0.113 7.33 2.12 10.18
10/26/2020 6:00:00 AM 10.1 50.18 0.113 7.39 1.89 10.17
10/26/2020 6:15:00 AM 10.1 50.18 0.113 7.43 1.89 10.19
10/26/2020 6:30:00 AM 10.1 50.18 0.112 7.38 1.94 10.16
10/26/2020 6:45:00 AM 10.1 50.18 0.112 7.38 1.88 10.18
10/26/2020 7:00:00 AM 10.1 50.18 0.112 7.37 1.92 10.18
10/26/2020 7:15:00 AM 10.1 50.18 0.112 7.39 1.89 10.18
10/26/2020 7:30:00 AM 10.1 50.18 0.113 7.39 2.13 10.17
10/26/2020 7:45:00 AM 10.1 50.18 0.113 7.37 1.9 10.18
10/26/2020 8:00:00 AM 10.1 50.18 0.113 7.33 1.86 10.18
10/26/2020 8:15:00 AM 10.09 50.162 0.113 7.37 1.87 10.18
10/26/2020 8:30:00 AM 10.1 50.18 0.112 7.38 1.87 10.2
10/26/2020 8:45:00 AM 10.1 50.18 0.113 7.37 1.9 10.19
10/26/2020 9:00:00 AM 10.12 50.216 0.113 7.38 1.94 10.21
10/26/2020 9:15:00 AM 10.13 50.234 0.112 7.4 1.94 10.23
10/26/2020 9:30:00 AM 10.14 50.252 0.113 7.39 1.95 10.25
10/26/2020 9:45:00 AM 10.16 50.288 0.113 7.4 1.87 10.27
10/26/2020 10:00:00 AM 10.18 50.324 0.113 7.24 1.91 10.3
10/26/2020 10:15:00 AM 10.2 50.36 0.113 7.4 1.86 10.32
10/26/2020 10:30:00 AM 10.22 50.396 0.113 7.38 1.89 10.35
10/26/2020 10:45:00 AM 10.25 50.45 0.112 7.4 1.86 10.39
10/26/2020 11:00:00 AM 10.29 50.522 0.112 7.26 1.92 10.43
10/26/2020 11:15:00 AM 10.32 50.576 0.112 7.43 1.88 10.45
10/26/2020 11:30:00 AM 10.36 50.648 0.113 7.41 1.84 10.46
10/26/2020 11:45:00 AM 10.39 50.702 0.113 7.3 1.98 10.49
10/26/2020 12:00:00 PM 10.42 50.756 0.112 7.3 1.9 10.51
10/26/2020 12:15:00 PM 10.46 50.828 0.113 7.44 1.79 10.54
10/26/2020 12:30:00 PM 10.51 50.918 0.112 7.45 1.82 10.56
10/26/2020 12:45:00 PM 10.55 50.99 0.112 7.44 1.96 10.59
10/26/2020 1:00:00 PM 10.59 51.062 0.112 7.45 1.81 10.58
10/26/2020 1:15:00 PM 10.62 51.116 0.112 7.43 1.79 10.6
10/26/2020 1:30:00 PM 10.65 51.17 0.112 7.28 1.92 10.6
10/26/2020 1:45:00 PM 10.68 51.224 0.113 7.45 1.92 10.53
10/26/2020 2:00:00 PM 10.7 51.26 0.112 7.45 1.86 10.56
10/26/2020 2:15:00 PM 10.73 51.314 0.112 7.43 1.93 10.5
10/26/2020 2:30:00 PM 10.76 51.368 0.112 7.44 1.82 10.54
10/26/2020 2:45:00 PM 10.8 51.44 0.112 7.44 1.87 10.55
10/26/2020 3:00:00 PM 10.84 51.512 0.112 7.44 1.89 10.57
10/26/2020 3:15:00 PM 10.88 51.584 0.112 7.45 1.89 10.57
10/26/2020 3:30:00 PM 10.91 51.638 0.112 7.49 1.78 10.51
10/26/2020 3:45:00 PM 10.95 51.71 0.112 7.45 1.83 10.54
10/26/2020 4:00:00 PM 10.99 51.782 0.113 7.46 1.89 10.55
10/26/2020 4:15:00 PM 11.02 51.836 0.112 7.46 1.83 10.55
10/26/2020 4:30:00 PM 11.05 51.89 0.112 7.46 1.85 10.54
10/26/2020 4:45:00 PM 11.08 51.944 0.112 7.46 1.88 10.51
10/26/2020 5:00:00 PM 11.1 51.98 0.112 7.48 1.84 10.49
10/26/2020 5:15:00 PM 11.12 52.016 0.112 7.46 1.83 10.41
10/26/2020 5:30:00 PM 11.14 52.052 0.112 7.44 1.88 10.37
10/26/2020 5:45:00 PM 11.16 52.088 0.112 7.47 1.87 10.37
10/26/2020 6:00:00 PM 11.17 52.106 0.111 7.45 1.84 10.35
10/26/2020 6:15:00 PM 11.18 52.124 0.112 7.45 1.82 10.3
10/26/2020 6:30:00 PM 11.19 52.142 0.112 7.45 1.88 10.24
10/26/2020 6:45:00 PM 11.2 52.16 0.112 7.5 1.93 10.2
10/26/2020 7:00:00 PM 11.2 52.16 0.112 7.43 1.98 10.16
10/26/2020 7:15:00 PM 11.21 52.178 0.112 7.39 2.08 10.14
10/26/2020 7:30:00 PM 11.22 52.196 0.112 7.43 1.87 10.12
10/26/2020 7:45:00 PM 11.23 52.214 0.112 7.4 1.81 10.09
10/26/2020 8:00:00 PM 11.23 52.214 0.112 7.4 1.89 10.07
10/26/2020 8:15:00 PM 11.24 52.232 0.113 7.42 1.96 10.05
10/26/2020 8:30:00 PM 11.25 52.25 0.112 7.48 1.83 10.03
10/26/2020 8:45:00 PM 11.25 52.25 0.112 7.22 2.16 10.02
10/26/2020 9:00:00 PM 11.25 52.25 0.112 7.39 1.85 10
10/26/2020 9:15:00 PM 11.25 52.25 0.112 7.4 2.05 9.99
10/26/2020 9:30:00 PM 11.25 52.25 0.112 7.39 1.93 9.99
10/26/2020 9:45:00 PM 11.24 52.232 0.112 7.47 1.9 9.97
10/26/2020 10:00:00 PM 11.23 52.214 0.112 7.41 1.83 9.97
10/26/2020 10:15:00 PM 11.21 52.178 0.113 7.41 2.94 9.97
10/26/2020 10:30:00 PM 11.2 52.16 0.113 7.39 1.85 9.96
10/26/2020 10:45:00 PM 11.18 52.124 0.112 7.4 1.94 9.95
10/26/2020 11:00:00 PM 11.14 52.052 0.113 7.41 1.93 9.97
10/26/2020 11:15:00 PM 11.11 51.998 0.113 7.41 1.89 9.98
10/26/2020 11:30:00 PM 11.08 51.944 0.113 7.45 1.83 9.98
10/26/2020 11:45:00 PM 11.05 51.89 0.113 7.38 1.88 9.99
10/27/2020 12:00:00 AM 11.03 51.854 0.112 7.4 1.87 9.95
10/27/2020 12:15:00 AM 10.98 51.764 0.113 7.39 1.92 10
10/27/2020 12:30:00 AM 10.95 51.71 0.113 7.39 5.58 10
10/27/2020 12:45:00 AM 10.92 51.656 0.113 7.39 1.93 10.03
10/27/2020 1:00:00 AM 10.89 51.602 0.113 7.4 2.01 10.02
10/27/2020 1:15:00 AM 10.86 51.548 0.113 7.41 1.92 10.05
10/27/2020 1:30:00 AM 10.84 51.512 0.113 7.47 1.88 10.03
10/27/2020 1:45:00 AM 10.82 51.476 0.112 7.41 1.85 10.07
10/27/2020 2:00:00 AM 10.79 51.422 0.113 7.45 1.91 10.07
10/27/2020 2:15:00 AM 10.77 51.386 0.113 7.44 1.87 10.06
10/27/2020 2:30:00 AM 10.75 51.35 0.113 7.46 1.92 10.08
10/27/2020 2:45:00 AM 10.73 51.314 0.113 7.45 1.83 10.1
10/27/2020 3:00:00 AM 10.71 51.278 0.113 7.43 1.95 10.1
10/27/2020 3:15:00 AM 10.68 51.224 0.113 7.41 2.42 10.11
10/27/2020 3:30:00 AM 10.66 51.188 0.113 7.41 1.95 10.09
10/27/2020 3:45:00 AM 10.64 51.152 0.113 7.44 2.11 10.08
10/27/2020 4:00:00 AM 10.62 51.116 0.113 7.48 2.08 10.1
10/27/2020 4:15:00 AM 10.59 51.062 0.113 7.4 1.93 10.12
10/27/2020 4:30:00 AM 10.57 51.026 0.112 7.41 1.88 10.13
10/27/2020 4:45:00 AM 10.54 50.972 0.113 7.47 1.97 10.13
10/27/2020 5:00:00 AM 10.52 50.936 0.113 7.4 1.87 10.15
10/27/2020 5:15:00 AM 10.49 50.882 0.113 7.41 1.84 10.14
10/27/2020 5:30:00 AM 10.47 50.846 0.113 7.41 1.9 10.15
10/27/2020 5:45:00 AM 10.45 50.81 0.113 7.42 1.85 10.17
10/27/2020 6:00:00 AM 10.43 50.774 0.113 7.4 1.84 10.16
10/27/2020 6:15:00 AM 10.41 50.738 0.113 7.45 1.83 10.18
10/27/2020 6:30:00 AM 10.4 50.72 0.113 7.41 1.84 10.18
10/27/2020 6:45:00 AM 10.38 50.684 0.113 7.43 1.84 10.2
10/27/2020 7:00:00 AM 10.36 50.648 0.113 7.42 1.87 10.2
10/27/2020 7:15:00 AM 10.34 50.612 0.113 7.46 1.86 10.21
10/27/2020 7:30:00 AM 10.33 50.594 0.113 7.41 1.87 10.21
10/27/2020 7:45:00 AM 10.31 50.558 0.113 7.42 1.91 10.23
10/27/2020 8:00:00 AM 10.3 50.54 0.113 7.43 1.82 10.21
10/27/2020 8:15:00 AM 10.28 50.504 0.113 7.41 1.85 10.24
10/27/2020 8:30:00 AM 10.27 50.486 0.113 7.42 1.77 10.27
10/27/2020 8:45:00 AM 10.27 50.486 0.113 7.47 1.89 10.34
10/27/2020 9:00:00 AM 10.28 50.504 0.113 7.43 1.89 10.4
10/27/2020 9:15:00 AM 10.29 50.522 0.112 7.45 1.87 10.48
10/27/2020 9:30:00 AM 10.33 50.594 0.113 7.48 1.91 10.57
10/27/2020 9:45:00 AM 10.38 50.684 0.112 7.46 1.9 10.65
10/27/2020 10:00:00 AM 10.41 50.738 0.113 7.42 1.86 10.69
10/27/2020 10:15:00 AM 10.45 50.81 0.112 7.51 1.94 10.75
10/27/2020 10:30:00 AM 10.48 50.864 0.112 7.49 1.86 10.8
10/27/2020 10:45:00 AM 10.52 50.936 0.112 7.5 1.88 10.83
10/27/2020 11:00:00 AM 10.55 50.99 0.112 7.5 1.85 10.85
10/27/2020 11:15:00 AM 10.59 51.062 0.112 7.5 1.84 10.91
10/27/2020 11:30:00 AM 10.65 51.17 0.112 7.51 1.84 10.93
10/27/2020 11:45:00 AM 10.7 51.26 0.112 7.52 1.81 10.95
10/27/2020 12:00:00 PM 10.75 51.35 0.112 7.56 1.82 10.98
10/27/2020 12:15:00 PM 10.82 51.476 0.112 7.52 1.81 10.99
10/27/2020 12:30:00 PM 10.86 51.548 0.112 7.52 1.95 10.97
10/27/2020 12:45:00 PM 10.89 51.602 0.112 7.53 1.85 10.98
10/27/2020 1:00:00 PM 10.93 51.674 0.112 7.53 1.81 10.97
10/27/2020 1:15:00 PM 10.96 51.728 0.112 7.53 1.85 10.97
10/27/2020 1:30:00 PM 11 51.8 0.111 7.53 1.87 10.97
10/27/2020 1:45:00 PM 11.02 51.836 0.112 7.53 1.97 10.97
10/27/2020 2:00:00 PM 11.03 51.854 0.112 7.55 1.77 10.95
10/27/2020 2:15:00 PM 11.04 51.872 0.112 7.57 1.89 10.93
10/27/2020 2:30:00 PM 11.04 51.872 0.111 7.51 1.8 10.91
10/27/2020 2:45:00 PM 11.04 51.872 0.112 7.54 1.83 10.88
10/27/2020 3:00:00 PM 11.04 51.872 0.112 7.56 1.87 10.85
10/27/2020 3:15:00 PM 11.04 51.872 0.112 7.54 1.83 10.81
10/27/2020 3:30:00 PM 11.05 51.89 0.112 7.57 1.84 10.81
10/27/2020 3:45:00 PM 11.07 51.926 0.111 7.57 1.87 10.81
10/27/2020 4:00:00 PM 11.09 51.962 0.112 7.52 1.93 10.81
10/27/2020 4:15:00 PM 11.08 51.944 0.112 7.51 1.95 10.78
10/27/2020 4:30:00 PM 11.08 51.944 0.112 7.53 2.22 10.73
10/27/2020 4:45:00 PM 11.08 51.944 0.112 7.5 1.97 10.71
10/27/2020 5:00:00 PM 11.07 51.926 0.112 7.56 2.02 10.67
10/27/2020 5:15:00 PM 11.07 51.926 0.112 7.5 2.61 10.61
10/27/2020 5:30:00 PM 11.05 51.89 0.112 7.54 2.3 10.57
10/27/2020 5:45:00 PM 11.03 51.854 0.112 7.49 1.98 10.52
10/27/2020 6:00:00 PM 11.02 51.836 0.112 7.53 1.91 10.47
10/27/2020 6:15:00 PM 11 51.8 0.112 7.47 1.94 10.43
10/27/2020 6:30:00 PM 10.97 51.746 0.112 7.48 1.91 10.37
10/27/2020 6:45:00 PM 10.95 51.71 0.112 7.47 2.15 10.33
10/27/2020 7:00:00 PM 10.93 51.674 0.112 7.47 1.92 10.3
10/27/2020 7:15:00 PM 10.9 51.62 0.112 7.46 1.93 10.29
10/27/2020 7:30:00 PM 10.86 51.548 0.112 7.48 2.05 10.27
10/27/2020 7:45:00 PM 10.82 51.476 0.112 7.46 1.91 10.24
10/27/2020 8:00:00 PM 10.8 51.44 0.112 7.46 1.89 10.24
10/27/2020 8:15:00 PM 10.77 51.386 0.112 7.44 1.99 10.24
10/27/2020 8:30:00 PM 10.75 51.35 0.112 7.46 1.87 10.23
10/27/2020 8:45:00 PM 10.72 51.296 0.112 7.44 1.85 10.19
10/27/2020 9:00:00 PM 10.7 51.26 0.112 7.49 1.95 10.19
10/27/2020 9:15:00 PM 10.66 51.188 0.112 7.44 2 10.19
10/27/2020 9:30:00 PM 10.64 51.152 0.113 7.45 1.92 10.18
10/27/2020 9:45:00 PM 10.62 51.116 0.112 7.44 2.06 10.16
10/27/2020 10:00:00 PM 10.6 51.08 0.113 7.43 1.94 10.18
10/27/2020 10:15:00 PM 10.58 51.044 0.113 7.44 1.97 10.16
10/27/2020 10:30:00 PM 10.56 51.008 0.112 7.45 1.94 10.18
10/27/2020 10:45:00 PM 10.53 50.954 0.113 7.45 2.05 10.16
10/27/2020 11:00:00 PM 10.51 50.918 0.112 7.47 1.94 10.15
10/27/2020 11:15:00 PM 10.48 50.864 0.112 7.44 1.96 10.18
10/27/2020 11:30:00 PM 10.46 50.828 0.113 7.43 1.89 10.18
10/27/2020 11:45:00 PM 10.44 50.792 0.113 7.44 1.99 10.17
10/28/2020 12:00:00 AM 10.42 50.756 0.113 7.43 1.83 10.18
10/28/2020 12:15:00 AM 10.41 50.738 0.113 7.44 1.87 10.18
10/28/2020 12:30:00 AM 10.39 50.702 0.113 7.43 1.89 10.19
10/28/2020 12:45:00 AM 10.37 50.666 0.113 7.43 1.84 10.18
10/28/2020 1:00:00 AM 10.36 50.648 0.113 7.44 1.88 10.17
10/28/2020 1:15:00 AM 10.34 50.612 0.112 7.43 2.07 10.22
10/28/2020 1:30:00 AM 10.33 50.594 0.113 7.44 1.91 10.19
10/28/2020 1:45:00 AM 10.31 50.558 0.112 7.43 2.16 10.18
10/28/2020 2:00:00 AM 10.29 50.522 0.113 7.43 1.98 10.2
10/28/2020 2:15:00 AM 10.28 50.504 0.113 7.43 1.91 10.2
10/28/2020 2:30:00 AM 10.26 50.468 0.112 7.43 2.03 10.22
10/28/2020 2:45:00 AM 10.25 50.45 0.112 7.1 1.86 10.21
10/28/2020 3:00:00 AM 10.24 50.432 0.113 7.41 1.82 10.22
10/28/2020 3:15:00 AM 10.22 50.396 0.112 7.42 1.92 10.21
10/28/2020 3:30:00 AM 10.21 50.378 0.112 7.43 1.9 10.21
10/28/2020 3:45:00 AM 10.2 50.36 0.112 7.42 1.82 10.19
10/28/2020 4:00:00 AM 10.17 50.306 0.112 7.42 1.87 10.21
10/28/2020 4:15:00 AM 10.16 50.288 0.112 7.41 1.87 10.21
10/28/2020 4:30:00 AM 10.15 50.27 0.112 7.41 2.12 10.21
10/28/2020 4:45:00 AM 10.14 50.252 0.112 7.46 1.88 10.21
10/28/2020 5:00:00 AM 10.13 50.234 0.112 7.41 1.89 10.21
10/28/2020 5:15:00 AM 10.12 50.216 0.112 7.41 1.96 10.2
10/28/2020 5:30:00 AM 10.11 50.198 0.111 7.4 1.91 10.23
10/28/2020 5:45:00 AM 10.1 50.18 0.112 7.46 1.9 10.22
10/28/2020 6:00:00 AM 10.1 50.18 0.111 7.43 1.87 10.22
10/28/2020 6:15:00 AM 10.09 50.162 0.111 7.44 1.83 10.22
10/28/2020 6:30:00 AM 10.09 50.162 0.111 7.42 1.88 10.22
10/28/2020 6:45:00 AM 10.08 50.144 0.111 7.42 1.9 10.24
10/28/2020 7:00:00 AM 10.08 50.144 0.111 7.43 1.9 10.23
10/28/2020 7:15:00 AM 10.07 50.126 0.111 7.46 1.85 10.24
10/28/2020 7:30:00 AM 10.06 50.108 0.111 7.43 1.83 10.26
10/28/2020 7:45:00 AM 10.06 50.108 0.111 7.45 1.94 10.26
10/28/2020 8:00:00 AM 10.06 50.108 0.111 7.43 1.89 10.25
10/28/2020 8:15:00 AM 10.05 50.09 0.111 7.28 1.92 10.26
10/28/2020 8:30:00 AM 10.06 50.108 0.112 7.43 1.89 10.28
10/28/2020 8:45:00 AM 10.06 50.108 0.111 7.43 1.83 10.29
10/28/2020 9:00:00 AM 10.06 50.108 0.111 7.45 1.9 10.31
10/28/2020 9:15:00 AM 10.07 50.126 0.111 7.44 1.86 10.34
10/28/2020 9:30:00 AM 10.08 50.144 0.111 7.45 1.81 10.37
10/28/2020 9:45:00 AM 10.1 50.18 0.111 7.49 1.83 10.46
10/28/2020 10:00:00 AM 10.13 50.234 0.112 7.45 1.87 10.52
10/28/2020 10:15:00 AM 10.15 50.27 0.112 7.48 1.84 10.57
10/28/2020 10:30:00 AM 10.19 50.342 0.111 7.46 1.87 10.61
10/28/2020 10:45:00 AM 10.23 50.414 0.111 7.49 1.85 10.67
10/28/2020 11:00:00 AM 10.26 50.468 0.111 7.48 1.93 10.71
10/28/2020 11:15:00 AM 10.29 50.522 0.111 7.48 1.86 10.73
10/28/2020 11:30:00 AM 10.33 50.594 0.112 7.48 1.83 10.77
10/28/2020 11:45:00 AM 10.37 50.666 0.111 7.5 1.94 10.78
10/28/2020 12:00:00 PM 10.43 50.774 0.111 7.56 1.82 10.84
10/28/2020 12:15:00 PM 10.47 50.846 0.111 7.52 1.76 10.86
10/28/2020 12:30:00 PM 10.53 50.954 0.111 7.55 1.81 10.89
10/28/2020 12:45:00 PM 10.56 51.008 0.111 7.52 1.9 10.91
10/28/2020 1:00:00 PM 10.6 51.08 0.112 7.53 1.8 10.92
10/28/2020 1:15:00 PM 10.66 51.188 0.112 7.53 1.87 10.96
10/28/2020 1:30:00 PM 10.7 51.26 0.112 7.54 1.81 10.95
10/28/2020 1:45:00 PM 10.74 51.332 0.112 7.51 1.84 10.95
10/28/2020 2:00:00 PM 10.76 51.368 0.112 7.56 1.86 10.94
10/28/2020 2:15:00 PM 10.82 51.476 0.112 7.56 1.94 10.94
10/28/2020 2:30:00 PM 10.86 51.548 0.111 7.58 1.85 10.94
10/28/2020 2:45:00 PM 10.91 51.638 0.111 7.56 1.74 10.95
10/28/2020 3:00:00 PM 10.95 51.71 0.111 7.54 1.86 10.94
10/28/2020 3:15:00 PM 10.99 51.782 0.112 7.6 1.8 10.93
10/28/2020 3:30:00 PM 11.01 51.818 0.111 7.55 1.9 10.93
10/28/2020 3:45:00 PM 11.04 51.872 0.111 7.55 1.74 10.91
10/28/2020 4:00:00 PM 11.07 51.926 0.111 7.57 1.89 10.91
10/28/2020 4:15:00 PM 11.1 51.98 0.111 7.55 1.9 10.89
10/28/2020 4:30:00 PM 11.12 52.016 0.111 7.58 1.88 10.86
10/28/2020 4:45:00 PM 11.14 52.052 0.112 7.59 1.9 10.82
10/28/2020 5:00:00 PM 11.15 52.07 0.112 7.56 1.98 10.81
10/28/2020 5:15:00 PM 11.15 52.07 0.112 7.54 2.03 10.78
10/28/2020 5:30:00 PM 11.14 52.052 0.112 7.55 1.86 10.75
10/28/2020 5:45:00 PM 11.13 52.034 0.112 7.55 1.85 10.69
10/28/2020 6:00:00 PM 11.1 51.98 0.112 7.53 1.83 10.64
10/28/2020 6:15:00 PM 11.06 51.908 0.112 7.53 1.95 10.57
10/28/2020 6:30:00 PM 11.01 51.818 0.112 7.52 1.84 10.53
10/28/2020 6:45:00 PM 10.96 51.728 0.112 7.54 2.03 10.48
10/28/2020 7:00:00 PM 10.91 51.638 0.112 7.51 1.9 10.43
10/28/2020 7:15:00 PM 10.88 51.584 0.112 7.51 2.05 10.41
10/28/2020 7:30:00 PM 10.84 51.512 0.112 7.49 2.03 10.38
10/28/2020 7:45:00 PM 10.8 51.44 0.112 7.43 1.92 10.36
10/28/2020 8:00:00 PM 10.75 51.35 0.112 7.27 1.95 10.34
10/28/2020 8:15:00 PM 10.69 51.242 0.112 7.48 1.9 10.33
10/28/2020 8:30:00 PM 10.64 51.152 0.112 7.48 1.95 10.32
10/28/2020 8:45:00 PM 10.58 51.044 0.112 7.48 1.84 10.31
10/28/2020 9:00:00 PM 10.53 50.954 0.112 7.48 1.85 10.32
10/28/2020 9:15:00 PM 10.47 50.846 0.112 7.52 1.84 10.32
10/28/2020 9:30:00 PM 10.43 50.774 0.113 7.48 1.96 10.32
10/28/2020 9:45:00 PM 10.36 50.648 0.113 7.45 1.93 10.33
10/28/2020 10:00:00 PM 10.3 50.54 0.113 7.47 1.83 10.34
10/28/2020 10:15:00 PM 10.23 50.414 0.113 7.51 1.86 10.34
10/28/2020 10:30:00 PM 10.17 50.306 0.113 7.46 1.88 10.34
10/28/2020 10:45:00 PM 10.12 50.216 0.113 7.46 1.93 10.35
10/28/2020 11:00:00 PM 10.05 50.09 0.113 7.45 1.85 10.38
10/28/2020 11:15:00 PM 10.01 50.018 0.113 7.25 1.95 10.38
10/28/2020 11:30:00 PM 9.96 49.928 0.113 7.47 1.91 10.38
10/28/2020 11:45:00 PM 9.91 49.838 0.113 7.46 1.84 10.41
10/29/2020 12:00:00 AM 9.86 49.748 0.113 7.47 1.94 10.41
10/29/2020 12:15:00 AM 9.82 49.676 0.113 7.46 1.91 10.42
10/29/2020 12:30:00 AM 9.78 49.604 0.113 7.46 1.81 10.43
10/29/2020 12:45:00 AM 9.74 49.532 0.113 7.46 1.9 10.45
10/29/2020 1:00:00 AM 9.7 49.46 0.113 7.49 1.96 10.45
10/29/2020 1:15:00 AM 9.67 49.406 0.113 7.5 1.87 10.45
10/29/2020 1:30:00 AM 9.63 49.334 0.113 7.46 1.85 10.47
10/29/2020 1:45:00 AM 9.6 49.28 0.113 7.12 3.26 10.45
10/29/2020 2:00:00 AM 9.58 49.244 0.113 7.46 1.91 10.48
10/29/2020 2:15:00 AM 9.54 49.172 0.113 7.46 1.88 10.49
10/29/2020 2:30:00 AM 9.52 49.136 0.113 7.45 1.81 10.5
10/29/2020 2:45:00 AM 9.49 49.082 0.113 7.45 1.94 10.5
10/29/2020 3:00:00 AM 9.47 49.046 0.113 7.5 1.8 10.52
10/29/2020 3:15:00 AM 9.46 49.028 0.113 7.44 1.88 10.53
10/29/2020 3:30:00 AM 9.44 48.992 0.113 7.29 1.86 10.52
10/29/2020 3:45:00 AM 9.43 48.974 0.113 7.46 1.92 10.52
10/29/2020 4:00:00 AM 9.41 48.938 0.113 7.45 1.86 10.53
10/29/2020 4:15:00 AM 9.4 48.92 0.113 7.45 1.83 10.54
10/29/2020 4:30:00 AM 9.39 48.902 0.113 7.45 1.87 10.54
10/29/2020 4:45:00 AM 9.38 48.884 0.113 7.45 1.91 10.54
10/29/2020 5:00:00 AM 9.37 48.866 0.113 7.44 1.86 10.54
10/29/2020 5:15:00 AM 9.36 48.848 0.113 7.44 1.85 10.54
10/29/2020 5:30:00 AM 9.36 48.848 0.114 7.43 2.15 10.55
10/29/2020 5:45:00 AM 9.35 48.83 0.113 7.46 1.79 10.55
10/29/2020 6:00:00 AM 9.35 48.83 0.113 7.46 1.89 10.55
10/29/2020 6:15:00 AM 9.34 48.812 0.113 7.47 1.86 10.54
10/29/2020 6:30:00 AM 9.33 48.794 0.113 7.47 1.86 10.54
10/29/2020 6:45:00 AM 9.33 48.794 0.113 7.45 1.88 10.55
10/29/2020 7:00:00 AM 9.32 48.776 0.113 7.45 1.87 10.54
10/29/2020 7:15:00 AM 9.32 48.776 0.113 7.46 1.9 10.55
10/29/2020 7:30:00 AM 9.31 48.758 0.112 7.47 1.96 10.52
10/29/2020 7:45:00 AM 9.3 48.74 0.112 7.45 1.84 10.54
10/29/2020 8:00:00 AM 9.3 48.74 0.112 7.49 1.88 10.55
10/29/2020 8:15:00 AM 9.3 48.74 0.112 7.45 1.81 10.56
10/29/2020 8:30:00 AM 9.3 48.74 0.112 7.46 1.91 10.55
10/29/2020 8:45:00 AM 9.3 48.74 0.111 7.46 1.82 10.57
10/29/2020 9:00:00 AM 9.31 48.758 0.111 7.45 1.93 10.58
10/29/2020 9:15:00 AM 9.3 48.74 0.11 7.46 1.87 10.61
10/29/2020 9:30:00 AM 9.29 48.722 0.11 7.46 1.89 10.66
10/29/2020 9:45:00 AM 9.28 48.704 0.109 7.5 2.08 10.7
10/29/2020 10:00:00 AM 9.27 48.686 0.109 7.46 2.03 10.73
10/29/2020 10:15:00 AM 9.27 48.686 0.102 7.28 1.93 10.75
10/29/2020 10:30:00 AM 9.27 48.686 0.107 7.5 2.05 10.78
10/29/2020 10:45:00 AM 9.27 48.686 0.107 7.49 2.17 10.81
10/29/2020 11:00:00 AM 9.29 48.722 0.107 7.54 2.07 10.84
10/29/2020 11:15:00 AM 9.3 48.74 0.101 7.53 2.46 10.87
10/29/2020 11:30:00 AM 9.31 48.758 0.102 7.51 2.23 10.9
10/29/2020 11:45:00 AM 9.33 48.794 0.106 7.51 2.32 10.94
10/29/2020 12:00:00 PM 9.34 48.812 0.102 7.52 2.53 10.96
10/29/2020 12:15:00 PM 9.36 48.848 0.101 7.34 2.78 11
10/29/2020 12:30:00 PM 9.38 48.884 0.101 7.54 3.08 11.04
10/29/2020 12:45:00 PM 9.41 48.938 0.101 7.56 3.51 11.08
10/29/2020 1:00:00 PM 9.45 49.01 0.102 7.55 3.82 11.09
10/29/2020 1:15:00 PM 9.49 49.082 0.107 7.54 3.81 11.12
10/29/2020 1:30:00 PM 9.52 49.136 0.107 7.56 4.6 11.11
10/29/2020 1:45:00 PM 9.55 49.19 0.107 7.55 5.05 11.13
10/29/2020 2:00:00 PM 9.59 49.262 0.107 7.56 5.37 11.15
10/29/2020 2:15:00 PM 9.64 49.352 0.107 7.57 6.21 11.16
10/29/2020 2:30:00 PM 9.67 49.406 0.107 7.58 5.67 11.14
10/29/2020 2:45:00 PM 9.69 49.442 0.107 7.41 6.14 11.11
10/29/2020 3:00:00 PM 9.69 49.442 0.107 7.57 6.87 11.09
10/29/2020 3:15:00 PM 9.7 49.46 0.107 7.27 6.82 11.08
10/29/2020 3:30:00 PM 9.7 49.46 0.108 7.59 6.54 11.06
10/29/2020 3:45:00 PM 9.69 49.442 0.109 7.56 7.72 11.05
10/29/2020 4:00:00 PM 9.66 49.388 0.109 7.58 7.51 11.05
10/29/2020 4:15:00 PM 9.64 49.352 0.108 7.56 9.21 11.05
10/29/2020 4:30:00 PM 9.63 49.334 0.108 7.57 6.98 11.04
10/29/2020 4:45:00 PM 9.64 49.352 0.108 7.57 6.63 10.96
10/29/2020 5:00:00 PM 9.64 49.352 0.108 7.53 6.93 10.86
10/29/2020 5:15:00 PM 9.65 49.37 0.108 7.58 7.28 11.01
10/29/2020 5:30:00 PM 9.66 49.388 0.108 7.6 10.47 11.03
10/29/2020 5:45:00 PM 9.65 49.37 0.109 7.58 15.18 11.09
10/29/2020 6:00:00 PM 9.62 49.316 0.111 7.42 18.75 11.1
10/29/2020 6:15:00 PM 9.57 49.226 0.112 7.57 21.91 11.11
10/29/2020 6:30:00 PM 9.54 49.172 0.112 7.56 37.73 11
10/29/2020 6:45:00 PM 9.51 49.118 0.112 7.58 24.22 11.04
10/29/2020 7:00:00 PM 9.48 49.064 0.113 7.57 28.5 11.12
10/29/2020 7:15:00 PM 9.44 48.992 0.112 7.55 28.87 11.14
10/29/2020 7:30:00 PM 9.42 48.956 0.112 7.56 59.84 11.16
10/29/2020 7:45:00 PM 9.39 48.902 0.112 7.56 20.69 11.16
10/29/2020 8:00:00 PM 9.37 48.866 0.114 7.56 18.05 11.14
10/29/2020 8:15:00 PM 9.33 48.794 0.116 7.57 46.08 11.21
10/29/2020 8:30:00 PM 9.31 48.758 0.118 7.53 23.09 11.19
10/29/2020 8:45:00 PM 9.29 48.722 0.12 7.51 22.22 11.21
10/29/2020 9:00:00 PM 9.27 48.686 0.122 7.57 20.54 11.24
10/29/2020 9:15:00 PM 9.25 48.65 0.124 7.6 37.75 11.25
10/29/2020 9:30:00 PM 9.23 48.614 0.125 7.52 14.28 11.25
10/29/2020 9:45:00 PM 9.22 48.596 0.128 7.55 16.36 11.25
10/29/2020 10:00:00 PM 9.21 48.578 0.129 7.55 11.5 11.26
10/29/2020 10:15:00 PM 9.19 48.542 0.131 7.56 12.94 11.26
10/29/2020 10:30:00 PM 9.18 48.524 0.132 7.56 14.56 11.26
10/29/2020 10:45:00 PM 9.16 48.488 0.132 7.58 13.05 11.26
10/29/2020 11:00:00 PM 9.14 48.452 0.132 7.55 13.56 11.27
10/29/2020 11:15:00 PM 9.12 48.416 0.052 7.62 11.91 11.26
10/29/2020 11:30:00 PM 9.1 48.38 0.132 7.58 11.74 11.28
10/29/2020 11:45:00 PM 9.08 48.344 0.132 7.63 11 11.28
10/30/2020 12:00:00 AM 9.06 48.308 0.132 7.57 11.61 11.29
10/30/2020 12:15:00 AM 9.04 48.272 0.132 7.57 11.56 11.29
10/30/2020 12:30:00 AM 9.03 48.254 0.132 7.56 11.25 11.3
10/30/2020 12:45:00 AM 9.01 48.218 0.132 7.56 10.86 11.3
10/30/2020 1:00:00 AM 9 48.2 0.131 7.55 11.51 11.31
10/30/2020 1:15:00 AM 8.98 48.164 0.132 7.55 10.75 11.31
10/30/2020 1:30:00 AM 8.97 48.146 0.132 7.56 10.53 11.31
10/30/2020 1:45:00 AM 8.95 48.11 0.132 7.55 10.54 11.32
10/30/2020 2:00:00 AM 8.93 48.074 0.132 7.54 10.06 11.32
10/30/2020 2:15:00 AM 8.91 48.038 0.132 7.56 9.77 11.33
10/30/2020 2:30:00 AM 8.89 48.002 0.132 7.59 10.26 11.33
10/30/2020 2:45:00 AM 8.88 47.984 0.132 7.55 9.69 11.33
10/30/2020 3:00:00 AM 8.87 47.966 0.133 7.56 9.45 11.34
10/30/2020 3:15:00 AM 8.85 47.93 0.133 7.55 9.65 11.34
10/30/2020 3:30:00 AM 8.83 47.894 0.133 7.57 9.52 11.35
10/30/2020 3:45:00 AM 8.81 47.858 0.133 7.61 9.26 11.36
10/30/2020 4:00:00 AM 8.78 47.804 0.133 7.54 9.34 11.37
10/30/2020 4:15:00 AM 8.74 47.732 0.133 7.59 9.02 11.39
10/30/2020 4:30:00 AM 8.69 47.642 0.133 7.54 9.42 11.4
10/30/2020 4:45:00 AM 8.64 47.552 0.133 7.55 9.44 11.42
10/30/2020 5:00:00 AM 8.6 47.48 0.134 7.55 9.42 11.43
10/30/2020 5:15:00 AM 8.57 47.426 0.134 7.54 9.5 11.45
10/30/2020 5:30:00 AM 8.54 47.372 0.134 7.53 9.69 11.46
10/30/2020 5:45:00 AM 8.52 47.336 0.134 7.63 9.74 11.47
10/30/2020 6:00:00 AM 8.5 47.3 0.135 7.57 9.57 11.48
10/30/2020 6:15:00 AM 8.48 47.264 0.135 7.55 9.79 11.49
10/30/2020 6:30:00 AM 8.46 47.228 0.135 7.55 9.48 11.5
10/30/2020 6:45:00 AM 8.45 47.21 0.136 7.54 9.53 11.5
10/30/2020 7:00:00 AM 8.43 47.174 0.136 7.6 9.37 11.51
10/30/2020 7:15:00 AM 8.41 47.138 0.136 7.56 9.5 11.52
10/30/2020 7:30:00 AM 8.4 47.12 0.136 7.57 8.61 11.53
10/30/2020 7:45:00 AM 8.39 47.102 0.136 7.56 8.66 11.54
10/30/2020 8:00:00 AM 8.38 47.084 0.136 7.57 8.48 11.55
10/30/2020 8:15:00 AM 8.37 47.066 0.136 7.58 8.14 11.55
10/30/2020 8:30:00 AM 8.36 47.048 0.136 7.58 8.42 11.57
10/30/2020 8:45:00 AM 8.35 47.03 0.136 7.58 8.17 11.58
10/30/2020 9:00:00 AM 8.35 47.03 0.136 7.61 8.2 11.6
10/30/2020 9:15:00 AM 8.34 47.012 0.136 7.6 7.9 11.62
10/30/2020 9:30:00 AM 8.34 47.012 0.136 7.6 7.52 11.63
10/30/2020 9:45:00 AM 8.33 46.994 0.136 7.64 7.45 11.64
10/30/2020 10:00:00 AM 8.33 46.994 0.137 7.59 7.38 11.65
10/30/2020 10:15:00 AM 8.32 46.976 0.137 7.6 6.85 11.66
10/30/2020 10:30:00 AM 8.32 46.976 0.137 7.6 6.91 11.67
10/30/2020 10:45:00 AM 8.32 46.976 0.137 7.6 6.93 11.68
10/30/2020 11:00:00 AM 8.33 46.994 0.138 7.64 6.67 11.68
10/30/2020 11:15:00 AM 8.33 46.994 0.138 7.61 6.81 11.69
10/30/2020 11:30:00 AM 8.34 47.012 0.138 7.59 6.58 11.7
10/30/2020 11:45:00 AM 8.35 47.03 0.139 7.6 6.6 11.71
10/30/2020 12:00:00 PM 8.37 47.066 0.139 7.61 6.32 11.73
10/30/2020 12:15:00 PM 8.4 47.12 0.139 7.62 6.55 11.75
10/30/2020 12:30:00 PM 8.42 47.156 0.139 7.62 6.42 11.75
10/30/2020 12:45:00 PM 8.43 47.174 0.14 7.63 6.24 11.75
10/30/2020 1:00:00 PM 8.44 47.192 0.14 7.64 6.13 11.74
10/30/2020 1:15:00 PM 8.44 47.192 0.14 7.63 6.17 11.73
10/30/2020 1:30:00 PM 8.46 47.228 0.14 7.62 6.17 11.74
10/30/2020 1:45:00 PM 8.47 47.246 0.14 7.63 6.36 11.75
10/30/2020 2:00:00 PM 8.5 47.3 0.14 7.66 6.09 11.76
10/30/2020 2:15:00 PM 8.52 47.336 0.141 7.63 5.93 11.76
10/30/2020 2:30:00 PM 8.53 47.354 0.14 7.64 5.97 11.75
10/30/2020 2:45:00 PM 8.52 47.336 0.141 7.63 5.96 11.74
10/30/2020 3:00:00 PM 8.55 47.39 0.141 7.65 5.93 11.76
10/30/2020 3:15:00 PM 8.56 47.408 0.141 7.64 6.02 11.76
10/30/2020 3:30:00 PM 8.58 47.444 0.141 7.64 5.88 11.77
10/30/2020 3:45:00 PM 8.6 47.48 0.141 7.65 5.81 11.76
10/30/2020 4:00:00 PM 8.62 47.516 0.141 7.67 5.64 11.76
10/30/2020 4:15:00 PM 8.63 47.534 0.141 7.68 5.9 11.77
10/30/2020 4:30:00 PM 8.63 47.534 0.141 7.66 5.94 11.76
10/30/2020 4:45:00 PM 8.63 47.534 0.141 7.65 5.7 11.75
10/30/2020 5:00:00 PM 8.62 47.516 0.141 7.62 5.63 11.74
10/30/2020 5:15:00 PM 8.61 47.498 0.141 7.65 5.53 11.71
10/30/2020 5:30:00 PM 8.58 47.444 0.141 7.61 5.61 11.7
10/30/2020 5:45:00 PM 8.56 47.408 0.141 7.62 5.57 11.68
10/30/2020 6:00:00 PM 8.54 47.372 0.141 7.67 5.52 11.66
10/30/2020 6:15:00 PM 8.52 47.336 0.141 7.62 5.53 11.64
10/30/2020 6:30:00 PM 8.5 47.3 0.141 7.64 5.51 11.63
10/30/2020 6:45:00 PM 8.48 47.264 0.141 7.59 5.71 11.63
10/30/2020 7:00:00 PM 8.46 47.228 0.141 7.65 5.55 11.63
10/30/2020 7:15:00 PM 8.44 47.192 0.141 7.61 5.53 11.62
10/30/2020 7:30:00 PM 8.42 47.156 0.141 7.61 5.54 11.62
10/30/2020 7:45:00 PM 8.4 47.12 0.141 7.62 5.52 11.63
10/30/2020 8:00:00 PM 8.39 47.102 0.141 7.6 5.47 11.63
10/30/2020 8:15:00 PM 8.37 47.066 0.141 7.59 5.34 11.64
10/30/2020 8:30:00 PM 8.35 47.03 0.141 7.59 5.35 11.65
10/30/2020 8:45:00 PM 8.33 46.994 0.141 7.65 5.43 11.65
10/30/2020 9:00:00 PM 8.31 46.958 0.141 7.59 5.25 11.66
10/30/2020 9:15:00 PM 8.28 46.904 0.141 7.6 5.45 11.66
10/30/2020 9:30:00 PM 8.23 46.814 0.141 7.6 5.23 11.68
10/30/2020 9:45:00 PM 8.19 46.742 0.141 7.65 5.23 11.69
10/30/2020 10:00:00 PM 8.16 46.688 0.142 7.59 5.2 11.7
10/30/2020 10:15:00 PM 8.14 46.652 0.141 7.6 5.37 11.7
10/30/2020 10:30:00 PM 8.12 46.616 0.141 7.6 5.13 11.71
10/30/2020 10:45:00 PM 8.1 46.58 0.141 7.6 5.4 11.72
10/30/2020 11:00:00 PM 8.08 46.544 0.141 7.6 5.24 11.73
10/30/2020 11:15:00 PM 8.07 46.526 0.141 7.64 5.22 11.73
10/30/2020 11:30:00 PM 8.06 46.508 0.141 7.64 5.24 11.74
10/30/2020 11:45:00 PM 8.04 46.472 0.141 7.64 5.2 11.75
10/31/2020 12:00:00 AM 8.03 46.454 0.141 7.61 5.04 11.76
10/31/2020 12:15:00 AM 8.01 46.418 0.141 7.6 5.11 11.77
10/31/2020 12:30:00 AM 8 46.4 0.141 7.61 5.08 11.76
10/31/2020 12:45:00 AM 7.99 46.382 0.141 7.6 5.01 11.76
10/31/2020 1:00:00 AM 7.98 46.364 0.141 7.6 5 11.77
10/31/2020 1:15:00 AM 7.96 46.328 0.141 7.62 5.09 11.78
10/31/2020 1:30:00 AM 7.95 46.31 0.141 7.65 9.71 11.77
10/31/2020 1:45:00 AM 7.94 46.292 0.141 7.61 11.12 11.78
10/31/2020 2:00:00 AM 7.93 46.274 0.141 7.6 8.55 11.79
10/31/2020 2:15:00 AM 7.92 46.256 0.141 7.6 8.64 11.79
10/31/2020 2:30:00 AM 7.9 46.22 0.141 7.61 8.32 11.79
10/31/2020 2:45:00 AM 7.89 46.202 0.141 7.61 8.27 11.79
10/31/2020 3:00:00 AM 7.87 46.166 0.141 7.6 9.21 11.8
10/31/2020 3:15:00 AM 7.86 46.148 0.141 7.62 8.54 11.81
10/31/2020 3:30:00 AM 7.84 46.112 0.141 7.6 8.56 11.81
10/31/2020 3:45:00 AM 7.82 46.076 0.141 7.62 9.22 11.81
10/31/2020 4:00:00 AM 7.8 46.04 0.141 7.58 8.39 11.82
10/31/2020 4:15:00 AM 7.78 46.004 0.141 7.62 9.37 11.83
10/31/2020 4:30:00 AM 7.76 45.968 0.141 7.61 8.74 11.84
10/31/2020 4:45:00 AM 7.73 45.914 0.141 7.64 8.09 11.84
10/31/2020 5:00:00 AM 7.71 45.878 0.14 7.61 8.94 11.85
10/31/2020 5:15:00 AM 7.69 45.842 0.141 7.61 9.11 11.85
10/31/2020 5:30:00 AM 7.68 45.824 0.141 7.61 8.65 11.86
10/31/2020 5:45:00 AM 7.66 45.788 0.141 7.62 9.16 11.87
10/31/2020 6:00:00 AM 7.64 45.752 0.141 7.61 8.45 11.88
10/31/2020 6:15:00 AM 7.62 45.716 0.141 7.61 8.39 11.88
10/31/2020 6:30:00 AM 7.6 45.68 0.141 7.6 7.97 11.89
10/31/2020 6:45:00 AM 7.58 45.644 0.141 7.61 9.88 11.89
10/31/2020 7:00:00 AM 7.56 45.608 0.141 7.61 21.45 11.9
10/31/2020 7:15:00 AM 7.54 45.572 0.141 7.6 14.46 11.9
10/31/2020 7:30:00 AM 7.52 45.536 0.141 7.6 18.36 11.91
10/31/2020 7:45:00 AM 7.5 45.5 0.141 7.64 12.81 11.92
10/31/2020 8:00:00 AM 7.49 45.482 0.141 7.59 8.23 11.93
10/31/2020 8:15:00 AM 7.47 45.446 0.141 7.6 7.8 11.96
10/31/2020 8:30:00 AM 7.47 45.446 0.141 7.6 7.91 11.98
10/31/2020 8:45:00 AM 7.47 45.446 0.14 7.6 7.72 12.02
10/31/2020 9:00:00 AM 7.46 45.428 0.14 7.62 7.53 12.06
10/31/2020 9:15:00 AM 7.47 45.446 0.14 7.62 7.51 12.1
10/31/2020 9:30:00 AM 7.5 45.5 0.14 7.66 8.28 12.15
10/31/2020 9:45:00 AM 7.53 45.554 0.14 7.68 8.31 12.18
10/31/2020 10:00:00 AM 7.57 45.626 0.14 7.65 7.25 12.2
10/31/2020 10:15:00 AM 7.62 45.716 0.14 7.67 7.22 12.22
10/31/2020 10:30:00 AM 7.67 45.806 0.14 7.67 7.16 12.24
10/31/2020 10:45:00 AM 7.74 45.932 0.14 7.69 6.88 12.24
10/31/2020 11:00:00 AM 7.8 46.04 0.14 7.68 7.71 12.24
10/31/2020 11:15:00 AM 7.86 46.148 0.14 7.7 7.49 12.23
10/31/2020 11:30:00 AM 7.9 46.22 0.14 7.74 7.35 12.23
10/31/2020 11:45:00 AM 8.03 46.454 0.14 7.74 7.33 12.2
10/31/2020 12:00:00 PM 8.05 46.49 0.14 7.71 8.2 12.19
10/31/2020 12:15:00 PM 8.15 46.67 0.139 7.73 8.03 12.16
10/31/2020 12:30:00 PM 8.25 46.85 0.139 7.71 7.17 12.12
10/31/2020 12:45:00 PM 8.37 47.066 0.139 7.75 8.81 12.09
10/31/2020 1:00:00 PM 8.54 47.372 0.139 7.59 8.66 12.04
10/31/2020 1:15:00 PM 8.73 47.714 0.139 7.69 8.77 11.99
10/31/2020 1:30:00 PM 8.92 48.056 0.139 7.71 13.89 11.93
10/31/2020 1:45:00 PM 9.05 48.29 0.139 7.69 8.78 11.88
10/31/2020 2:00:00 PM 9.21 48.578 0.139 7.71 4.69 11.84
10/31/2020 2:15:00 PM 9.28 48.704 0.139 7.73 4.37 11.79
10/31/2020 2:30:00 PM 9.37 48.866 0.138 7.73 4.42 11.75
10/31/2020 2:45:00 PM 9.46 49.028 0.139 7.71 5.35 11.73
10/31/2020 3:00:00 PM 9.5 49.1 0.139 7.71 4.69 11.7
10/31/2020 3:15:00 PM 9.51 49.118 0.139 7.76 7.76 11.68
10/31/2020 3:30:00 PM 9.52 49.136 0.139 7.74 7.26 11.68
10/31/2020 3:45:00 PM 9.46 49.028 0.138 7.76 7.64 11.67
10/31/2020 4:00:00 PM 9.42 48.956 0.138 7.71 6.71 11.65
10/31/2020 4:15:00 PM 9.37 48.866 0.138 7.73 7.33 11.67
10/31/2020 4:30:00 PM 9.32 48.776 0.138 7.71 6.66 11.68
10/31/2020 4:45:00 PM 9.21 48.578 0.138 7.7 7.23 11.68
10/31/2020 5:00:00 PM 9.1 48.38 0.138 7.69 8.44 11.67
10/31/2020 5:15:00 PM 9.02 48.236 0.138 7.72 7.63 11.65
10/31/2020 5:30:00 PM 8.94 48.092 0.138 7.69 9.12 11.65
10/31/2020 5:45:00 PM 8.87 47.966 0.138 7.66 8.34 11.64
10/31/2020 6:00:00 PM 8.79 47.822 0.138 7.71 7.44 11.62
10/31/2020 6:15:00 PM 8.7 47.66 0.138 7.7 7.81 11.61
10/31/2020 6:30:00 PM 8.62 47.516 0.138 7.63 7.53 11.6
10/31/2020 6:45:00 PM 8.53 47.354 0.138 7.66 8.35 11.6
10/31/2020 7:00:00 PM 8.45 47.21 0.138 7.67 7.91 11.6
10/31/2020 7:15:00 PM 8.37 47.066 0.136 7.66 8.28 11.6
10/31/2020 7:30:00 PM 8.29 46.922 0.138 7.64 6.48 11.61
10/31/2020 7:45:00 PM 8.2 46.76 0.138 7.67 7.8 11.63
10/31/2020 8:00:00 PM 8.12 46.616 0.138 7.61 8.65 11.65
10/31/2020 8:15:00 PM 8.05 46.49 0.138 7.6 8.64 11.65
10/31/2020 8:30:00 PM 7.99 46.382 0.138 7.66 8.74 11.67
10/31/2020 8:45:00 PM 7.92 46.256 0.138 7.62 8.98 11.69
10/31/2020 9:00:00 PM 7.85 46.13 0.138 7.62 8.09 11.7
10/31/2020 9:15:00 PM 7.79 46.022 0.138 7.61 8.98 11.71
10/31/2020 9:30:00 PM 7.72 45.896 0.138 7.6 8.43 11.72
10/31/2020 9:45:00 PM 7.67 45.806 0.138 7.61 8.44 11.74
10/31/2020 10:00:00 PM 7.61 45.698 0.138 7.65 8.51 11.76
10/31/2020 10:15:00 PM 7.55 45.59 0.138 7.65 8.68 11.78
10/31/2020 10:30:00 PM 7.5 45.5 0.138 7.65 8.54 11.79
10/31/2020 10:45:00 PM 7.46 45.428 0.138 7.65 8.28 11.8
10/31/2020 11:00:00 PM 7.41 45.338 0.138 7.59 8.18 11.81
10/31/2020 11:15:00 PM 7.37 45.266 0.138 7.66 8.65 11.82
10/31/2020 11:30:00 PM 7.32 45.176 0.138 7.62 8.42 11.83
10/31/2020 11:45:00 PM 7.28 45.104 0.138 7.59 8.1 11.84
11/1/2020 12:00:00 AM 7.23 45.014 0.138 7.59 8.4 11.85
11/1/2020 12:15:00 AM 7.19 44.942 0.137 7.6 8.32 11.86
11/1/2020 12:30:00 AM 7.16 44.888 0.138 7.6 8.42 11.87
11/1/2020 12:45:00 AM 7.14 44.852 0.138 7.58 8.84 11.87
11/1/2020 1:00:00 AM 7.14 44.852 0.137 7.64 8.23 11.87
11/1/2020 1:15:00 AM 7.14 44.852 0.138 7.64 7.84 11.88
11/1/2020 1:30:00 AM 7.15 44.87 0.137 7.59 8.53 11.88
11/1/2020 1:45:00 AM 7.16 44.888 0.137 7.6 8.01 11.87
11/1/2020 2:00:00 AM 7.18 44.924 0.137 7.63 7.82 11.87
11/1/2020 2:15:00 AM 7.19 44.942 0.137 7.6 7.8 11.86
11/1/2020 2:30:00 AM 7.21 44.978 0.137 7.64 8.09 11.85
11/1/2020 2:45:00 AM 7.24 45.032 0.137 7.6 7.68 11.85
11/1/2020 3:00:00 AM 7.25 45.05 0.137 7.61 7.89 11.84
11/1/2020 3:15:00 AM 7.28 45.104 0.137 7.64 7.91 11.83
11/1/2020 3:30:00 AM 7.29 45.122 0.137 7.6 7.79 11.82
11/1/2020 3:45:00 AM 7.31 45.158 0.137 7.61 7.83 11.81
11/1/2020 4:00:00 AM 7.33 45.194 0.137 7.61 7.7 11.8
11/1/2020 4:15:00 AM 7.41 45.338 0.137 7.63 7.9 11.76
11/1/2020 4:30:00 AM 7.43 45.374 0.137 7.61 7.85 11.75
11/1/2020 4:45:00 AM 7.44 45.392 0.137 7.64 7.88 11.75
11/1/2020 5:00:00 AM 7.45 45.41 0.137 7.62 7.66 11.74
11/1/2020 5:15:00 AM 7.46 45.428 0.137 7.61 7.81 11.73
11/1/2020 5:30:00 AM 7.46 45.428 0.137 7.61 7.64 11.73
11/1/2020 5:45:00 AM 7.47 45.446 0.137 7.62 7.59 11.72
11/1/2020 6:00:00 AM 7.48 45.464 0.137 7.65 7.9 11.71
11/1/2020 6:15:00 AM 7.49 45.482 0.137 7.61 8.05 11.71
11/1/2020 6:30:00 AM 7.5 45.5 0.137 7.65 8.06 11.7
11/1/2020 6:45:00 AM 7.51 45.518 0.137 7.61 8.08 11.7
11/1/2020 7:00:00 AM 7.52 45.536 0.137 7.6 7.72 11.69
11/1/2020 7:15:00 AM 7.54 45.572 0.137 7.61 7.67 11.69
11/1/2020 7:30:00 AM 7.55 45.59 0.137 7.65 7.85 11.7
11/1/2020 7:45:00 AM 7.57 45.626 0.136 7.62 7.63 11.72
11/1/2020 8:00:00 AM 7.6 45.68 0.136 7.64 7.71 11.73
11/1/2020 8:15:00 AM 7.63 45.734 0.137 7.66 7.56 11.74
11/1/2020 8:30:00 AM 7.65 45.77 0.136 7.66 7.76 11.75
11/1/2020 8:45:00 AM 7.68 45.824 0.136 7.68 7.66 11.76
11/1/2020 9:00:00 AM 7.71 45.878 0.136 7.65 7.58 11.77
11/1/2020 9:15:00 AM 7.74 45.932 0.136 7.68 7.55 11.77
11/1/2020 9:30:00 AM 7.76 45.968 0.136 7.64 7.59 11.77
11/1/2020 9:45:00 AM 7.79 46.022 0.136 7.64 7.59 11.77
11/1/2020 10:00:00 AM 7.82 46.076 0.136 7.65 7.54 11.76
11/1/2020 10:15:00 AM 7.85 46.13 0.136 7.66 7.56 11.77
11/1/2020 10:30:00 AM 7.88 46.184 0.136 7.64 7.59 11.76
11/1/2020 10:45:00 AM 7.9 46.22 0.136 7.66 7.59 11.76
11/1/2020 11:00:00 AM 7.93 46.274 0.135 7.68 7.62 11.75
11/1/2020 11:15:00 AM 7.96 46.328 0.135 7.69 7.94 11.74
11/1/2020 11:30:00 AM 7.97 46.346 0.135 7.66 7.51 11.7
11/1/2020 11:45:00 AM 8.01 46.418 0.135 7.66 7.49 11.72
11/1/2020 12:00:00 PM 8.03 46.454 0.135 7.68 7.6 11.73
11/1/2020 12:15:00 PM 8.07 46.526 0.135 7.51 7.54 11.71
11/1/2020 12:30:00 PM 8.09 46.562 0.135 7.65 7.55 11.69
11/1/2020 12:45:00 PM 8.12 46.616 0.135 7.66 7.49 11.7
11/1/2020 1:00:00 PM 8.16 46.688 0.135 7.67 7.48 11.71
11/1/2020 1:15:00 PM 8.18 46.724 0.134 7.65 7.61 11.67
11/1/2020 1:30:00 PM 8.2 46.76 0.133 7.64 7.8 11.64
11/1/2020 1:45:00 PM 8.23 46.814 0.133 7.63 7.69 11.64
11/1/2020 2:00:00 PM 8.27 46.886 0.133 7.66 7.58 11.65
11/1/2020 2:15:00 PM 8.33 46.994 0.133 7.63 7.68 11.68
11/1/2020 2:30:00 PM 8.36 47.048 0.133 7.66 8.06 11.66
11/1/2020 2:45:00 PM 8.38 47.084 0.133 7.68 7.6 11.66
11/1/2020 3:00:00 PM 8.41 47.138 0.133 7.67 7.43 11.67
11/1/2020 3:15:00 PM 8.42 47.156 0.133 7.66 7.41 11.65
11/1/2020 3:30:00 PM 8.43 47.174 0.133 7.67 7.42 11.64
11/1/2020 3:45:00 PM 8.42 47.156 0.133 7.71 7.46 11.65
11/1/2020 4:00:00 PM 8.4 47.12 0.133 7.68 7.45 11.64
11/1/2020 4:15:00 PM 8.39 47.102 0.133 7.66 7.41 11.63
11/1/2020 4:30:00 PM 8.38 47.084 0.133 7.66 7.46 11.61
11/1/2020 4:45:00 PM 8.38 47.084 0.133 7.69 7.57 11.58
11/1/2020 5:00:00 PM 8.35 47.03 0.133 7.65 7.41 11.55
11/1/2020 5:15:00 PM 8.29 46.922 0.133 7.68 7.56 11.52
11/1/2020 5:30:00 PM 8.25 46.85 0.133 7.68 7.42 11.51
11/1/2020 5:45:00 PM 8.22 46.796 0.133 7.64 7.57 11.49
11/1/2020 6:00:00 PM 8.17 46.706 0.134 7.68 7.49 11.49
11/1/2020 6:15:00 PM 8.14 46.652 0.133 7.63 7.72 11.48
11/1/2020 6:30:00 PM 8.09 46.562 0.133 7.61 5.32 11.47
11/1/2020 6:45:00 PM 8.04 46.472 0.133 7.66 5.32 11.47
11/1/2020 7:00:00 PM 7.98 46.364 0.133 7.61 5.33 11.48
11/1/2020 7:15:00 PM 7.92 46.256 0.134 7.61 5.4 11.5
11/1/2020 7:30:00 PM 7.88 46.184 0.134 7.66 5.49 11.5
11/1/2020 7:45:00 PM 7.83 46.094 0.134 7.62 5.44 11.51
11/1/2020 8:00:00 PM 7.78 46.004 0.134 7.61 5.36 11.52
11/1/2020 8:15:00 PM 7.72 45.896 0.134 7.61 5.35 11.53
11/1/2020 8:30:00 PM 7.68 45.824 0.134 7.65 5.38 11.55
11/1/2020 8:45:00 PM 7.63 45.734 0.134 7.59 5.38 11.56
11/1/2020 9:00:00 PM 7.59 45.662 0.134 7.62 5.21 11.58
11/1/2020 9:15:00 PM 7.54 45.572 0.134 7.62 5.35 11.59
11/1/2020 9:30:00 PM 7.5 45.5 0.134 7.61 5.23 11.6
11/1/2020 9:45:00 PM 7.47 45.446 0.134 7.62 5.3 11.61
11/1/2020 10:00:00 PM 7.43 45.374 0.134 7.62 5.38 11.62
11/1/2020 10:15:00 PM 7.4 45.32 0.134 7.61 5.33 11.63
11/1/2020 10:30:00 PM 7.37 45.266 0.134 7.6 5.35 11.63
11/1/2020 10:45:00 PM 7.34 45.212 0.134 7.61 5.7 11.64
11/1/2020 11:00:00 PM 7.29 45.122 0.134 7.59 5.59 11.65
11/1/2020 11:15:00 PM 7.26 45.068 0.134 7.6 5.55 11.65
11/1/2020 11:30:00 PM 7.22 44.996 0.134 7.63 5.6 11.66
11/1/2020 11:45:00 PM 7.2 44.96 0.134 7.66 5.64 11.67
11/2/2020 12:00:00 AM 7.17 44.906 0.134 7.62 5.59 11.68
11/2/2020 12:15:00 AM 7.15 44.87 0.135 7.62 5.85 11.68
11/2/2020 12:30:00 AM 7.11 44.798 0.134 7.63 5.86 11.7
11/2/2020 12:45:00 AM 7.08 44.744 0.134 7.63 5.64 11.7
11/2/2020 1:00:00 AM 7.06 44.708 0.134 7.6 5.84 11.72
11/2/2020 1:15:00 AM 7.05 44.69 0.135 7.61 5.63 11.72
11/2/2020 1:30:00 AM 7.03 44.654 0.134 7.66 5.78 11.72
11/2/2020 1:45:00 AM 7.01 44.618 0.134 7.61 5.86 11.74
11/2/2020 2:00:00 AM 6.99 44.582 0.134 7.61 5.53 11.74
11/2/2020 2:15:00 AM 6.97 44.546 0.134 7.6 5.7 11.74
11/2/2020 2:30:00 AM 6.94 44.492 0.135 7.61 5.45 11.74
11/2/2020 2:45:00 AM 6.93 44.474 0.134 7.65 5.53 11.75
11/2/2020 3:00:00 AM 6.92 44.456 0.134 7.62 5.44 11.75
11/2/2020 3:15:00 AM 6.91 44.438 0.134 7.61 5.39 11.76
11/2/2020 3:30:00 AM 6.55 43.79 0.134 7.62 5.72 11.75
11/2/2020 3:45:00 AM 6.58 43.844 0.134 7.62 5.56 11.78
11/2/2020 4:00:00 AM 6.59 43.862 0.134 7.63 5.71 11.82
11/2/2020 4:15:00 AM 6.62 43.916 0.134 7.63 5.79 11.82
11/2/2020 4:30:00 AM 6.61 43.898 0.134 7.63 5.77 11.84
11/2/2020 4:45:00 AM 6.56 43.808 0.134 7.6 5.64 11.86
11/2/2020 5:00:00 AM 6.52 43.736 0.134 7.61 5.84 11.88
11/2/2020 5:15:00 AM 6.5 43.7 0.134 7.65 5.59 11.9
11/2/2020 5:30:00 AM 6.48 43.664 0.134 7.65 5.5 11.91
11/2/2020 5:45:00 AM 6.45 43.61 0.134 7.61 5.51 11.92
11/2/2020 6:00:00 AM 6.43 43.574 0.134 7.61 5.45 11.94
11/2/2020 6:15:00 AM 6.42 43.556 0.134 7.64 5.94 11.95
11/2/2020 6:30:00 AM 6.38 43.484 0.134 7.63 5.9 11.95
11/2/2020 6:45:00 AM 6.36 43.448 0.134 7.61 5.72 11.96
11/2/2020 7:00:00 AM 6.34 43.412 0.134 7.66 5.69 11.99
11/2/2020 7:15:00 AM 6.33 43.394 0.134 7.64 5.58 12.02
11/2/2020 7:30:00 AM 6.33 43.394 0.135 7.61 5.62 12.04
11/2/2020 7:45:00 AM 6.31 43.358 0.134 7.63 5.95 12.08
11/2/2020 8:00:00 AM 6.31 43.358 0.134 7.64 5.73 12.14
11/2/2020 8:15:00 AM 6.27 43.286 0.134 7.63 5.56 12.2
11/2/2020 8:30:00 AM 6.26 43.268 0.134 7.66 5.57 12.27
11/2/2020 8:45:00 AM 6.26 43.268 0.134 7.65 5.75 12.34
11/2/2020 9:00:00 AM 6.32 43.376 0.133 7.67 5.77 12.38
11/2/2020 9:15:00 AM 6.35 43.43 0.134 7.67 5.75 12.43
11/2/2020 9:30:00 AM 6.4 43.52 0.134 7.73 6.26 12.46
11/2/2020 9:45:00 AM 6.45 43.61 0.134 7.7 5.95 12.48
11/2/2020 10:00:00 AM 6.49 43.682 0.134 7.71 5.72 12.49
11/2/2020 10:15:00 AM 6.57 43.826 0.134 7.73 5.81 12.48
11/2/2020 10:30:00 AM 6.67 44.006 0.133 7.71 5.79 12.45
11/2/2020 10:45:00 AM 6.79 44.222 0.133 7.7 5.92 12.43
11/2/2020 11:00:00 AM 6.9 44.42 0.133 7.76 5.8 12.42
11/2/2020 11:15:00 AM 6.94 44.492 0.133 7.76 5.74 12.42
11/2/2020 11:30:00 AM 6.96 44.528 0.133 7.72 5.77 12.38
11/2/2020 11:45:00 AM 7.02 44.636 0.133 7.7 5.73 12.36
11/2/2020 12:00:00 PM 7.14 44.852 0.134 7.72 5.68 12.33
11/2/2020 12:15:00 PM 7.24 45.032 0.133 7.7 5.66 12.3
11/2/2020 12:30:00 PM 7.4 45.32 0.133 7.76 5.69 12.26
11/2/2020 12:45:00 PM 7.54 45.572 0.133 7.73 6 12.24
11/2/2020 1:00:00 PM 7.66 45.788 0.133 7.72 5.6 12.22
11/2/2020 1:15:00 PM 7.75 45.95 0.133 7.71 5.72 12.19
11/2/2020 1:30:00 PM 7.81 46.058 0.133 7.73 5.6 12.16
11/2/2020 1:45:00 PM 7.88 46.184 0.133 7.72 5.94 12.14
11/2/2020 2:00:00 PM 7.93 46.274 0.133 7.78 8.95 12.12
11/2/2020 2:15:00 PM 7.96 46.328 0.133 7.72 5.87 12.12
11/2/2020 2:30:00 PM 7.98 46.364 0.132 7.78 5.66 12.1
11/2/2020 2:45:00 PM 7.99 46.382 0.133 7.74 5.95 12.08
11/2/2020 3:00:00 PM 7.99 46.382 0.133 7.72 5.71 12.06
11/2/2020 3:15:00 PM 7.96 46.328 0.133 7.72 5.66 12.03
11/2/2020 3:30:00 PM 7.91 46.238 0.133 7.74 5.83 12
11/2/2020 3:45:00 PM 7.86 46.148 0.133 7.75 5.64 12.01
11/2/2020 4:00:00 PM 7.81 46.058 0.133 7.71 5.67 11.99
11/2/2020 4:15:00 PM 7.75 45.95 0.133 7.76 5.69 12
11/2/2020 4:30:00 PM 7.7 45.86 0.133 7.7 5.77 11.98
11/2/2020 4:45:00 PM 7.63 45.734 0.133 7.68 5.7 11.94
11/2/2020 5:00:00 PM 7.58 45.644 0.133 7.68 5.79 11.9
11/2/2020 5:15:00 PM 7.52 45.536 0.133 7.7 5.76 11.86
11/2/2020 5:30:00 PM 7.46 45.428 0.133 7.66 5.96 11.83
11/2/2020 5:45:00 PM 7.42 45.356 0.133 7.67 5.84 11.81
11/2/2020 6:00:00 PM 7.38 45.284 0.133 7.65 5.88 11.79
11/2/2020 6:15:00 PM 7.34 45.212 0.133 7.64 5.77 11.78
11/2/2020 6:30:00 PM 7.31 45.158 0.134 7.66 5.89 11.77
11/2/2020 6:45:00 PM 7.28 45.104 0.133 7.62 5.84 11.75
11/2/2020 7:00:00 PM 7.25 45.05 0.133 7.68 5.82 11.75
11/2/2020 7:15:00 PM 7.22 44.996 0.133 7.64 5.82 11.75
11/2/2020 7:30:00 PM 7.2 44.96 0.134 7.67 5.76 11.75
11/2/2020 7:45:00 PM 7.17 44.906 0.133 7.62 6.31 11.74
11/2/2020 8:00:00 PM 7.13 44.834 0.134 7.61 6.29 11.75
11/2/2020 8:15:00 PM 7.08 44.744 0.133 7.63 6.6 11.75
11/2/2020 8:30:00 PM 7.04 44.672 0.134 7.62 6.09 11.76
11/2/2020 8:45:00 PM 6.99 44.582 0.133 7.62 6.25 11.76
11/2/2020 9:00:00 PM 6.94 44.492 0.134 7.63 5.99 11.77
11/2/2020 9:15:00 PM 6.9 44.42 0.134 7.63 6.14 11.78
11/2/2020 9:30:00 PM 6.85 44.33 0.134 7.61 6.01 11.79
11/2/2020 9:45:00 PM 6.81 44.258 0.134 7.63 5.93 11.8
11/2/2020 10:00:00 PM 6.77 44.186 0.134 7.62 5.84 11.8
11/2/2020 10:15:00 PM 6.73 44.114 0.134 7.63 5.83 11.81
11/2/2020 10:30:00 PM 6.7 44.06 0.134 7.61 6.03 11.82
11/2/2020 10:45:00 PM 6.67 44.006 0.134 7.61 5.92 11.84
11/2/2020 11:00:00 PM 6.65 43.97 0.134 7.61 5.87 11.85
11/2/2020 11:15:00 PM 6.63 43.934 0.134 7.6 5.96 11.86
11/2/2020 11:30:00 PM 6.62 43.916 0.133 7.6 5.92 11.87
11/2/2020 11:45:00 PM 6.6 43.88 0.134 7.62 6.09 11.88
11/3/2020 12:00:00 AM 6.59 43.862 0.134 7.64 5.89 11.87
11/3/2020 12:15:00 AM 6.58 43.844 0.134 7.61 6.1 11.89
11/3/2020 12:30:00 AM 6.57 43.826 0.134 7.61 5.81 11.89
11/3/2020 12:45:00 AM 6.57 43.826 0.134 7.62 6.05 11.89
11/3/2020 1:00:00 AM 6.55 43.79 0.134 7.6 5.82 11.89
11/3/2020 1:15:00 AM 6.53 43.754 0.134 7.65 5.97 11.9
11/3/2020 1:30:00 AM 6.5 43.7 0.133 7.59 5.84 11.9
11/3/2020 1:45:00 AM 6.47 43.646 0.134 7.65 6.91 11.9
11/3/2020 2:00:00 AM 6.45 43.61 0.134 7.64 5.94 11.92
11/3/2020 2:15:00 AM 6.43 43.574 0.134 7.59 5.86 11.92
11/3/2020 2:30:00 AM 6.41 43.538 0.134 7.61 5.86 11.93
11/3/2020 2:45:00 AM 6.39 43.502 0.134 7.61 5.89 11.93
11/3/2020 3:00:00 AM 6.36 43.448 0.134 7.6 5.87 11.94
11/3/2020 3:15:00 AM 6.34 43.412 0.134 7.58 5.82 11.93
11/3/2020 3:30:00 AM 6.32 43.376 0.134 7.6 6.11 11.95
11/3/2020 3:45:00 AM 6.29 43.322 0.133 7.61 5.96 11.94
11/3/2020 4:00:00 AM 6.27 43.286 0.134 7.65 5.76 11.95
11/3/2020 4:15:00 AM 6.24 43.232 0.134 7.61 5.8 11.96
11/3/2020 4:30:00 AM 6.23 43.214 0.134 7.63 5.86 11.97
11/3/2020 4:45:00 AM 6.2 43.16 0.134 7.59 5.84 11.98
11/3/2020 5:00:00 AM 6.19 43.142 0.134 7.59 5.93 11.99
11/3/2020 5:15:00 AM 6.17 43.106 0.133 7.59 6.27 12
11/3/2020 5:30:00 AM 6.15 43.07 0.134 7.64 5.92 12.01
11/3/2020 5:45:00 AM 6.13 43.034 0.134 7.64 6.35 12.02
11/3/2020 6:00:00 AM 6.12 43.016 0.134 7.6 5.99 12.02
11/3/2020 6:15:00 AM 6.11 42.998 0.133 7.6 5.84 12.03
11/3/2020 6:30:00 AM 6.09 42.962 0.134 7.61 6.04 12.04
11/3/2020 6:45:00 AM 6.08 42.944 0.133 7.6 5.87 12.05
11/3/2020 7:00:00 AM 6.07 42.926 0.133 7.6 5.81 12.07
11/3/2020 7:15:00 AM 6.07 42.926 0.134 7.64 5.81 12.1
11/3/2020 7:30:00 AM 6.08 42.944 0.133 7.66 5.75 12.16
11/3/2020 7:45:00 AM 6.09 42.962 0.134 7.66 5.7 12.19
11/3/2020 8:00:00 AM 6.11 42.998 0.133 7.66 5.84 12.24
11/3/2020 8:15:00 AM 6.14 43.052 0.133 7.62 5.85 12.29
11/3/2020 8:30:00 AM 6.17 43.106 0.133 7.65 5.86 12.32
11/3/2020 8:45:00 AM 6.22 43.196 0.133 7.63 5.96 12.36
11/3/2020 9:00:00 AM 6.3 43.34 0.133 7.7 5.82 12.39
11/3/2020 9:15:00 AM 6.4 43.52 0.133 7.67 5.81 12.43
11/3/2020 9:30:00 AM 6.52 43.736 0.133 7.67 5.82 12.46
11/3/2020 9:45:00 AM 6.65 43.97 0.133 7.66 5.77 12.47
11/3/2020 10:00:00 AM 6.77 44.186 0.132 7.69 5.8 12.47
11/3/2020 10:15:00 AM 6.86 44.348 0.133 7.69 6.75 12.45
11/3/2020 10:30:00 AM 6.94 44.492 0.133 7.7 6.24 12.47
11/3/2020 10:45:00 AM 7.05 44.69 0.132 7.71 6.12 12.43
11/3/2020 11:00:00 AM 7.19 44.942 0.132 7.72 5.94 12.39
11/3/2020 11:15:00 AM 7.35 45.23 0.132 7.75 5.75 12.36
11/3/2020 11:30:00 AM 7.49 45.482 0.132 7.75 5.94 12.32
11/3/2020 11:45:00 AM 7.62 45.716 0.132 7.72 5.83 12.28
11/3/2020 12:00:00 PM 7.73 45.914 0.132 7.73 5.83 12.25
11/3/2020 12:15:00 PM 7.86 46.148 0.132 7.73 5.84 12.22
11/3/2020 12:30:00 PM 8.04 46.472 0.132 7.73 5.87 12.19
11/3/2020 12:45:00 PM 8.19 46.742 0.132 7.76 6.15 12.19
11/3/2020 1:00:00 PM 8.36 47.048 0.131 7.75 5.9 12.15
11/3/2020 1:15:00 PM 8.45 47.21 0.132 7.75 5.81 12.1
11/3/2020 1:30:00 PM 8.55 47.39 0.131 7.75 5.87 12.07
11/3/2020 1:45:00 PM 8.61 47.498 0.131 7.75 5.96 12.05
11/3/2020 2:00:00 PM 8.65 47.57 0.132 7.75 5.74 11.99
11/3/2020 2:15:00 PM 8.69 47.642 0.131 7.75 5.77 11.96
11/3/2020 2:30:00 PM 8.73 47.714 0.131 7.76 5.69 11.92
11/3/2020 2:45:00 PM 8.78 47.804 0.131 7.75 5.93 11.87
11/3/2020 3:00:00 PM 8.84 47.912 0.131 7.74 6.07 11.82
11/3/2020 3:15:00 PM 8.89 48.002 0.131 7.74 5.72 11.79
11/3/2020 3:30:00 PM 8.9 48.02 0.131 7.72 5.72 11.75
11/3/2020 3:45:00 PM 8.89 48.002 0.131 7.71 6 11.72
11/3/2020 4:00:00 PM 8.85 47.93 0.131 7.7 6.1 11.69
11/3/2020 4:15:00 PM 8.79 47.822 0.132 7.71 5.81 11.68
11/3/2020 4:30:00 PM 8.72 47.696 0.131 7.68 6.05 11.67
11/3/2020 4:45:00 PM 8.65 47.57 0.132 7.69 6.17 11.66
11/3/2020 5:00:00 PM 8.56 47.408 0.132 7.68 5.67 11.64
11/3/2020 5:15:00 PM 8.48 47.264 0.132 7.67 5.69 11.61
11/3/2020 5:30:00 PM 8.39 47.102 0.132 7.67 5.76 11.59
11/3/2020 5:45:00 PM 8.31 46.958 0.132 7.68 5.74 11.58
11/3/2020 6:00:00 PM 8.24 46.832 0.132 7.63 6.28 11.58
11/3/2020 6:15:00 PM 8.16 46.688 0.132 7.63 6.18 11.58
11/3/2020 6:30:00 PM 8.08 46.544 0.132 7.61 5.77 11.58
11/3/2020 6:45:00 PM 8 46.4 0.132 7.65 5.87 11.6
11/3/2020 7:00:00 PM 7.92 46.256 0.132 7.62 5.94 11.59
11/3/2020 7:15:00 PM 7.85 46.13 0.132 7.65 6.1 11.6
11/3/2020 7:30:00 PM 7.79 46.022 0.132 7.61 6.49 11.61
11/3/2020 7:45:00 PM 7.72 45.896 0.132 7.63 7.64 11.63
11/3/2020 8:00:00 PM 7.65 45.77 0.132 7.61 5.99 11.63
11/3/2020 8:15:00 PM 7.59 45.662 0.132 7.6 5.69 11.67
11/3/2020 8:30:00 PM 7.53 45.554 0.132 7.59 5.72 11.68
11/3/2020 8:45:00 PM 7.48 45.464 0.132 7.63 5.64 11.69
11/3/2020 9:00:00 PM 7.41 45.338 0.132 7.6 5.68 11.72
11/3/2020 9:15:00 PM 7.36 45.248 0.132 7.63 5.65 11.72
11/3/2020 9:30:00 PM 7.3 45.14 0.132 7.62 6.27 11.74
11/3/2020 9:45:00 PM 7.25 45.05 0.132 7.6 5.76 11.75
11/3/2020 10:00:00 PM 7.19 44.942 0.132 7.6 6.06 11.77
11/3/2020 10:15:00 PM 7.14 44.852 0.132 7.6 5.78 11.8
11/3/2020 10:30:00 PM 7.09 44.762 0.132 7.59 5.81 11.8
11/3/2020 10:45:00 PM 7.04 44.672 0.132 7.59 5.67 11.83
11/3/2020 11:00:00 PM 6.99 44.582 0.132 7.62 5.79 11.84
11/3/2020 11:15:00 PM 6.94 44.492 0.132 7.59 5.73 11.85
11/3/2020 11:30:00 PM 6.89 44.402 0.132 7.62 5.61 11.87
11/3/2020 11:45:00 PM 6.85 44.33 0.132 7.58 5.72 11.88
11/4/2020 12:00:00 AM 6.8 44.24 0.133 7.58 5.8 11.9
11/4/2020 12:15:00 AM 6.76 44.168 0.132 7.58 5.63 11.9
11/4/2020 12:30:00 AM 6.71 44.078 0.132 7.59 5.87 11.93
11/4/2020 12:45:00 AM 6.67 44.006 0.132 7.62 5.78 11.94
11/4/2020 1:00:00 AM 6.63 43.934 0.132 7.58 5.73 11.96
11/4/2020 1:15:00 AM 6.59 43.862 0.132 7.57 5.79 11.98
11/4/2020 1:30:00 AM 6.55 43.79 0.132 7.62 5.73 11.98
11/4/2020 1:45:00 AM 6.51 43.718 0.133 7.58 5.7 12
11/4/2020 2:00:00 AM 6.47 43.646 0.132 7.59 5.91 12.01
11/4/2020 2:15:00 AM 6.43 43.574 0.132 7.58 5.8 12.03
11/4/2020 2:30:00 AM 6.39 43.502 0.132 7.57 5.84 12.05
11/4/2020 2:45:00 AM 6.36 43.448 0.132 7.61 5.88 12.06
11/4/2020 3:00:00 AM 6.32 43.376 0.132 7.59 5.8 12.07
11/4/2020 3:15:00 AM 6.28 43.304 0.132 7.6 5.82 12.07
11/4/2020 3:30:00 AM 6.25 43.25 0.132 7.6 6.02 12.08
11/4/2020 3:45:00 AM 6.22 43.196 0.132 7.57 5.83 12.1
11/4/2020 4:00:00 AM 6.18 43.124 0.132 7.58 5.82 12.11
11/4/2020 4:15:00 AM 6.15 43.07 0.132 7.59 5.51 12.13
11/4/2020 4:30:00 AM 6.12 43.016 0.132 7.59 5.56 12.14
11/4/2020 4:45:00 AM 6.09 42.962 0.132 7.59 5.61 12.15
11/4/2020 5:00:00 AM 6.05 42.89 0.132 7.52 5.58 12.16
11/4/2020 5:15:00 AM 6.02 42.836 0.132 7.58 5.55 12.18
11/4/2020 5:30:00 AM 5.99 42.782 0.132 7.57 5.5 12.19
11/4/2020 5:45:00 AM 5.96 42.728 0.132 7.59 5.59 12.2
11/4/2020 6:00:00 AM 5.93 42.674 0.132 7.57 5.53 12.22
11/4/2020 6:15:00 AM 5.9 42.62 0.132 7.59 5.57 12.23
11/4/2020 6:30:00 AM 5.87 42.566 0.132 7.62 5.6 12.24
11/4/2020 6:45:00 AM 5.84 42.512 0.132 7.59 5.58 12.24
11/4/2020 7:00:00 AM 5.82 42.476 0.132 7.58 5.67 12.26
11/4/2020 7:15:00 AM 5.79 42.422 0.132 7.58 5.66 12.29
11/4/2020 7:30:00 AM 5.77 42.386 0.132 7.59 5.62 12.33
11/4/2020 7:45:00 AM 5.76 42.368 0.132 7.62 5.56 12.38
11/4/2020 8:00:00 AM 5.76 42.368 0.132 7.64 5.56 12.42
11/4/2020 8:15:00 AM 5.77 42.386 0.132 7.6 5.63 12.48
11/4/2020 8:30:00 AM 5.78 42.404 0.132 7.6 5.54 12.51
11/4/2020 8:45:00 AM 5.8 42.44 0.132 7.63 5.58 12.55
11/4/2020 9:00:00 AM 5.84 42.512 0.132 7.62 5.56 12.58
11/4/2020 9:15:00 AM 5.91 42.638 0.131 7.66 5.85 12.61
11/4/2020 9:30:00 AM 6.02 42.836 0.131 7.64 5.59 12.66
11/4/2020 9:45:00 AM 6.17 43.106 0.131 7.69 5.55 12.68
11/4/2020 10:00:00 AM 6.33 43.394 0.131 7.64 5.49 12.66
11/4/2020 10:15:00 AM 6.48 43.664 0.131 7.69 5.5 12.66
11/4/2020 10:30:00 AM 6.65 43.97 0.131 7.68 5.77 12.64
11/4/2020 10:45:00 AM 6.82 44.276 0.131 7.72 5.63 12.62
11/4/2020 11:00:00 AM 7 44.6 0.131 7.69 5.53 12.59
11/4/2020 11:15:00 AM 7.16 44.888 0.131 7.68 5.56 12.55
11/4/2020 11:30:00 AM 7.31 45.158 0.131 7.69 5.5 12.51
11/4/2020 11:45:00 AM 7.44 45.392 0.13 7.69 5.49 12.47
11/4/2020 12:00:00 PM 7.58 45.644 0.13 7.69 5.62 12.43
11/4/2020 12:15:00 PM 7.76 45.968 0.13 7.69 5.85 12.39
11/4/2020 12:30:00 PM 7.95 46.31 0.13 7.71 5.48 12.32
11/4/2020 12:45:00 PM 8.15 46.67 0.13 7.7 5.92 12.25
11/4/2020 1:00:00 PM 8.32 46.976 0.13 7.72 5.59 12.19
11/4/2020 1:15:00 PM 8.5 47.3 0.13 7.75 5.59 12.11
11/4/2020 1:30:00 PM 8.69 47.642 0.13 7.73 5.53 12.04
11/4/2020 1:45:00 PM 8.86 47.948 0.13 7.73 5.63 11.98
11/4/2020 2:00:00 PM 9.02 48.236 0.13 7.7 5.53 11.9
11/4/2020 2:15:00 PM 9.16 48.488 0.13 7.71 5.98 11.85
11/4/2020 2:30:00 PM 9.28 48.704 0.13 7.69 5.72 11.79
11/4/2020 2:45:00 PM 9.4 48.92 0.13 7.68 12.41 11.72
11/4/2020 3:00:00 PM 9.49 49.082 0.13 7.7 5.84 11.66
11/4/2020 3:15:00 PM 9.55 49.19 0.13 7.73 5.68 11.61
11/4/2020 3:30:00 PM 9.61 49.298 0.13 7.7 6.95 11.57
11/4/2020 3:45:00 PM 9.62 49.316 0.13 7.69 5.85 11.53
11/4/2020 4:00:00 PM 9.6 49.28 0.13 7.69 5.76 11.51
11/4/2020 4:15:00 PM 9.58 49.244 0.13 7.71 5.58 11.5
11/4/2020 4:30:00 PM 9.52 49.136 0.13 7.64 5.62 11.48
11/4/2020 4:45:00 PM 9.45 49.01 0.13 7.66 5.59 11.46
11/4/2020 5:00:00 PM 9.37 48.866 0.13 7.64 5.62 11.44
11/4/2020 5:15:00 PM 9.26 48.668 0.13 7.64 5.63 11.43
11/4/2020 5:30:00 PM 9.16 48.488 0.13 7.63 5.62 11.42
11/4/2020 5:45:00 PM 9.05 48.29 0.13 7.66 5.9 11.41
11/4/2020 6:00:00 PM 8.96 48.128 0.13 7.65 5.99 11.41
11/4/2020 6:15:00 PM 8.85 47.93 0.13 7.6 5.95 11.42
11/4/2020 6:30:00 PM 8.75 47.75 0.131 7.59 5.94 11.43
11/4/2020 6:45:00 PM 8.65 47.57 0.13 7.6 6.37 11.45
11/4/2020 7:00:00 PM 8.55 47.39 0.13 7.56 5.99 11.47
11/4/2020 7:15:00 PM 8.46 47.228 0.13 7.6 5.89 11.48
11/4/2020 7:30:00 PM 8.37 47.066 0.131 7.63 5.74 11.49
11/4/2020 7:45:00 PM 8.29 46.922 0.13 7.59 6.18 11.51
11/4/2020 8:00:00 PM 8.22 46.796 0.131 7.58 5.84 11.53
11/4/2020 8:15:00 PM 8.15 46.67 0.131 7.58 5.72 11.54
11/4/2020 8:30:00 PM 8.08 46.544 0.131 7.58 5.72 11.55
11/4/2020 8:45:00 PM 8.02 46.436 0.131 7.58 5.81 11.57
11/4/2020 9:00:00 PM 7.96 46.328 0.131 7.61 5.78 11.59
11/4/2020 9:15:00 PM 7.9 46.22 0.131 7.6 5.66 11.6
11/4/2020 9:30:00 PM 7.84 46.112 0.131 7.58 5.68 11.61
11/4/2020 9:45:00 PM 7.78 46.004 0.131 7.58 6.49 11.63
11/4/2020 10:00:00 PM 7.73 45.914 0.13 7.6 5.68 11.64
11/4/2020 10:15:00 PM 7.68 45.824 0.131 7.58 5.59 11.65
11/4/2020 10:30:00 PM 7.62 45.716 0.131 7.61 5.56 11.67
11/4/2020 10:45:00 PM 7.56 45.608 0.131 7.56 5.55 11.69
11/4/2020 11:00:00 PM 7.52 45.536 0.131 7.62 5.61 11.7
11/4/2020 11:15:00 PM 7.46 45.428 0.131 7.56 5.71 11.71
11/4/2020 11:30:00 PM 7.41 45.338 0.131 7.58 5.58 11.74
11/4/2020 11:45:00 PM 7.36 45.248 0.131 7.57 5.56 11.75
11/5/2020 12:00:00 AM 7.31 45.158 0.131 7.57 5.53 11.76
11/5/2020 12:15:00 AM 7.26 45.068 0.131 7.61 5.58 11.77
11/5/2020 12:30:00 AM 7.21 44.978 0.131 7.59 5.49 11.79
11/5/2020 12:45:00 AM 7.16 44.888 0.131 7.58 5.49 11.8
11/5/2020 1:00:00 AM 7.11 44.798 0.131 7.6 5.52 11.81
11/5/2020 1:15:00 AM 7.06 44.708 0.131 7.6 5.63 11.83
11/5/2020 1:30:00 AM 7.02 44.636 0.131 7.6 5.52 11.85
11/5/2020 1:45:00 AM 6.97 44.546 0.131 7.55 5.68 11.87
11/5/2020 2:00:00 AM 6.93 44.474 0.131 7.54 5.61 11.87
11/5/2020 2:15:00 AM 6.89 44.402 0.131 7.57 5.57 11.89
11/5/2020 2:30:00 AM 6.84 44.312 0.131 7.57 5.59 11.9
11/5/2020 2:45:00 AM 6.8 44.24 0.131 7.59 5.7 11.91
11/5/2020 3:00:00 AM 6.76 44.168 0.131 7.59 5.57 11.92
11/5/2020 3:15:00 AM 6.72 44.096 0.131 7.59 5.82 11.93
11/5/2020 3:30:00 AM 6.68 44.024 0.131 7.56 5.93 11.94
11/5/2020 3:45:00 AM 6.64 43.952 0.131 7.56 5.57 11.95
11/5/2020 4:00:00 AM 6.61 43.898 0.131 7.57 5.6 11.97
11/5/2020 4:15:00 AM 6.57 43.826 0.131 7.56 5.53 11.98
11/5/2020 4:30:00 AM 6.54 43.772 0.131 7.59 5.66 11.99
11/5/2020 4:45:00 AM 6.5 43.7 0.131 7.57 5.65 12.02
11/5/2020 5:00:00 AM 6.47 43.646 0.131 7.57 5.62 12.03
11/5/2020 5:15:00 AM 6.44 43.592 0.131 7.59 5.56 12.03
11/5/2020 5:30:00 AM 6.41 43.538 0.131 7.61 5.59 12.05
11/5/2020 5:45:00 AM 6.38 43.484 0.131 7.57 5.5 12.05
11/5/2020 6:00:00 AM 6.35 43.43 0.131 7.6 5.55 12.06
11/5/2020 6:15:00 AM 6.33 43.394 0.131 7.58 5.74 12.06
11/5/2020 6:30:00 AM 6.3 43.34 0.131 7.6 5.64 12.08
11/5/2020 6:45:00 AM 6.27 43.286 0.131 7.59 5.49 12.1
11/5/2020 7:00:00 AM 6.24 43.232 0.131 7.54 5.54 12.1
11/5/2020 7:15:00 AM 6.21 43.178 0.131 7.55 5.52 12.13
11/5/2020 7:30:00 AM 6.2 43.16 0.131 7.57 5.49 12.16
11/5/2020 7:45:00 AM 6.19 43.142 0.131 7.57 5.52 12.24
11/5/2020 8:00:00 AM 6.21 43.178 0.131 7.57 5.63 12.32
11/5/2020 8:15:00 AM 6.25 43.25 0.131 7.61 5.51 12.39
11/5/2020 8:30:00 AM 6.28 43.304 0.13 7.64 5.53 12.47
11/5/2020 8:45:00 AM 6.32 43.376 0.13 7.62 5.51 12.52
11/5/2020 9:00:00 AM 6.37 43.466 0.13 7.64 5.54 12.55
11/5/2020 9:15:00 AM 6.44 43.592 0.13 7.65 5.58 12.6
11/5/2020 9:30:00 AM 6.57 43.826 0.13 7.66 5.42 12.63
11/5/2020 9:45:00 AM 6.7 44.06 0.13 7.66 5.53 12.66
11/5/2020 10:00:00 AM 6.81 44.258 0.13 7.72 5.71 12.66
11/5/2020 10:15:00 AM 6.91 44.438 0.129 7.67 5.48 12.69
11/5/2020 10:30:00 AM 7.02 44.636 0.129 7.69 5.51 12.68
11/5/2020 10:45:00 AM 7.17 44.906 0.129 7.7 5.48 12.68
11/5/2020 11:00:00 AM 7.36 45.248 0.129 7.74 5.43 12.66
11/5/2020 11:15:00 AM 7.6 45.68 0.129 7.71 5.49 12.65
11/5/2020 11:30:00 AM 7.83 46.094 0.129 7.76 5.54 12.61
11/5/2020 11:45:00 AM 8.04 46.472 0.129 7.77 5.44 12.58
11/5/2020 12:00:00 PM 8.23 46.814 0.129 7.75 5.43 12.53
11/5/2020 12:15:00 PM 8.39 47.102 0.129 7.78 5.45 12.49
11/5/2020 12:30:00 PM 8.52 47.336 0.129 7.75 5.49 12.45
11/5/2020 12:45:00 PM 8.66 47.588 0.129 7.77 5.58 12.41
11/5/2020 1:00:00 PM 8.79 47.822 0.128 7.76 5.52 12.36
11/5/2020 1:15:00 PM 8.94 48.092 0.128 7.8 5.46 12.32
11/5/2020 1:30:00 PM 9.11 48.398 0.128 7.81 5.54 12.27
11/5/2020 1:45:00 PM 9.25 48.65 0.128 7.77 5.44 12.23
11/5/2020 2:00:00 PM 9.36 48.848 0.128 7.8 5.52 12.17
11/5/2020 2:15:00 PM 9.47 49.046 0.128 7.78 5.45 12.12
11/5/2020 2:30:00 PM 9.58 49.244 0.128 7.78 5.43 12.08
11/5/2020 2:45:00 PM 9.63 49.334 0.128 7.76 5.5 12.01
11/5/2020 3:00:00 PM 9.68 49.424 0.128 7.75 5.57 11.95
11/5/2020 3:15:00 PM 9.71 49.478 0.128 7.75 5.49 11.86
11/5/2020 3:30:00 PM 9.73 49.514 0.128 7.74 5.58 11.78
11/5/2020 3:45:00 PM 9.73 49.514 0.128 7.72 5.62 11.72
11/5/2020 4:00:00 PM 9.72 49.496 0.128 7.71 5.61 11.66
11/5/2020 4:15:00 PM 9.7 49.46 0.128 7.75 6.34 11.58
11/5/2020 4:30:00 PM 9.66 49.388 0.128 7.68 5.79 11.54
11/5/2020 4:45:00 PM 9.62 49.316 0.129 7.69 5.93 11.5
11/5/2020 5:00:00 PM 9.56 49.208 0.129 7.68 6 11.44
11/5/2020 5:15:00 PM 9.49 49.082 0.129 7.65 5.8 11.4
11/5/2020 5:30:00 PM 9.42 48.956 0.129 7.68 5.66 11.36
11/5/2020 5:45:00 PM 9.34 48.812 0.129 7.63 5.81 11.33
11/5/2020 6:00:00 PM 9.26 48.668 0.129 7.61 5.72 11.32
11/5/2020 6:15:00 PM 9.18 48.524 0.129 7.65 5.61 11.31
11/5/2020 6:30:00 PM 9.09 48.362 0.129 7.6 5.65 11.31
11/5/2020 6:45:00 PM 9.01 48.218 0.129 7.64 5.62 11.32
11/5/2020 7:00:00 PM 8.93 48.074 0.129 7.64 5.83 11.31
11/5/2020 7:15:00 PM 8.86 47.948 0.129 7.59 5.6 11.32
11/5/2020 7:30:00 PM 8.78 47.804 0.129 7.62 5.65 11.33
11/5/2020 7:45:00 PM 8.71 47.678 0.129 7.59 5.71 11.35
11/5/2020 8:00:00 PM 8.63 47.534 0.129 7.58 5.67 11.37
11/5/2020 8:15:00 PM 8.57 47.426 0.129 7.62 5.62 11.38
11/5/2020 8:30:00 PM 8.51 47.318 0.129 7.57 5.65 11.39
11/5/2020 8:45:00 PM 8.45 47.21 0.129 7.61 5.74 11.4
11/5/2020 9:00:00 PM 8.4 47.12 0.129 7.56 5.66 11.42
11/5/2020 9:15:00 PM 8.36 47.048 0.129 7.57 5.81 11.44
11/5/2020 9:30:00 PM 8.32 46.976 0.13 7.57 5.72 11.44
11/5/2020 9:45:00 PM 8.28 46.904 0.13 7.57 5.59 11.44
11/5/2020 10:00:00 PM 8.24 46.832 0.129 7.56 5.8 11.45
11/5/2020 10:15:00 PM 8.22 46.796 0.129 7.58 5.61 11.47
11/5/2020 10:30:00 PM 8.19 46.742 0.13 7.56 5.58 11.46
11/5/2020 10:45:00 PM 8.17 46.706 0.13 7.59 5.73 11.48
11/5/2020 11:00:00 PM 8.15 46.67 0.13 7.54 5.8 11.5
11/5/2020 11:15:00 PM 8.14 46.652 0.129 7.55 5.77 11.48
11/5/2020 11:30:00 PM 8.14 46.652 0.129 7.56 5.61 11.48
11/5/2020 11:45:00 PM 8.12 46.616 0.13 7.57 5.66 11.49
11/6/2020 12:00:00 AM 8.11 46.598 0.129 7.57 5.64 11.48
11/6/2020 12:15:00 AM 8.09 46.562 0.129 7.56 5.67 11.5
11/6/2020 12:30:00 AM 8.07 46.526 0.129 7.54 5.79 11.49
11/6/2020 12:45:00 AM 8.06 46.508 0.13 7.56 5.75 11.5
11/6/2020 1:00:00 AM 8.04 46.472 0.129 7.6 5.84 11.5
11/6/2020 1:15:00 AM 8.03 46.454 0.129 7.6 5.65 11.51
11/6/2020 1:30:00 AM 8.02 46.436 0.13 7.55 5.65 11.52
11/6/2020 1:45:00 AM 8.01 46.418 0.131 7.54 5.66 11.51
11/6/2020 2:00:00 AM 7.99 46.382 0.13 7.58 6.03 11.52
11/6/2020 2:15:00 AM 7.99 46.382 0.13 7.55 5.93 11.52
11/6/2020 2:30:00 AM 7.97 46.346 0.13 7.55 5.8 11.52
11/6/2020 2:45:00 AM 7.94 46.292 0.13 7.58 5.68 11.52
11/6/2020 3:00:00 AM 7.91 46.238 0.129 7.54 5.66 11.53
11/6/2020 3:15:00 AM 7.87 46.166 0.13 7.55 5.75 11.54
11/6/2020 3:30:00 AM 7.83 46.094 0.129 7.54 5.79 11.55
11/6/2020 3:45:00 AM 7.79 46.022 0.13 7.54 5.76 11.55
11/6/2020 4:00:00 AM 7.74 45.932 0.13 7.55 5.71 11.57
11/6/2020 4:15:00 AM 7.69 45.842 0.129 7.56 6.09 11.58
11/6/2020 4:30:00 AM 7.64 45.752 0.13 7.54 5.65 11.59
11/6/2020 4:45:00 AM 7.6 45.68 0.13 7.54 5.76 11.61
11/6/2020 5:00:00 AM 7.55 45.59 0.129 7.54 5.83 11.63
11/6/2020 5:15:00 AM 7.49 45.482 0.13 7.54 5.63 11.62
11/6/2020 5:30:00 AM 7.44 45.392 0.13 7.58 5.6 11.66
11/6/2020 5:45:00 AM 7.4 45.32 0.13 7.59 5.88 11.67
11/6/2020 6:00:00 AM 7.34 45.212 0.13 7.57 5.59 11.68
11/6/2020 6:15:00 AM 7.29 45.122 0.13 7.59 5.6 11.7
11/6/2020 6:30:00 AM 7.24 45.032 0.129 7.55 5.56 11.71
11/6/2020 6:45:00 AM 7.19 44.942 0.13 7.58 5.59 11.73
11/6/2020 7:00:00 AM 7.14 44.852 0.13 7.58 5.51 11.74
11/6/2020 7:15:00 AM 7.1 44.78 0.13 7.59 5.51 11.77
11/6/2020 7:30:00 AM 7.06 44.708 0.131 7.57 5.55 11.83
11/6/2020 7:45:00 AM 7.03 44.654 0.13 7.61 5.52 11.89
11/6/2020 8:00:00 AM 7.01 44.618 0.13 7.58 5.59 11.97
11/6/2020 8:15:00 AM 7.01 44.618 0.13 7.58 5.52 12.06
11/6/2020 8:30:00 AM 7.02 44.636 0.13 7.59 5.69 12.12
11/6/2020 8:45:00 AM 7.03 44.654 0.129 7.63 5.55 12.18
11/6/2020 9:00:00 AM 7.07 44.726 0.129 7.61 5.54 12.22
11/6/2020 9:15:00 AM 7.12 44.816 0.129 7.62 5.58 12.27
11/6/2020 9:30:00 AM 7.22 44.996 0.129 7.62 5.68 12.27
11/6/2020 9:45:00 AM 7.36 45.248 0.129 7.67 5.54 12.36
11/6/2020 10:00:00 AM 7.52 45.536 0.129 7.64 5.54 12.39
11/6/2020 10:15:00 AM 7.67 45.806 0.129 7.62 5.51 12.38
11/6/2020 10:30:00 AM 7.82 46.076 0.129 7.7 5.48 12.38
11/6/2020 10:45:00 AM 8 46.4 0.128 7.69 5.55 12.38
11/6/2020 11:00:00 AM 8.18 46.724 0.128 7.72 5.55 12.34
11/6/2020 11:15:00 AM 8.34 47.012 0.128 7.7 5.59 12.32
11/6/2020 11:30:00 AM 8.48 47.264 0.128 7.69 5.53 12.28
11/6/2020 11:45:00 AM 8.61 47.498 0.128 7.73 5.55 12.26
11/6/2020 12:00:00 PM 8.72 47.696 0.128 7.72 5.43 12.23
11/6/2020 12:15:00 PM 8.83 47.894 0.128 7.72 5.53 12.19
11/6/2020 12:30:00 PM 8.95 48.11 0.128 7.72 5.57 12.14
11/6/2020 12:45:00 PM 9.1 48.38 0.128 7.74 5.7 12.08
11/6/2020 1:00:00 PM 9.26 48.668 0.128 7.72 5.67 12.03
11/6/2020 1:15:00 PM 9.39 48.902 0.127 7.71 5.78 11.97
11/6/2020 1:30:00 PM 9.53 49.154 0.128 7.71 5.66 11.91
11/6/2020 1:45:00 PM 9.67 49.406 0.127 7.72 5.6 11.84
11/6/2020 2:00:00 PM 9.81 49.658 0.128 7.72 5.57 11.78
11/6/2020 2:15:00 PM 9.93 49.874 0.127 7.72 5.63 11.71
11/6/2020 2:30:00 PM 10.04 50.072 0.128 7.75 5.69 11.66
11/6/2020 2:45:00 PM 10.15 50.27 0.128 7.71 5.57 11.59
11/6/2020 3:00:00 PM 10.24 50.432 0.127 7.7 5.65 11.55
11/6/2020 3:15:00 PM 10.29 50.522 0.127 7.67 5.69 11.47
11/6/2020 3:30:00 PM 10.33 50.594 0.127 7.71 5.54 11.41
11/6/2020 3:45:00 PM 10.36 50.648 0.127 7.67 5.67 11.39
11/6/2020 4:00:00 PM 10.37 50.666 0.129 7.52 5.66 11.33
11/6/2020 4:15:00 PM 10.37 50.666 0.127 7.7 5.72 11.32
11/6/2020 4:30:00 PM 10.35 50.63 0.129 7.7 5.76 11.26
11/6/2020 4:45:00 PM 10.32 50.576 0.128 7.63 5.68 11.23
11/6/2020 5:00:00 PM 10.27 50.486 0.128 7.68 5.68 11.18
11/6/2020 5:15:00 PM 10.21 50.378 0.128 7.61 5.77 11.15
11/6/2020 5:30:00 PM 10.13 50.234 0.128 7.59 5.99 11.1
11/6/2020 5:45:00 PM 10.04 50.072 0.128 7.59 5.64 11.09
11/6/2020 6:00:00 PM 9.96 49.928 0.128 7.59 6.06 11.04
11/6/2020 6:15:00 PM 9.87 49.766 0.128 7.58 6.13 11.07
11/6/2020 6:30:00 PM 9.77 49.586 0.128 7.64 6.1 11.08
11/6/2020 6:45:00 PM 9.67 49.406 0.128 7.59 5.98 11.08
11/6/2020 7:00:00 PM 9.57 49.226 0.128 7.58 5.97 11.1
11/6/2020 7:15:00 PM 9.48 49.064 0.129 7.58 6.04 11.08
11/6/2020 7:30:00 PM 9.38 48.884 0.129 7.57 6.13 11.1
11/6/2020 7:45:00 PM 9.28 48.704 0.128 7.55 6.05 11.13
11/6/2020 8:00:00 PM 9.18 48.524 0.129 7.56 5.93 11.14
11/6/2020 8:15:00 PM 9.08 48.344 0.129 7.6 5.91 11.17
11/6/2020 8:30:00 PM 8.99 48.182 0.129 7.56 5.78 11.2
11/6/2020 8:45:00 PM 8.9 48.02 0.128 7.58 6.33 11.2
11/6/2020 9:00:00 PM 8.82 47.876 0.129 7.59 6.28 11.2
11/6/2020 9:15:00 PM 8.73 47.714 0.129 7.59 6.34 11.25
11/6/2020 9:30:00 PM 8.65 47.57 0.128 7.58 5.71 11.29
11/6/2020 9:45:00 PM 8.58 47.444 0.129 7.55 5.89 11.29
11/6/2020 10:00:00 PM 8.5 47.3 0.128 7.58 5.92 11.31
11/6/2020 10:15:00 PM 8.43 47.174 0.128 7.58 5.73 11.34
11/6/2020 10:30:00 PM 8.36 47.048 0.128 7.53 5.54 11.35
11/6/2020 10:45:00 PM 8.29 46.922 0.129 7.55 5.71 11.39
11/6/2020 11:00:00 PM 8.23 46.814 0.129 7.56 6.07 11.39
11/6/2020 11:15:00 PM 8.16 46.688 0.128 7.55 5.76 11.41
11/6/2020 11:30:00 PM 8.1 46.58 0.128 7.55 6.08 11.42
11/6/2020 11:45:00 PM 8.04 46.472 0.128 7.54 10.67 11.41
11/7/2020 12:00:00 AM 7.98 46.364 0.128 7.54 5.92 11.46
11/7/2020 12:15:00 AM 7.93 46.274 0.128 7.54 5.87 11.46
11/7/2020 12:30:00 AM 7.87 46.166 0.129 7.55 5.5 11.49
11/7/2020 12:45:00 AM 7.82 46.076 0.129 7.56 5.55 11.5
11/7/2020 1:00:00 AM 7.76 45.968 0.129 7.54 5.67 11.52
11/7/2020 1:15:00 AM 7.71 45.878 0.129 7.58 5.7 11.54
11/7/2020 1:30:00 AM 7.66 45.788 0.128 7.55 5.67 11.55
11/7/2020 1:45:00 AM 7.61 45.698 0.129 7.54 5.76 11.55
11/7/2020 2:00:00 AM 7.56 45.608 0.128 7.54 5.65 11.57
11/7/2020 2:15:00 AM 7.51 45.518 0.128 7.55 5.52 11.59
11/7/2020 2:30:00 AM 7.46 45.428 0.128 7.54 5.61 11.62
11/7/2020 2:45:00 AM 7.41 45.338 0.128 7.58 5.5 11.61
11/7/2020 3:00:00 AM 7.37 45.266 0.129 7.35 5.58 11.64
11/7/2020 3:15:00 AM 7.32 45.176 0.129 7.54 5.48 11.67
11/7/2020 3:30:00 AM 7.27 45.086 0.129 7.54 5.41 11.68
11/7/2020 3:45:00 AM 7.23 45.014 0.129 7.54 5.46 11.71
11/7/2020 4:00:00 AM 7.19 44.942 0.129 7.54 5.51 11.71
11/7/2020 4:15:00 AM 7.14 44.852 0.129 7.55 5.5 11.73
11/7/2020 4:30:00 AM 7.1 44.78 0.129 7.52 5.39 11.74
11/7/2020 4:45:00 AM 7.06 44.708 0.129 7.55 5.44 11.76
11/7/2020 5:00:00 AM 7.02 44.636 0.129 7.53 5.48 11.77
11/7/2020 5:15:00 AM 6.98 44.564 0.129 7.56 5.49 11.78
11/7/2020 5:30:00 AM 6.94 44.492 0.128 7.56 5.52 11.8
11/7/2020 5:45:00 AM 6.91 44.438 0.129 7.54 5.76 11.81
11/7/2020 6:00:00 AM 6.87 44.366 0.129 7.55 5.81 11.81
11/7/2020 6:15:00 AM 6.83 44.294 0.129 7.54 5.69 11.84
11/7/2020 6:30:00 AM 6.8 44.24 0.129 7.54 5.74 11.83
11/7/2020 6:45:00 AM 6.76 44.168 0.129 7.55 5.97 11.85
11/7/2020 7:00:00 AM 6.73 44.114 0.128 7.54 5.82 11.87
11/7/2020 7:15:00 AM 6.7 44.06 0.129 7.59 5.86 11.91
11/7/2020 7:30:00 AM 6.69 44.042 0.129 7.51 5.71 11.96
11/7/2020 7:45:00 AM 6.67 44.006 0.129 7.55 5.86 12.04
11/7/2020 8:00:00 AM 6.66 43.988 0.128 7.56 5.83 12.11
11/7/2020 8:15:00 AM 6.67 44.006 0.129 7.57 5.58 12.15
11/7/2020 8:30:00 AM 6.67 44.006 0.128 7.63 5.55 12.22
11/7/2020 8:45:00 AM 6.68 44.024 0.129 7.63 5.52 12.29
11/7/2020 9:00:00 AM 6.72 44.096 0.129 7.61 5.92 12.34
11/7/2020 9:15:00 AM 6.78 44.204 0.128 7.66 6.02 12.39
11/7/2020 9:30:00 AM 6.87 44.366 0.128 7.62 5.79 12.43
11/7/2020 9:45:00 AM 7 44.6 0.128 7.68 5.46 12.49
11/7/2020 10:00:00 AM 7.16 44.888 0.128 7.65 5.22 12.5
11/7/2020 10:15:00 AM 7.32 45.176 0.128 7.66 5.3 12.5
11/7/2020 10:30:00 AM 7.46 45.428 0.128 7.66 5.36 12.5
11/7/2020 10:45:00 AM 7.61 45.698 0.127 7.66 5.54 12.49
11/7/2020 11:00:00 AM 7.76 45.968 0.127 7.67 5.66 12.47
11/7/2020 11:15:00 AM 7.95 46.31 0.128 7.69 5.93 12.45
11/7/2020 11:30:00 AM 8.1 46.58 0.127 7.68 5.78 12.4
11/7/2020 11:45:00 AM 8.25 46.85 0.127 7.68 5.67 12.37
11/7/2020 12:00:00 PM 8.38 47.084 0.127 7.73 5.65 12.35
11/7/2020 12:15:00 PM 8.51 47.318 0.127 7.71 5.55 12.32
11/7/2020 12:30:00 PM 8.64 47.552 0.127 7.74 5.6 12.28
11/7/2020 12:45:00 PM 8.76 47.768 0.127 7.71 5.61 12.23
11/7/2020 1:00:00 PM 8.94 48.092 0.127 7.69 5.57 12.16
11/7/2020 1:15:00 PM 9.08 48.344 0.127 7.7 5.45 12.11
11/7/2020 1:30:00 PM 9.23 48.614 0.127 7.75 5.4 12.06
11/7/2020 1:45:00 PM 9.4 48.92 0.126 7.75 5.79 11.99
11/7/2020 2:00:00 PM 9.58 49.244 0.126 7.73 5.87 11.95
11/7/2020 2:15:00 PM 9.72 49.496 0.127 7.73 5.81 11.9
11/7/2020 2:30:00 PM 9.86 49.748 0.127 7.76 5.8 11.87
11/7/2020 2:45:00 PM 9.98 49.964 0.126 7.75 5.68 11.83
11/7/2020 3:00:00 PM 10.1 50.18 0.126 7.72 5.59 11.8
11/7/2020 3:15:00 PM 10.18 50.324 0.126 7.77 6.09 11.73
11/7/2020 3:30:00 PM 10.27 50.486 0.126 7.75 5.8 11.69
11/7/2020 3:45:00 PM 10.32 50.576 0.126 7.75 5.85 11.64
11/7/2020 4:00:00 PM 10.35 50.63 0.126 7.7 5.91 11.59
11/7/2020 4:15:00 PM 10.37 50.666 0.126 7.71 5.35 11.53
11/7/2020 4:30:00 PM 10.38 50.684 0.126 7.74 5.54 11.48
11/7/2020 4:45:00 PM 10.36 50.648 0.126 7.71 5.28 11.38
11/7/2020 5:00:00 PM 10.34 50.612 0.126 7.67 5.19 11.32
11/7/2020 5:15:00 PM 10.29 50.522 0.127 7.68 5.24 11.26
11/7/2020 5:30:00 PM 10.23 50.414 0.127 7.64 5.45 11.18
11/7/2020 5:45:00 PM 10.16 50.288 0.127 7.63 5.83 11.14
11/7/2020 6:00:00 PM 10.09 50.162 0.127 7.65 5.67 11.1
11/7/2020 6:15:00 PM 9.99 49.982 0.127 7.62 6.12 11.08
11/7/2020 6:30:00 PM 9.91 49.838 0.127 7.64 5.71 11.08
11/7/2020 6:45:00 PM 9.82 49.676 0.127 7.6 6.1 11.06
11/7/2020 7:00:00 PM 9.72 49.496 0.127 7.61 6.77 11.08
11/7/2020 7:15:00 PM 9.62 49.316 0.128 7.58 5.56 11.08
11/7/2020 7:30:00 PM 9.52 49.136 0.127 7.58 5.56 11.1
11/7/2020 7:45:00 PM 9.42 48.956 0.127 7.58 5.68 11.12
11/7/2020 8:00:00 PM 9.32 48.776 0.127 7.57 5.89 11.13
11/7/2020 8:15:00 PM 9.22 48.596 0.127 7.57 5.94 11.12
11/7/2020 8:30:00 PM 9.11 48.398 0.128 7.58 5.86 11.18
11/7/2020 8:45:00 PM 9.02 48.236 0.128 7.58 6.23 11.18
11/7/2020 9:00:00 PM 8.92 48.056 0.128 7.59 5.68 11.24
11/7/2020 9:15:00 PM 8.82 47.876 0.128 7.6 5.9 11.26
11/7/2020 9:30:00 PM 8.73 47.714 0.127 7.55 5.69 11.27
11/7/2020 9:45:00 PM 8.64 47.552 0.128 7.58 5.66 11.3
11/7/2020 10:00:00 PM 8.55 47.39 0.128 7.59 5.69 11.34
11/7/2020 10:15:00 PM 8.47 47.246 0.128 7.56 5.91 11.34
11/7/2020 10:30:00 PM 8.39 47.102 0.127 7.56 6 11.26
11/7/2020 10:45:00 PM 8.31 46.958 0.128 7.56 5.96 11.28
11/7/2020 11:00:00 PM 8.23 46.814 0.128 7.54 6.11 11.41
11/7/2020 11:15:00 PM 8.15 46.67 0.128 7.53 6.05 11.43
11/7/2020 11:30:00 PM 8.08 46.544 0.127 7.55 5.57 11.45
11/7/2020 11:45:00 PM 8 46.4 0.128 7.53 7.91 11.47
11/8/2020 12:00:00 AM 7.93 46.274 0.128 7.55 5.59 11.5
11/8/2020 12:15:00 AM 7.86 46.148 0.128 7.55 5.82 11.53
11/8/2020 12:30:00 AM 7.8 46.04 0.128 7.56 5.49 11.54
11/8/2020 12:45:00 AM 7.73 45.914 0.128 7.54 5.52 11.55
11/8/2020 1:00:00 AM 7.66 45.788 0.128 7.59 5.64 11.58
11/8/2020 1:15:00 AM 7.6 45.68 0.128 7.56 5.58 11.6
11/8/2020 1:30:00 AM 7.54 45.572 0.128 7.55 5.64 11.6
11/8/2020 1:45:00 AM 7.48 45.464 0.128 7.54 5.61 11.63
11/8/2020 2:00:00 AM 7.43 45.374 0.128 7.52 5.87 11.65
11/8/2020 2:15:00 AM 7.36 45.248 0.128 7.55 5.7 11.67
11/8/2020 2:30:00 AM 7.31 45.158 0.128 7.54 5.6 11.69
11/8/2020 2:45:00 AM 7.27 45.086 0.128 7.53 5.65 11.71
11/8/2020 3:00:00 AM 7.21 44.978 0.128 7.58 5.59 11.71
11/8/2020 3:15:00 AM 7.15 44.87 0.128 7.54 5.78 11.74
11/8/2020 3:30:00 AM 7.11 44.798 0.128 7.58 5.56 11.75
11/8/2020 3:45:00 AM 7.05 44.69 0.127 7.54 5.62 11.76
11/8/2020 4:00:00 AM 7.01 44.618 0.128 7.55 5.92 11.77
11/8/2020 4:15:00 AM 6.96 44.528 0.128 7.55 5.74 11.8
11/8/2020 4:30:00 AM 6.91 44.438 0.128 7.58 5.59 11.8
11/8/2020 4:45:00 AM 6.86 44.348 0.128 7.57 5.65 11.83
11/8/2020 5:00:00 AM 6.83 44.294 0.128 7.59 5.82 11.83
11/8/2020 5:15:00 AM 6.79 44.222 0.128 7.53 6 11.85
11/8/2020 5:30:00 AM 6.75 44.15 0.128 7.58 5.86 11.87
11/8/2020 5:45:00 AM 6.7 44.06 0.128 7.57 5.81 11.89
11/8/2020 6:00:00 AM 6.66 43.988 0.128 7.53 5.74 11.9
11/8/2020 6:15:00 AM 6.62 43.916 0.128 7.55 5.76 11.92
11/8/2020 6:30:00 AM 6.58 43.844 0.128 7.56 5.7 11.92
11/8/2020 6:45:00 AM 6.53 43.754 0.128 7.57 5.69 11.94
11/8/2020 7:00:00 AM 6.5 43.7 0.128 7.53 5.7 11.94
11/8/2020 7:15:00 AM 6.46 43.628 0.128 7.54 5.66 11.99
11/8/2020 7:30:00 AM 6.44 43.592 0.128 7.53 5.6 12.03
11/8/2020 7:45:00 AM 6.41 43.538 0.128 7.58 5.67 12.09
11/8/2020 8:00:00 AM 6.39 43.502 0.128 7.55 5.66 12.18
11/8/2020 8:15:00 AM 6.4 43.52 0.128 7.62 5.67 12.24
11/8/2020 8:30:00 AM 6.4 43.52 0.127 7.63 5.86 12.31
11/8/2020 8:45:00 AM 6.42 43.556 0.127 7.62 5.57 12.37
11/8/2020 9:00:00 AM 6.44 43.592 0.127 7.59 5.48 12.42
11/8/2020 9:15:00 AM 6.49 43.682 0.127 7.6 5.45 12.48
11/8/2020 9:30:00 AM 6.57 43.826 0.127 7.62 5.43 12.53
11/8/2020 9:45:00 AM 6.7 44.06 0.127 7.63 5.5 12.57
11/8/2020 10:00:00 AM 6.85 44.33 0.127 7.68 5.48 12.59
11/8/2020 10:15:00 AM 7.02 44.636 0.127 7.64 5.45 12.62
11/8/2020 10:30:00 AM 7.17 44.906 0.127 7.65 5.61 12.61
11/8/2020 10:45:00 AM 7.31 45.158 0.126 7.7 5.57 12.6
11/8/2020 11:00:00 AM 7.47 45.446 0.127 7.66 5.56 12.55
11/8/2020 11:15:00 AM 7.62 45.716 0.126 7.67 5.49 12.53
11/8/2020 11:30:00 AM 7.76 45.968 0.126 7.66 5.36 12.52
11/8/2020 11:45:00 AM 7.9 46.22 0.126 7.69 5.55 12.51
11/8/2020 12:00:00 PM 8.01 46.418 0.126 7.72 5.44 12.49
11/8/2020 12:15:00 PM 8.14 46.652 0.126 7.67 5.45 12.44
11/8/2020 12:30:00 PM 8.25 46.85 0.126 7.7 5.39 12.41
11/8/2020 12:45:00 PM 8.38 47.084 0.126 7.67 5.4 12.29
11/8/2020 1:00:00 PM 8.51 47.318 0.126 7.69 5.42 12.31
11/8/2020 1:15:00 PM 8.65 47.57 0.126 7.74 5.38 12.23
11/8/2020 1:30:00 PM 8.8 47.84 0.126 7.71 5.48 12.18
11/8/2020 1:45:00 PM 8.95 48.11 0.126 7.72 5.4 12.12
11/8/2020 2:00:00 PM 9.1 48.38 0.125 7.7 5.47 12.06
11/8/2020 2:15:00 PM 9.25 48.65 0.125 7.74 5.38 11.97
11/8/2020 2:30:00 PM 9.38 48.884 0.126 7.71 5.33 11.89
11/8/2020 2:45:00 PM 9.49 49.082 0.125 7.68 5.44 11.83
11/8/2020 3:00:00 PM 9.59 49.262 0.125 7.7 5.45 11.78
11/8/2020 3:15:00 PM 9.68 49.424 0.126 7.69 5.41 11.71
11/8/2020 3:30:00 PM 9.75 49.55 0.126 7.68 5.41 11.66
11/8/2020 3:45:00 PM 9.81 49.658 0.126 7.72 5.4 11.6
11/8/2020 4:00:00 PM 9.85 49.73 0.126 7.68 5.45 11.56
11/8/2020 4:15:00 PM 9.87 49.766 0.125 7.67 5.43 11.5
11/8/2020 4:30:00 PM 9.87 49.766 0.126 7.66 5.48 11.47
11/8/2020 4:45:00 PM 9.85 49.73 0.125 7.66 5.91 11.41
11/8/2020 5:00:00 PM 9.83 49.694 0.125 7.64 5.61 11.38
11/8/2020 5:15:00 PM 9.79 49.622 0.126 7.65 5.66 11.32
11/8/2020 5:30:00 PM 9.73 49.514 0.126 7.63 5.44 11.27
11/8/2020 5:45:00 PM 9.67 49.406 0.126 7.62 5.88 11.19
11/8/2020 6:00:00 PM 9.61 49.298 0.126 7.63 5.65 11.17
11/8/2020 6:15:00 PM 9.53 49.154 0.126 7.6 5.61 11.2
11/8/2020 6:30:00 PM 9.45 49.01 0.126 7.53 5.9 11.18
11/8/2020 6:45:00 PM 9.37 48.866 0.126 7.58 5.55 11.21
11/8/2020 7:00:00 PM 9.29 48.722 0.126 7.56 5.71 11.19
11/8/2020 7:15:00 PM 9.2 48.56 0.126 7.52 7.37 11.19
11/8/2020 7:30:00 PM 9.11 48.398 0.127 7.57 6.07 11.21
11/8/2020 7:45:00 PM 9.01 48.218 0.127 7.58 5.61 11.24
11/8/2020 8:00:00 PM 8.93 48.074 0.127 7.58 5.73 11.26
11/8/2020 8:15:00 PM 8.84 47.912 0.128 7.58 5.64 11.27
11/8/2020 8:30:00 PM 8.75 47.75 0.127 7.57 5.71 11.3
11/8/2020 8:45:00 PM 8.65 47.57 0.127 7.56 5.54 11.31
11/8/2020 9:00:00 PM 8.57 47.426 0.127 7.59 5.57 11.34
11/8/2020 9:15:00 PM 8.48 47.264 0.127 7.55 5.72 11.36
11/8/2020 9:30:00 PM 8.39 47.102 0.127 7.54 7.06 11.38
11/8/2020 9:45:00 PM 8.31 46.958 0.127 7.59 5.81 11.4
11/8/2020 10:00:00 PM 8.23 46.814 0.127 7.56 5.64 11.42
11/8/2020 10:15:00 PM 8.15 46.67 0.127 7.58 5.7 11.44
11/8/2020 10:30:00 PM 8.08 46.544 0.127 7.55 5.72 11.48
11/8/2020 10:45:00 PM 8 46.4 0.127 7.55 5.65 11.5
11/8/2020 11:00:00 PM 7.93 46.274 0.127 7.54 5.61 11.51
11/8/2020 11:15:00 PM 7.86 46.148 0.127 7.54 5.63 11.53
11/8/2020 11:30:00 PM 7.8 46.04 0.127 7.58 7.39 11.53
11/8/2020 11:45:00 PM 7.73 45.914 0.127 7.57 5.83 11.55
11/9/2020 12:00:00 AM 7.66 45.788 0.127 7.54 9.66 11.59
11/9/2020 12:15:00 AM 7.6 45.68 0.127 7.55 5.82 11.62
11/9/2020 12:30:00 AM 7.54 45.572 0.127 7.53 5.73 11.63
11/9/2020 12:45:00 AM 7.48 45.464 0.127 7.55 6.34 11.65
11/9/2020 1:00:00 AM 7.43 45.374 0.127 7.54 5.65 11.67
11/9/2020 1:15:00 AM 7.37 45.266 0.127 7.56 5.67 11.69
11/9/2020 1:30:00 AM 7.31 45.158 0.127 7.57 5.65 11.7
11/9/2020 1:45:00 AM 7.26 45.068 0.127 7.58 5.83 11.7
11/9/2020 2:00:00 AM 7.21 44.978 0.127 7.54 6.25 11.71
11/9/2020 2:15:00 AM 7.16 44.888 0.127 7.57 5.62 11.74
11/9/2020 2:30:00 AM 7.11 44.798 0.127 7.54 5.59 11.77
11/9/2020 2:45:00 AM 7.07 44.726 0.127 7.49 5.81 11.76
11/9/2020 3:00:00 AM 7.03 44.654 0.127 7.58 5.69 11.79
11/9/2020 3:15:00 AM 6.97 44.546 0.127 7.53 5.57 11.81
11/9/2020 3:30:00 AM 6.93 44.474 0.127 7.55 5.61 11.82
11/9/2020 3:45:00 AM 6.88 44.384 0.127 7.57 5.62 11.83
11/9/2020 4:00:00 AM 6.84 44.312 0.128 7.54 5.74 11.85
11/9/2020 4:15:00 AM 6.8 44.24 0.127 7.56 6.01 11.85
11/9/2020 4:30:00 AM 6.76 44.168 0.127 7.55 6.01 11.86
11/9/2020 4:45:00 AM 6.72 44.096 0.127 7.55 5.74 11.88
11/9/2020 5:00:00 AM 6.68 44.024 0.127 7.54 5.7 11.89
11/9/2020 5:15:00 AM 6.64 43.952 0.127 7.55 5.68 11.91
11/9/2020 5:30:00 AM 6.6 43.88 0.127 7.55 5.76 11.92
11/9/2020 5:45:00 AM 6.57 43.826 0.127 7.55 5.77 11.93
11/9/2020 6:00:00 AM 6.54 43.772 0.127 7.54 5.68 11.94
11/9/2020 6:15:00 AM 6.5 43.7 0.127 7.54 5.73 11.95
11/9/2020 6:30:00 AM 6.47 43.646 0.127 7.55 5.7 11.96
11/9/2020 6:45:00 AM 6.43 43.574 0.127 7.57 5.76 11.96
11/9/2020 7:00:00 AM 6.4 43.52 0.127 7.53 5.74 11.99
11/9/2020 7:15:00 AM 6.38 43.484 0.127 7.58 5.83 12.01
11/9/2020 7:30:00 AM 6.34 43.412 0.127 7.54 5.68 12.07
11/9/2020 7:45:00 AM 6.32 43.376 0.127 7.57 5.61 12.11
11/9/2020 8:00:00 AM 6.32 43.376 0.127 7.57 5.61 12.17
11/9/2020 8:15:00 AM 6.31 43.358 0.127 7.56 5.64 12.26
11/9/2020 8:30:00 AM 6.32 43.376 0.127 7.61 5.62 12.35
11/9/2020 8:45:00 AM 6.34 43.412 0.127 7.59 5.66 12.4
11/9/2020 9:00:00 AM 6.37 43.466 0.127 7.59 5.67 12.44
11/9/2020 9:15:00 AM 6.41 43.538 0.127 7.65 5.6 12.48
11/9/2020 9:30:00 AM 6.5 43.7 0.126 7.61 5.69 12.54
11/9/2020 9:45:00 AM 6.64 43.952 0.126 7.62 5.58 12.59
11/9/2020 10:00:00 AM 6.8 44.24 0.126 7.64 5.59 12.62
11/9/2020 10:15:00 AM 6.96 44.528 0.126 7.64 5.65 12.62
11/9/2020 10:30:00 AM 7.1 44.78 0.126 7.68 5.68 12.62
11/9/2020 10:45:00 AM 7.27 45.086 0.126 7.69 5.79 12.57
11/9/2020 11:00:00 AM 7.44 45.392 0.126 7.68 5.71 12.59
11/9/2020 11:15:00 AM 7.58 45.644 0.125 7.68 5.7 12.57
11/9/2020 11:30:00 AM 7.73 45.914 0.126 7.67 5.65 12.53
11/9/2020 11:45:00 AM 7.86 46.148 0.125 7.69 5.73 12.48
11/9/2020 12:00:00 PM 7.98 46.364 0.125 7.73 5.67 12.49
11/9/2020 12:15:00 PM 8.11 46.598 0.125 7.69 5.68 12.46
11/9/2020 12:30:00 PM 8.22 46.796 0.125 7.67 5.69 12.41
11/9/2020 12:45:00 PM 8.33 46.994 0.125 7.68 5.64 12.38
11/9/2020 1:00:00 PM 8.46 47.228 0.125 7.72 5.69 12.33
11/9/2020 1:15:00 PM 8.6 47.48 0.125 7.68 5.62 12.27
11/9/2020 1:30:00 PM 8.75 47.75 0.124 7.68 5.68 12.2
11/9/2020 1:45:00 PM 8.89 48.002 0.125 7.69 5.76 12.13
11/9/2020 2:00:00 PM 9.04 48.272 0.125 7.67 5.68 12.07
11/9/2020 2:15:00 PM 9.18 48.524 0.125 7.7 5.68 11.98
11/9/2020 2:30:00 PM 9.32 48.776 0.124 7.68 5.78 11.91
11/9/2020 2:45:00 PM 9.41 48.938 0.125 7.73 5.72 11.84
11/9/2020 3:00:00 PM 9.51 49.118 0.125 7.67 5.76 11.78
11/9/2020 3:15:00 PM 9.6 49.28 0.125 7.67 5.74 11.71
11/9/2020 3:30:00 PM 9.67 49.406 0.124 7.7 5.72 11.65
11/9/2020 3:45:00 PM 9.72 49.496 0.125 7.69 5.7 11.59
11/9/2020 4:00:00 PM 9.76 49.568 0.125 7.68 5.82 11.53
11/9/2020 4:15:00 PM 9.78 49.604 0.125 7.64 5.92 11.49
11/9/2020 4:30:00 PM 9.78 49.604 0.125 7.65 5.78 11.45
11/9/2020 4:45:00 PM 9.77 49.586 0.125 7.63 6.03 11.41
11/9/2020 5:00:00 PM 9.75 49.55 0.125 7.63 5.83 11.35
11/9/2020 5:15:00 PM 9.71 49.478 0.125 7.6 5.92 11.29
11/9/2020 5:30:00 PM 9.66 49.388 0.125 7.61 5.91 11.25
11/9/2020 5:45:00 PM 9.61 49.298 0.125 7.64 6.25 11.14
11/9/2020 6:00:00 PM 9.55 49.19 0.125 7.59 5.93 11.09
11/9/2020 6:15:00 PM 9.48 49.064 0.125 7.6 6.8 11.14
11/9/2020 6:30:00 PM 9.4 48.92 0.125 7.58 5.98 11.13
11/9/2020 6:45:00 PM 9.33 48.794 0.125 7.45 5.9 11.16
11/9/2020 7:00:00 PM 9.26 48.668 0.125 7.6 5.87 11.15
11/9/2020 7:15:00 PM 9.17 48.506 0.126 7.55 6.11 11.16
11/9/2020 7:30:00 PM 9.09 48.362 0.126 7.58 5.93 11.15
11/9/2020 7:45:00 PM 9.02 48.236 0.126 7.55 6.19 11.18
11/9/2020 8:00:00 PM 8.93 48.074 0.126 7.57 5.71 11.17
11/9/2020 8:15:00 PM 8.85 47.93 0.126 7.57 5.95 11.21
11/9/2020 8:30:00 PM 8.76 47.768 0.126 7.55 5.67 11.24
11/9/2020 8:45:00 PM 8.67 47.606 0.126 7.56 5.77 11.22
11/9/2020 9:00:00 PM 8.6 47.48 0.126 7.59 5.78 11.26
11/9/2020 9:15:00 PM 8.52 47.336 0.126 7.59 5.75 11.29
11/9/2020 9:30:00 PM 8.44 47.192 0.126 7.51 5.7 11.31
11/9/2020 9:45:00 PM 8.36 47.048 0.126 7.58 5.89 11.34
11/9/2020 10:00:00 PM 8.28 46.904 0.126 7.55 6.01 11.35
11/9/2020 10:15:00 PM 8.22 46.796 0.126 7.58 6.09 11.38
11/9/2020 10:30:00 PM 8.14 46.652 0.126 7.58 5.89 11.39
11/9/2020 10:45:00 PM 8.07 46.526 0.126 7.55 6.13 11.4
11/9/2020 11:00:00 PM 8 46.4 0.126 7.55 6.22 11.43
11/9/2020 11:15:00 PM 7.95 46.31 0.126 7.54 5.8 11.45
11/9/2020 11:30:00 PM 7.88 46.184 0.126 7.57 5.8 11.45
11/9/2020 11:45:00 PM 7.82 46.076 0.126 7.54 5.83 11.49
11/10/2020 12:00:00 AM 7.76 45.968 0.126 7.55 5.74 11.5
11/10/2020 12:15:00 AM 7.71 45.878 0.126 7.53 6.35 11.51
11/10/2020 12:30:00 AM 7.66 45.788 0.126 7.58 5.81 11.53
11/10/2020 12:45:00 AM 7.61 45.698 0.126 7.55 6.24 11.53
11/10/2020 1:00:00 AM 7.56 45.608 0.126 7.53 6.08 11.55
11/10/2020 1:15:00 AM 7.51 45.518 0.126 7.54 6.19 11.57
11/10/2020 1:30:00 AM 7.46 45.428 0.126 7.53 5.9 11.58
11/10/2020 1:45:00 AM 7.42 45.356 0.126 7.57 5.88 11.59
11/10/2020 2:00:00 AM 7.37 45.266 0.126 7.55 5.8 11.59
11/10/2020 2:15:00 AM 7.33 45.194 0.126 7.54 5.89 11.62
11/10/2020 2:30:00 AM 7.29 45.122 0.126 7.55 5.86 11.63
11/10/2020 2:45:00 AM 7.25 45.05 0.126 7.53 5.71 11.65
11/10/2020 3:00:00 AM 7.22 44.996 0.126 7.53 5.96 11.66
11/10/2020 3:15:00 AM 7.18 44.924 0.126 7.53 5.72 11.65
11/10/2020 3:30:00 AM 7.14 44.852 0.126 7.54 5.86 11.67
11/10/2020 3:45:00 AM 7.11 44.798 0.126 7.56 5.76 11.69
11/10/2020 4:00:00 AM 7.07 44.726 0.126 7.56 5.7 11.68
11/10/2020 4:15:00 AM 7.04 44.672 0.126 7.57 5.75 11.69
11/10/2020 4:30:00 AM 7.01 44.618 0.126 7.53 5.79 11.71
11/10/2020 4:45:00 AM 6.97 44.546 0.126 7.54 5.86 11.7
11/10/2020 5:00:00 AM 6.94 44.492 0.126 7.52 5.69 11.73
11/10/2020 5:15:00 AM 6.91 44.438 0.126 7.57 5.73 11.73
11/10/2020 5:30:00 AM 6.89 44.402 0.126 7.52 5.66 11.75
11/10/2020 5:45:00 AM 6.85 44.33 0.126 7.56 5.75 11.76
11/10/2020 6:00:00 AM 6.82 44.276 0.126 7.54 5.71 11.76
11/10/2020 6:15:00 AM 6.79 44.222 0.126 7.47 5.71 11.78
11/10/2020 6:30:00 AM 6.77 44.186 0.126 7.53 5.59 11.78
11/10/2020 6:45:00 AM 6.75 44.15 0.126 7.52 5.67 11.79
11/10/2020 7:00:00 AM 6.75 44.15 0.126 7.53 5.57 11.79
11/10/2020 7:15:00 AM 6.75 44.15 0.126 7.54 5.6 11.81
11/10/2020 7:30:00 AM 6.75 44.15 0.126 7.53 5.63 11.85
11/10/2020 7:45:00 AM 6.77 44.186 0.126 7.58 5.7 11.89
11/10/2020 8:00:00 AM 6.79 44.222 0.126 7.56 5.59 11.98
11/10/2020 8:15:00 AM 6.83 44.294 0.126 7.59 5.6 12.05
11/10/2020 8:30:00 AM 6.86 44.348 0.126 7.57 5.61 12.15
11/10/2020 8:45:00 AM 6.91 44.438 0.126 7.57 5.55 12.25
11/10/2020 9:00:00 AM 6.98 44.564 0.125 7.62 5.54 12.31
11/10/2020 9:15:00 AM 7.04 44.672 0.125 7.6 5.6 12.38
11/10/2020 9:30:00 AM 7.11 44.798 0.125 7.58 5.52 12.39
11/10/2020 9:45:00 AM 7.23 45.014 0.125 7.63 5.6 12.43
11/10/2020 10:00:00 AM 7.37 45.266 0.125 7.64 5.51 12.43
11/10/2020 10:15:00 AM 7.54 45.572 0.125 7.64 5.66 12.42
11/10/2020 10:30:00 AM 7.7 45.86 0.125 7.67 5.63 12.42
11/10/2020 10:45:00 AM 7.87 46.166 0.125 7.65 5.66 12.42
11/10/2020 11:00:00 AM 8.1 46.58 0.125 7.68 5.61 12.4
11/10/2020 11:15:00 AM 8.35 47.03 0.124 7.67 5.63 12.36
11/10/2020 11:30:00 AM 8.56 47.408 0.124 7.68 5.58 12.32
11/10/2020 11:45:00 AM 8.76 47.768 0.124 7.69 5.61 12.28
11/10/2020 12:00:00 PM 8.89 48.002 0.124 7.7 5.53 12.25
11/10/2020 12:15:00 PM 9.03 48.254 0.124 7.7 5.84 12.22
11/10/2020 12:30:00 PM 9.18 48.524 0.124 7.72 5.56 12.11
11/10/2020 12:45:00 PM 9.29 48.722 0.124 7.51 5.6 12.12
11/10/2020 1:00:00 PM 9.43 48.974 0.124 7.73 5.59 12.04
11/10/2020 1:15:00 PM 9.51 49.118 0.124 7.75 5.71 12
11/10/2020 1:30:00 PM 9.65 49.37 0.124 7.71 5.57 11.94
11/10/2020 1:45:00 PM 9.82 49.676 0.124 7.72 5.54 11.87
11/10/2020 2:00:00 PM 9.97 49.946 0.124 7.71 5.89 11.74
11/10/2020 2:15:00 PM 10.11 50.198 0.124 7.74 5.67 11.69
11/10/2020 2:30:00 PM 10.25 50.45 0.124 7.68 5.75 11.53
11/10/2020 2:45:00 PM 10.34 50.612 0.124 7.73 5.75 11.57
11/10/2020 3:00:00 PM 10.43 50.774 0.124 7.69 5.65 11.5
11/10/2020 3:15:00 PM 10.49 50.882 0.124 7.65 5.6 11.4
11/10/2020 3:30:00 PM 10.57 51.026 0.123 7.7 5.69 11.37
11/10/2020 3:45:00 PM 10.64 51.152 0.124 7.67 5.7 11.31
11/10/2020 4:00:00 PM 10.69 51.242 0.124 7.67 5.76 11.28
11/10/2020 4:15:00 PM 10.73 51.314 0.124 7.68 5.69 11.23
11/10/2020 4:30:00 PM 10.75 51.35 0.124 7.7 5.62 11.17
11/10/2020 4:45:00 PM 10.74 51.332 0.124 7.65 5.71 11.11
11/10/2020 5:00:00 PM 10.73 51.314 0.124 7.63 5.74 11.06
11/10/2020 5:15:00 PM 10.7 51.26 0.124 7.64 5.91 10.99
11/10/2020 5:30:00 PM 10.67 51.206 0.124 7.6 6.02 10.92
11/10/2020 5:45:00 PM 10.63 51.134 0.124 7.6 5.94 10.87
11/10/2020 6:00:00 PM 10.58 51.044 0.125 7.59 6.82 10.83
11/10/2020 6:15:00 PM 10.53 50.954 0.125 7.6 5.86 10.81
11/10/2020 6:30:00 PM 10.48 50.864 0.125 7.59 6.25 10.7
11/10/2020 6:45:00 PM 10.42 50.756 0.125 7.58 5.83 10.77
11/10/2020 7:00:00 PM 10.35 50.63 0.125 7.58 5.96 10.76
11/10/2020 7:15:00 PM 10.28 50.504 0.125 7.57 5.66 10.71
11/10/2020 7:30:00 PM 10.22 50.396 0.125 7.57 5.96 10.77
11/10/2020 7:45:00 PM 10.15 50.27 0.125 7.58 5.78 10.79
11/10/2020 8:00:00 PM 10.08 50.144 0.125 7.57 5.5 10.78
11/10/2020 8:15:00 PM 10.01 50.018 0.125 7.56 5.4 10.8
11/10/2020 8:30:00 PM 9.94 49.892 0.126 7.56 6.76 10.82
11/10/2020 8:45:00 PM 9.87 49.766 0.125 7.55 5.93 10.83
11/10/2020 9:00:00 PM 9.81 49.658 0.125 7.55 5.78 10.86
11/10/2020 9:15:00 PM 9.74 49.532 0.125 7.53 5.73 10.86
11/10/2020 9:30:00 PM 9.67 49.406 0.125 7.54 5.88 10.88
11/10/2020 9:45:00 PM 9.6 49.28 0.126 7.54 5.72 10.9
11/10/2020 10:00:00 PM 9.53 49.154 0.125 7.55 5.59 10.9
11/10/2020 10:15:00 PM 9.48 49.064 0.126 7.54 5.58 10.92
11/10/2020 10:30:00 PM 9.41 48.938 0.125 7.47 6.31 10.93
11/10/2020 10:45:00 PM 9.34 48.812 0.126 7.53 5.68 10.96
11/10/2020 11:00:00 PM 9.28 48.704 0.126 7.54 5.77 10.97
11/10/2020 11:15:00 PM 9.24 48.632 0.126 7.56 5.93 10.98
11/10/2020 11:30:00 PM 9.18 48.524 0.125 7.53 5.68 11
11/10/2020 11:45:00 PM 9.13 48.434 0.126 7.5 12.17 10.95
11/11/2020 12:00:00 AM 9.08 48.344 0.126 7.54 7.87 11.03
11/11/2020 12:15:00 AM 9.04 48.272 0.125 7.53 7.37 11.04
11/11/2020 12:30:00 AM 8.99 48.182 0.126 7.56 6.7 11.04
11/11/2020 12:45:00 AM 8.94 48.092 0.126 7.53 6.18 11.07
11/11/2020 1:00:00 AM 8.91 48.038 0.125 7.53 6.21 11.08
11/11/2020 1:15:00 AM 8.87 47.966 0.126 7.53 6.23 11.09
11/11/2020 1:30:00 AM 8.84 47.912 0.126 7.53 6.49 11.1
11/11/2020 1:45:00 AM 8.8 47.84 0.125 7.38 6.39 11.11
11/11/2020 2:00:00 AM 8.75 47.75 0.125 7.55 6.3 11.13
11/11/2020 2:15:00 AM 8.73 47.714 0.126 7.54 6.29 11.12
11/11/2020 2:30:00 AM 8.7 47.66 0.125 7.53 6.62 11.11
11/11/2020 2:45:00 AM 8.68 47.624 0.125 7.54 6.29 11.14
11/11/2020 3:00:00 AM 8.65 47.57 0.125 7.52 6.23 11.12
11/11/2020 3:15:00 AM 8.63 47.534 0.126 7.53 6.25 11.16
11/11/2020 3:30:00 AM 8.6 47.48 0.126 7.53 6.18 11.15
11/11/2020 3:45:00 AM 8.58 47.444 0.125 7.52 6.19 11.15
11/11/2020 4:00:00 AM 8.56 47.408 0.125 7.53 6.14 11.15
11/11/2020 4:15:00 AM 8.54 47.372 0.125 7.56 6.35 11.17
11/11/2020 4:30:00 AM 8.52 47.336 0.125 7.52 6.05 11.18
11/11/2020 4:45:00 AM 8.5 47.3 0.125 7.5 6.06 11.16
11/11/2020 5:00:00 AM 8.49 47.282 0.125 7.53 6.01 11.18
11/11/2020 5:15:00 AM 8.49 47.282 0.125 7.52 6.02 11.19
11/11/2020 5:30:00 AM 8.5 47.3 0.126 7.53 5.94 11.17
11/11/2020 5:45:00 AM 8.52 47.336 0.125 7.27 5.98 11.19
11/11/2020 6:00:00 AM 8.53 47.354 0.125 7.52 6.03 11.19
11/11/2020 6:15:00 AM 8.54 47.372 0.126 7.55 6.04 11.17
11/11/2020 6:30:00 AM 8.57 47.426 0.125 7.53 6.08 11.17
11/11/2020 6:45:00 AM 8.59 47.462 0.125 7.55 6.24 11.17
11/11/2020 7:00:00 AM 8.61 47.498 0.124 7.47 6.33 11.15
11/11/2020 7:15:00 AM 8.65 47.57 0.123 7.52 6.89 11.12
11/11/2020 7:30:00 AM 8.72 47.696 0.119 7.53 6.97 11.2
11/11/2020 7:45:00 AM 8.74 47.732 0.119 7.55 6.79 11.19
11/11/2020 8:00:00 AM 8.79 47.822 0.118 7.53 6.98 11.19
11/11/2020 8:15:00 AM 8.82 47.876 0.117 7.55 6.74 11.19
11/11/2020 8:30:00 AM 8.86 47.948 0.117 7.52 6.57 11.19
11/11/2020 8:45:00 AM 8.9 48.02 0.117 7.53 6.43 11.21
11/11/2020 9:00:00 AM 8.95 48.11 0.116 7.52 6.37 11.22
11/11/2020 9:15:00 AM 8.98 48.164 0.116 7.52 6.55 11.22
11/11/2020 9:30:00 AM 9.01 48.218 0.116 7.53 6.42 11.23
11/11/2020 9:45:00 AM 9.06 48.308 0.116 7.56 6.7 11.24
11/11/2020 10:00:00 AM 9.11 48.398 0.116 7.52 6.8 11.29
11/11/2020 10:15:00 AM 9.16 48.488 0.115 7.54 6.73 11.3
11/11/2020 10:30:00 AM 9.21 48.578 0.115 7.53 7.24 11.32
11/11/2020 10:45:00 AM 9.26 48.668 0.114 7.54 7.04 11.28
11/11/2020 11:00:00 AM 9.31 48.758 0.114 7.53 7.42 11.31
11/11/2020 11:15:00 AM 9.34 48.812 0.114 7.52 7.27 11.32
11/11/2020 11:30:00 AM 9.39 48.902 0.113 7.49 7.62 11.34
11/11/2020 11:45:00 AM 9.45 49.01 0.113 7.51 7.69 11.34
11/11/2020 12:00:00 PM 9.48 49.064 0.113 7.52 8.57 11.32
11/11/2020 12:15:00 PM 9.51 49.118 0.113 7.53 9.57 11.36
11/11/2020 12:30:00 PM 9.51 49.118 0.114 7.37 11.16 11.38
11/11/2020 12:45:00 PM 9.5 49.1 0.114 7.52 12.1 11.35
11/11/2020 1:00:00 PM 9.5 49.1 0.112 7.5 13.71 11.36
11/11/2020 1:15:00 PM 9.53 49.154 0.111 7.55 12.01 11.37
11/11/2020 1:30:00 PM 9.56 49.208 0.11 7.51 14.1 11.36
11/11/2020 1:45:00 PM 9.61 49.298 0.11 7.5 15.16 11.35
11/11/2020 2:00:00 PM 9.67 49.406 0.109 7.52 61.47 11.36
11/11/2020 2:15:00 PM 9.73 49.514 0.109 7.55 18.09 11.37
11/11/2020 2:30:00 PM 9.79 49.622 0.11 7.55 23.06 11.36
11/11/2020 2:45:00 PM 9.84 49.712 0.1 7.53 25.87 11.34
11/11/2020 3:00:00 PM 9.86 49.748 0.095 7.51 20.61 11.33
11/11/2020 3:15:00 PM 9.91 49.838 0.092 7.48 18.17 11.33
11/11/2020 3:30:00 PM 9.95 49.91 0.092 7.49 18.25 11.33
11/11/2020 3:45:00 PM 9.99 49.982 0.091 7.46 17.13 11.31
11/11/2020 4:00:00 PM 10.01 50.018 0.091 7.47 19.93 11.28
11/11/2020 4:15:00 PM 10.02 50.036 0.09 7.46 27.68 11.26
11/11/2020 4:30:00 PM 10.04 50.072 0.09 7.44 17.62 11.24
11/11/2020 4:45:00 PM 10.05 50.09 0.09 7.43 18.45 11.22
11/11/2020 5:00:00 PM 10.06 50.108 0.09 7.43 16.85 11.21
11/11/2020 5:15:00 PM 10.06 50.108 0.091 7.42 16.81 11.19
11/11/2020 5:30:00 PM 10.06 50.108 0.093 7.45 13.38 11.19
11/11/2020 5:45:00 PM 10.06 50.108 0.095 7.43 13.71 11.18
11/11/2020 6:00:00 PM 10.06 50.108 0.098 7.44 14.72 11.18
11/11/2020 6:15:00 PM 10.06 50.108 0.1 7.44 13.69 11.18
11/11/2020 6:30:00 PM 10.05 50.09 0.107 7.46 13.67 11.17
11/11/2020 6:45:00 PM 10.05 50.09 0.109 7.45 14.18 11.18
11/11/2020 7:00:00 PM 10.04 50.072 0.111 7.5 12.43 11.18
11/11/2020 7:15:00 PM 10.04 50.072 0.112 7.47 13.43 11.18
11/11/2020 7:30:00 PM 10.03 50.054 0.113 7.46 13.15 11.18
11/11/2020 7:45:00 PM 10.02 50.036 0.114 7.48 12.2 11.18
11/11/2020 8:00:00 PM 10.01 50.018 0.116 7.45 11.31 11.18
11/11/2020 8:15:00 PM 10 50 0.117 7.47 23.52 11.19
11/11/2020 8:30:00 PM 10 50 0.118 7.51 55.99 11.19
11/11/2020 8:45:00 PM 9.99 49.982 0.119 7.48 31.56 11.19
11/11/2020 9:00:00 PM 10 50 0.12 7.53 13.58 11.19
11/11/2020 9:15:00 PM 10.03 50.054 0.121 7.53 11.67 11.2
11/11/2020 9:30:00 PM 10.04 50.072 0.121 7.54 10.88 11.19
11/11/2020 9:45:00 PM 10.05 50.09 0.122 7.56 12.04 11.19
11/11/2020 10:00:00 PM 10.06 50.108 0.122 7.56 11.25 11.19
11/11/2020 10:15:00 PM 10.06 50.108 0.123 7.57 12.33 11.19
11/11/2020 10:30:00 PM 10.06 50.108 0.123 7.56 11.08 11.19
11/11/2020 10:45:00 PM 10.06 50.108 0.124 7.57 10.59 11.19
11/11/2020 11:00:00 PM 10.06 50.108 0.124 7.57 10.55 11.18
11/11/2020 11:15:00 PM 10.05 50.09 0.124 7.59 10.66 11.19
11/11/2020 11:30:00 PM 10.04 50.072 0.124 7.6 10.67 11.19
11/11/2020 11:45:00 PM 10.03 50.054 0.124 7.59 10.61 11.2
11/12/2020 12:00:00 AM 10.02 50.036 0.125 7.6 10.42 11.2
11/12/2020 12:15:00 AM 10.01 50.018 0.125 7.6 10.44 11.2
11/12/2020 12:30:00 AM 9.99 49.982 0.125 7.61 10.56 11.21
11/12/2020 12:45:00 AM 9.96 49.928 0.125 7.6 10.53 11.22
11/12/2020 1:00:00 AM 9.94 49.892 0.124 7.61 10.06 11.22
11/12/2020 1:15:00 AM 9.92 49.856 0.125 7.6 9.76 11.23
11/12/2020 1:30:00 AM 9.89 49.802 0.125 7.59 9.61 11.24
11/12/2020 1:45:00 AM 9.86 49.748 0.125 7.6 9.88 11.24
11/12/2020 2:00:00 AM 9.83 49.694 0.125 7.59 9.97 11.25
11/12/2020 2:15:00 AM 9.8 49.64 0.125 7.6 9.65 11.26
11/12/2020 2:30:00 AM 9.76 49.568 0.125 7.59 9.3 11.27
11/12/2020 2:45:00 AM 9.72 49.496 0.125 7.62 9.19 11.27
11/12/2020 3:00:00 AM 9.69 49.442 0.125 7.59 9.32 11.28
11/12/2020 3:15:00 AM 9.66 49.388 0.125 7.59 9.22 11.29
11/12/2020 3:30:00 AM 9.64 49.352 0.125 7.6 8.9 11.3
11/12/2020 3:45:00 AM 9.62 49.316 0.126 7.63 8.65 11.3
11/12/2020 4:00:00 AM 9.58 49.244 0.126 7.63 8.53 11.31
11/12/2020 4:15:00 AM 9.54 49.172 0.126 7.61 9.01 11.32
11/12/2020 4:30:00 AM 9.49 49.082 0.126 7.6 8.61 11.34
11/12/2020 4:45:00 AM 9.44 48.992 0.126 7.6 8.93 11.35
11/12/2020 5:00:00 AM 9.39 48.902 0.126 7.59 9.09 11.36
11/12/2020 5:15:00 AM 9.35 48.83 0.126 7.6 8.74 11.38
11/12/2020 5:30:00 AM 9.3 48.74 0.126 7.61 8.76 11.4
11/12/2020 5:45:00 AM 9.26 48.668 0.126 7.62 8.45 11.4
11/12/2020 6:00:00 AM 9.22 48.596 0.127 7.61 8.55 11.42
11/12/2020 6:15:00 AM 9.19 48.542 0.127 7.63 8.11 11.43
11/12/2020 6:30:00 AM 9.15 48.47 0.127 7.62 8.21 11.44
11/12/2020 6:45:00 AM 9.11 48.398 0.127 7.64 8.5 11.44
11/12/2020 7:00:00 AM 9.07 48.326 0.127 7.64 8.53 11.46
11/12/2020 7:15:00 AM 9.03 48.254 0.127 7.63 8.66 11.48
11/12/2020 7:30:00 AM 9 48.2 0.127 7.61 8.69 11.51
11/12/2020 7:45:00 AM 8.97 48.146 0.127 7.61 8.33 11.55
11/12/2020 8:00:00 AM 8.95 48.11 0.127 7.61 8.26 11.58
11/12/2020 8:15:00 AM 8.92 48.056 0.127 7.62 8.63 11.61
11/12/2020 8:30:00 AM 8.9 48.02 0.127 7.63 8 11.65
11/12/2020 8:45:00 AM 8.89 48.002 0.127 7.65 7.96 11.69
11/12/2020 9:00:00 AM 8.88 47.984 0.127 7.67 7.63 11.72
11/12/2020 9:15:00 AM 8.87 47.966 0.128 7.68 7.45 11.75
11/12/2020 9:30:00 AM 8.87 47.966 0.128 7.7 7.66 11.77
11/12/2020 9:45:00 AM 8.85 47.93 0.128 7.68 8.22 11.81
11/12/2020 10:00:00 AM 8.85 47.93 0.128 7.68 7.47 11.83
11/12/2020 10:15:00 AM 8.84 47.912 0.128 7.7 7.62 11.86
11/12/2020 10:30:00 AM 8.84 47.912 0.127 7.7 7.79 11.87
11/12/2020 10:45:00 AM 8.85 47.93 0.128 7.7 7.54 11.9
11/12/2020 11:00:00 AM 8.85 47.93 0.128 7.71 7.36 11.91
11/12/2020 11:15:00 AM 8.84 47.912 0.128 7.73 7.03 11.93
11/12/2020 11:30:00 AM 8.87 47.966 0.128 7.74 7.06 11.96
11/12/2020 11:45:00 AM 8.89 48.002 0.128 7.76 7.17 11.98
11/12/2020 12:00:00 PM 8.92 48.056 0.128 7.75 7.05 12
11/12/2020 12:15:00 PM 8.97 48.146 0.128 7.74 7.64 12.02
11/12/2020 12:30:00 PM 9.03 48.254 0.128 7.76 7.13 12.02
11/12/2020 12:45:00 PM 9.09 48.362 0.128 7.63 7.58 12.02
11/12/2020 1:00:00 PM 9.13 48.434 0.128 7.77 6.78 12.01
11/12/2020 1:15:00 PM 9.14 48.452 0.128 7.77 7.12 12.01
11/12/2020 1:30:00 PM 9.17 48.506 0.127 7.78 7.69 12
11/12/2020 1:45:00 PM 9.18 48.524 0.127 7.81 8.2 11.99
11/12/2020 2:00:00 PM 9.19 48.542 0.128 7.8 7.1 11.97
11/12/2020 2:15:00 PM 9.19 48.542 0.128 7.79 7.11 11.97
11/12/2020 2:30:00 PM 9.18 48.524 0.128 7.79 7.25 11.95
11/12/2020 2:45:00 PM 9.16 48.488 0.128 7.78 6.85 11.93
11/12/2020 3:00:00 PM 9.14 48.452 0.128 7.77 7.09 11.91
11/12/2020 3:15:00 PM 9.1 48.38 0.128 7.57 7.43 11.87
11/12/2020 3:30:00 PM 9.07 48.326 0.128 7.76 6.83 11.87
11/12/2020 3:45:00 PM 9.05 48.29 0.128 7.76 6.76 11.86
11/12/2020 4:00:00 PM 9 48.2 0.128 7.74 6.89 11.84
11/12/2020 4:15:00 PM 8.95 48.11 0.128 7.73 6.9 11.78
11/12/2020 4:30:00 PM 8.89 48.002 0.128 7.73 6.98 11.75
11/12/2020 4:45:00 PM 8.83 47.894 0.128 7.74 7.3 11.72
11/12/2020 5:00:00 PM 8.76 47.768 0.128 7.69 7.58 11.69
11/12/2020 5:15:00 PM 8.69 47.642 0.128 7.72 7.26 11.66
11/12/2020 5:30:00 PM 8.62 47.516 0.128 7.68 6.99 11.64
11/12/2020 5:45:00 PM 8.55 47.39 0.128 7.5 6.87 11.63
11/12/2020 6:00:00 PM 8.48 47.264 0.128 7.65 6.89 11.63
11/12/2020 6:15:00 PM 8.41 47.138 0.128 7.68 8.46 11.63
11/12/2020 6:30:00 PM 8.34 47.012 0.128 7.64 6.96 11.64
11/12/2020 6:45:00 PM 8.26 46.868 0.128 7.67 6.85 11.66
11/12/2020 7:00:00 PM 8.19 46.742 0.128 7.63 6.5 11.67
11/12/2020 7:15:00 PM 8.12 46.616 0.129 7.66 6.58 11.69
11/12/2020 7:30:00 PM 8.05 46.49 0.129 7.63 6.45 11.71
11/12/2020 7:45:00 PM 7.98 46.364 0.129 7.66 6.6 11.72
11/12/2020 8:00:00 PM 7.91 46.238 0.129 7.65 6.6 11.73
11/12/2020 8:15:00 PM 7.84 46.112 0.129 7.65 6.92 11.75
11/12/2020 8:30:00 PM 7.77 45.986 0.129 7.63 6.82 11.78
11/12/2020 8:45:00 PM 7.71 45.878 0.129 7.62 6.98 11.79
11/12/2020 9:00:00 PM 7.64 45.752 0.129 7.62 7.54 11.81
11/12/2020 9:15:00 PM 7.58 45.644 0.129 7.63 7.42 11.83
11/12/2020 9:30:00 PM 7.52 45.536 0.129 7.61 6.88 11.84
11/12/2020 9:45:00 PM 7.46 45.428 0.129 7.62 6.69 11.86
11/12/2020 10:00:00 PM 7.4 45.32 0.129 7.36 6.58 11.88
11/12/2020 10:15:00 PM 7.34 45.212 0.129 7.64 6.47 11.89
11/12/2020 10:30:00 PM 7.28 45.104 0.129 7.66 6.47 11.91
11/12/2020 10:45:00 PM 7.23 45.014 0.129 7.64 6.72 11.92
11/12/2020 11:00:00 PM 7.18 44.924 0.129 7.62 6.51 11.94
11/12/2020 11:15:00 PM 7.12 44.816 0.13 7.62 6.55 11.95
11/12/2020 11:30:00 PM 7.07 44.726 0.129 7.62 6.48 11.97
11/12/2020 11:45:00 PM 7.02 44.636 0.129 7.63 6.49 11.98
11/13/2020 12:00:00 AM 6.97 44.546 0.13 7.62 6.58 11.99
11/13/2020 12:15:00 AM 6.92 44.456 0.129 7.62 6.61 12.01
11/13/2020 12:30:00 AM 6.88 44.384 0.13 7.63 6.79 12.02
11/13/2020 12:45:00 AM 6.83 44.294 0.13 7.62 6.37 12.03
11/13/2020 1:00:00 AM 6.79 44.222 0.13 7.61 6.44 12.04
11/13/2020 1:15:00 AM 6.77 44.186 0.13 7.63 6.53 12.05
11/13/2020 1:30:00 AM 6.74 44.132 0.13 7.66 6.49 12.06
11/13/2020 1:45:00 AM 6.71 44.078 0.13 7.63 6.46 12.07
11/13/2020 2:00:00 AM 6.69 44.042 0.13 7.63 6.78 12.07
11/13/2020 2:15:00 AM 6.68 44.024 0.129 7.64 6.61 12.08
11/13/2020 2:30:00 AM 6.65 43.97 0.13 7.61 6.43 12.09
11/13/2020 2:45:00 AM 6.63 43.934 0.13 7.63 6.47 12.1
11/13/2020 3:00:00 AM 6.61 43.898 0.13 7.62 6.4 12.1
11/13/2020 3:15:00 AM 6.59 43.862 0.13 7.61 6.49 12.11
11/13/2020 3:30:00 AM 6.57 43.826 0.13 7.63 6.61 12.11
11/13/2020 3:45:00 AM 6.56 43.808 0.13 7.6 6.59 12.11
11/13/2020 4:00:00 AM 6.54 43.772 0.13 7.62 6.46 12.12
11/13/2020 4:15:00 AM 6.52 43.736 0.13 7.63 6.55 12.12
11/13/2020 4:30:00 AM 6.51 43.718 0.13 7.63 6.55 12.12
11/13/2020 4:45:00 AM 6.49 43.682 0.13 7.61 6.45 12.13
11/13/2020 5:00:00 AM 6.47 43.646 0.13 7.62 6.31 12.14
11/13/2020 5:15:00 AM 6.46 43.628 0.13 7.61 6.47 12.13
11/13/2020 5:30:00 AM 6.44 43.592 0.13 7.66 6.5 12.14
11/13/2020 5:45:00 AM 6.43 43.574 0.13 7.66 6.38 12.14
11/13/2020 6:00:00 AM 6.41 43.538 0.13 7.64 6.34 12.14
11/13/2020 6:15:00 AM 6.39 43.502 0.13 7.53 6.34 12.15
11/13/2020 6:30:00 AM 6.38 43.484 0.13 7.63 6.3 12.15
11/13/2020 6:45:00 AM 6.37 43.466 0.13 7.64 7.4 12.15
11/13/2020 7:00:00 AM 6.35 43.43 0.13 7.64 6.54 12.16
11/13/2020 7:15:00 AM 6.34 43.412 0.13 7.62 6.5 12.18
11/13/2020 7:30:00 AM 6.33 43.394 0.13 7.62 6.65 12.21
11/13/2020 7:45:00 AM 6.31 43.358 0.13 7.62 6.58 12.24
11/13/2020 8:00:00 AM 6.31 43.358 0.13 7.65 7.2 12.29
11/13/2020 8:15:00 AM 6.3 43.34 0.13 7.64 6.78 12.33
11/13/2020 8:30:00 AM 6.3 43.34 0.13 7.65 6.39 12.41
11/13/2020 8:45:00 AM 6.31 43.358 0.13 7.72 6.31 12.47
11/13/2020 9:00:00 AM 6.33 43.394 0.13 7.69 6.28 12.49
11/13/2020 9:15:00 AM 6.37 43.466 0.129 7.73 7.15 12.55